<?xml version="1.0" encoding="UTF-8" standalone="no" ?>
<gpx xmlns="http://www.topografix.com/GPX/1/1" xmlns:xsi="http://www.w3.org/2001/XMLSchema-instance" xsi:schemaLocation="http://www.topografix.com/GPX/1/1 http://www.topografix.com/GPX/1/1/gpx.xsd" version="1.1" creator="VisuGPX - https://www.visugpx.com">
  <metadata>
    <name>Mensu 13 forum VTT44.com</name>
    <desc><![CDATA[Circuit de la mensu 13 du forum VTT44.com
Autour du GR3 dans la région de Savenay-La Chapelle Launay]]></desc>
  </metadata>
  <trk>
    <name><![CDATA[SportyPalTrack]]></name>
    <desc><![CDATA[The track description]]></desc>
    <trkseg>
      <trkpt lat="47.35646" lon="-1.91987">
        <ele>81</ele>
        <time>2013-11-10T07:16:57Z</time>
      </trkpt>
      <trkpt lat="47.35646" lon="-1.91986">
        <ele>81</ele>
        <time>2013-11-10T07:17:04Z</time>
      </trkpt>
      <trkpt lat="47.35646" lon="-1.91986">
        <ele>81</ele>
        <time>2013-11-10T07:17:12Z</time>
      </trkpt>
      <trkpt lat="47.35646" lon="-1.91988">
        <ele>80</ele>
        <time>2013-11-10T07:17:19Z</time>
      </trkpt>
      <trkpt lat="47.35646" lon="-1.91988">
        <ele>80</ele>
        <time>2013-11-10T07:17:25Z</time>
      </trkpt>
      <trkpt lat="47.35646" lon="-1.91988">
        <ele>80</ele>
        <time>2013-11-10T07:17:32Z</time>
      </trkpt>
      <trkpt lat="47.35646" lon="-1.91988">
        <ele>79</ele>
        <time>2013-11-10T07:17:40Z</time>
      </trkpt>
      <trkpt lat="47.35646" lon="-1.91988">
        <ele>81</ele>
        <time>2013-11-10T07:17:47Z</time>
      </trkpt>
      <trkpt lat="47.35646" lon="-1.91988">
        <ele>81</ele>
        <time>2013-11-10T07:17:54Z</time>
      </trkpt>
      <trkpt lat="47.35646" lon="-1.91988">
        <ele>81</ele>
        <time>2013-11-10T07:18:02Z</time>
      </trkpt>
      <trkpt lat="47.35646" lon="-1.91988">
        <ele>80</ele>
        <time>2013-11-10T07:18:08Z</time>
      </trkpt>
      <trkpt lat="47.35646" lon="-1.91988">
        <ele>80</ele>
        <time>2013-11-10T07:18:16Z</time>
      </trkpt>
      <trkpt lat="47.35646" lon="-1.91988">
        <ele>81</ele>
        <time>2013-11-10T07:18:24Z</time>
      </trkpt>
      <trkpt lat="47.35646" lon="-1.91988">
        <ele>81</ele>
        <time>2013-11-10T07:18:30Z</time>
      </trkpt>
      <trkpt lat="47.35646" lon="-1.91988">
        <ele>81</ele>
        <time>2013-11-10T07:18:38Z</time>
      </trkpt>
      <trkpt lat="47.35647" lon="-1.91988">
        <ele>82</ele>
        <time>2013-11-10T07:18:46Z</time>
      </trkpt>
      <trkpt lat="47.35644" lon="-1.91981">
        <ele>81</ele>
        <time>2013-11-10T07:18:53Z</time>
      </trkpt>
      <trkpt lat="47.35646" lon="-1.91994">
        <ele>80</ele>
        <time>2013-11-10T07:19:00Z</time>
      </trkpt>
      <trkpt lat="47.35648" lon="-1.92015">
        <ele>79</ele>
        <time>2013-11-10T07:19:08Z</time>
      </trkpt>
      <trkpt lat="47.35655" lon="-1.92016">
        <ele>79</ele>
        <time>2013-11-10T07:19:15Z</time>
      </trkpt>
      <trkpt lat="47.35655" lon="-1.92007">
        <ele>81</ele>
        <time>2013-11-10T07:19:21Z</time>
      </trkpt>
      <trkpt lat="47.35653" lon="-1.91996">
        <ele>80</ele>
        <time>2013-11-10T07:19:28Z</time>
      </trkpt>
      <trkpt lat="47.3565" lon="-1.91991">
        <ele>80</ele>
        <time>2013-11-10T07:19:35Z</time>
      </trkpt>
      <trkpt lat="47.3565" lon="-1.91993">
        <ele>80</ele>
        <time>2013-11-10T07:19:43Z</time>
      </trkpt>
      <trkpt lat="47.3565" lon="-1.91993">
        <ele>80</ele>
        <time>2013-11-10T07:19:51Z</time>
      </trkpt>
      <trkpt lat="47.3565" lon="-1.91993">
        <ele>80</ele>
        <time>2013-11-10T07:19:58Z</time>
      </trkpt>
      <trkpt lat="47.3565" lon="-1.91993">
        <ele>79</ele>
        <time>2013-11-10T07:20:05Z</time>
      </trkpt>
      <trkpt lat="47.3565" lon="-1.91993">
        <ele>80</ele>
        <time>2013-11-10T07:20:12Z</time>
      </trkpt>
      <trkpt lat="47.3565" lon="-1.91993">
        <ele>78</ele>
        <time>2013-11-10T07:20:20Z</time>
      </trkpt>
      <trkpt lat="47.3565" lon="-1.91993">
        <ele>80</ele>
        <time>2013-11-10T07:20:27Z</time>
      </trkpt>
      <trkpt lat="47.3565" lon="-1.91993">
        <ele>80</ele>
        <time>2013-11-10T07:20:34Z</time>
      </trkpt>
      <trkpt lat="47.3565" lon="-1.91993">
        <ele>80</ele>
        <time>2013-11-10T07:20:41Z</time>
      </trkpt>
      <trkpt lat="47.3565" lon="-1.91993">
        <ele>80</ele>
        <time>2013-11-10T07:20:48Z</time>
      </trkpt>
      <trkpt lat="47.3565" lon="-1.91993">
        <ele>80</ele>
        <time>2013-11-10T07:20:56Z</time>
      </trkpt>
      <trkpt lat="47.3565" lon="-1.91993">
        <ele>80</ele>
        <time>2013-11-10T07:21:03Z</time>
      </trkpt>
      <trkpt lat="47.3565" lon="-1.91993">
        <ele>80</ele>
        <time>2013-11-10T07:21:11Z</time>
      </trkpt>
      <trkpt lat="47.3565" lon="-1.91993">
        <ele>80</ele>
        <time>2013-11-10T07:21:17Z</time>
      </trkpt>
      <trkpt lat="47.3565" lon="-1.91993">
        <ele>80</ele>
        <time>2013-11-10T07:21:24Z</time>
      </trkpt>
      <trkpt lat="47.3565" lon="-1.91993">
        <ele>80</ele>
        <time>2013-11-10T07:21:31Z</time>
      </trkpt>
      <trkpt lat="47.3565" lon="-1.91993">
        <ele>79</ele>
        <time>2013-11-10T07:21:38Z</time>
      </trkpt>
      <trkpt lat="47.3565" lon="-1.91993">
        <ele>80</ele>
        <time>2013-11-10T07:21:46Z</time>
      </trkpt>
      <trkpt lat="47.3565" lon="-1.91993">
        <ele>79</ele>
        <time>2013-11-10T07:21:53Z</time>
      </trkpt>
      <trkpt lat="47.3565" lon="-1.91993">
        <ele>80</ele>
        <time>2013-11-10T07:22:01Z</time>
      </trkpt>
      <trkpt lat="47.3565" lon="-1.91993">
        <ele>80</ele>
        <time>2013-11-10T07:22:07Z</time>
      </trkpt>
      <trkpt lat="47.3565" lon="-1.91993">
        <ele>79</ele>
        <time>2013-11-10T07:22:14Z</time>
      </trkpt>
      <trkpt lat="47.3565" lon="-1.91993">
        <ele>80</ele>
        <time>2013-11-10T07:22:21Z</time>
      </trkpt>
      <trkpt lat="47.3565" lon="-1.91993">
        <ele>79</ele>
        <time>2013-11-10T07:22:29Z</time>
      </trkpt>
      <trkpt lat="47.3565" lon="-1.91993">
        <ele>80</ele>
        <time>2013-11-10T07:22:36Z</time>
      </trkpt>
      <trkpt lat="47.3565" lon="-1.91993">
        <ele>80</ele>
        <time>2013-11-10T07:22:43Z</time>
      </trkpt>
      <trkpt lat="47.3565" lon="-1.91993">
        <ele>79</ele>
        <time>2013-11-10T07:22:51Z</time>
      </trkpt>
      <trkpt lat="47.3565" lon="-1.91993">
        <ele>79</ele>
        <time>2013-11-10T07:22:58Z</time>
      </trkpt>
      <trkpt lat="47.3565" lon="-1.91993">
        <ele>80</ele>
        <time>2013-11-10T07:23:06Z</time>
      </trkpt>
      <trkpt lat="47.3565" lon="-1.91993">
        <ele>79</ele>
        <time>2013-11-10T07:23:13Z</time>
      </trkpt>
      <trkpt lat="47.3565" lon="-1.91993">
        <ele>80</ele>
        <time>2013-11-10T07:23:20Z</time>
      </trkpt>
      <trkpt lat="47.3565" lon="-1.91993">
        <ele>79</ele>
        <time>2013-11-10T07:23:28Z</time>
      </trkpt>
      <trkpt lat="47.3565" lon="-1.91993">
        <ele>79</ele>
        <time>2013-11-10T07:23:35Z</time>
      </trkpt>
      <trkpt lat="47.3565" lon="-1.91993">
        <ele>79</ele>
        <time>2013-11-10T07:23:42Z</time>
      </trkpt>
      <trkpt lat="47.3565" lon="-1.91993">
        <ele>80</ele>
        <time>2013-11-10T07:23:49Z</time>
      </trkpt>
      <trkpt lat="47.3565" lon="-1.91993">
        <ele>79</ele>
        <time>2013-11-10T07:23:57Z</time>
      </trkpt>
      <trkpt lat="47.3565" lon="-1.91993">
        <ele>80</ele>
        <time>2013-11-10T07:24:05Z</time>
      </trkpt>
      <trkpt lat="47.3565" lon="-1.91993">
        <ele>80</ele>
        <time>2013-11-10T07:24:12Z</time>
      </trkpt>
      <trkpt lat="47.3565" lon="-1.91993">
        <ele>79</ele>
        <time>2013-11-10T07:24:19Z</time>
      </trkpt>
      <trkpt lat="47.3565" lon="-1.91993">
        <ele>79</ele>
        <time>2013-11-10T07:24:27Z</time>
      </trkpt>
      <trkpt lat="47.3565" lon="-1.91993">
        <ele>79</ele>
        <time>2013-11-10T07:24:33Z</time>
      </trkpt>
      <trkpt lat="47.3565" lon="-1.91993">
        <ele>80</ele>
        <time>2013-11-10T07:24:40Z</time>
      </trkpt>
      <trkpt lat="47.3565" lon="-1.91993">
        <ele>80</ele>
        <time>2013-11-10T07:24:48Z</time>
      </trkpt>
      <trkpt lat="47.3565" lon="-1.91993">
        <ele>79</ele>
        <time>2013-11-10T07:24:56Z</time>
      </trkpt>
      <trkpt lat="47.3565" lon="-1.91993">
        <ele>78</ele>
        <time>2013-11-10T07:25:03Z</time>
      </trkpt>
      <trkpt lat="47.3565" lon="-1.91993">
        <ele>79</ele>
        <time>2013-11-10T07:25:10Z</time>
      </trkpt>
      <trkpt lat="47.3565" lon="-1.91993">
        <ele>79</ele>
        <time>2013-11-10T07:25:17Z</time>
      </trkpt>
      <trkpt lat="47.3565" lon="-1.91993">
        <ele>79</ele>
        <time>2013-11-10T07:25:23Z</time>
      </trkpt>
      <trkpt lat="47.3565" lon="-1.91993">
        <ele>77</ele>
        <time>2013-11-10T07:25:31Z</time>
      </trkpt>
      <trkpt lat="47.3565" lon="-1.91993">
        <ele>79</ele>
        <time>2013-11-10T07:25:38Z</time>
      </trkpt>
      <trkpt lat="47.3565" lon="-1.91993">
        <ele>79</ele>
        <time>2013-11-10T07:25:44Z</time>
      </trkpt>
      <trkpt lat="47.3565" lon="-1.91993">
        <ele>79</ele>
        <time>2013-11-10T07:25:52Z</time>
      </trkpt>
      <trkpt lat="47.3565" lon="-1.91993">
        <ele>79</ele>
        <time>2013-11-10T07:25:59Z</time>
      </trkpt>
      <trkpt lat="47.3565" lon="-1.91993">
        <ele>79</ele>
        <time>2013-11-10T07:26:06Z</time>
      </trkpt>
      <trkpt lat="47.3565" lon="-1.91993">
        <ele>79</ele>
        <time>2013-11-10T07:26:13Z</time>
      </trkpt>
      <trkpt lat="47.3565" lon="-1.92005">
        <ele>78</ele>
        <time>2013-11-10T07:26:20Z</time>
      </trkpt>
      <trkpt lat="47.35661" lon="-1.92046">
        <ele>77</ele>
        <time>2013-11-10T07:26:27Z</time>
      </trkpt>
      <trkpt lat="47.3565" lon="-1.92077">
        <ele>78</ele>
        <time>2013-11-10T07:26:35Z</time>
      </trkpt>
      <trkpt lat="47.35633" lon="-1.92113">
        <ele>78</ele>
        <time>2013-11-10T07:26:42Z</time>
      </trkpt>
      <trkpt lat="47.35611" lon="-1.92145">
        <ele>78</ele>
        <time>2013-11-10T07:26:50Z</time>
      </trkpt>
      <trkpt lat="47.35596" lon="-1.92159">
        <ele>77</ele>
        <time>2013-11-10T07:26:57Z</time>
      </trkpt>
      <trkpt lat="47.35597" lon="-1.92164">
        <ele>77</ele>
        <time>2013-11-10T07:27:05Z</time>
      </trkpt>
      <trkpt lat="47.35596" lon="-1.92173">
        <ele>76</ele>
        <time>2013-11-10T07:27:13Z</time>
      </trkpt>
      <trkpt lat="47.35608" lon="-1.922">
        <ele>75</ele>
        <time>2013-11-10T07:27:20Z</time>
      </trkpt>
      <trkpt lat="47.35611" lon="-1.92243">
        <ele>75</ele>
        <time>2013-11-10T07:27:27Z</time>
      </trkpt>
      <trkpt lat="47.35607" lon="-1.92271">
        <ele>76</ele>
        <time>2013-11-10T07:27:33Z</time>
      </trkpt>
      <trkpt lat="47.35597" lon="-1.92294">
        <ele>74</ele>
        <time>2013-11-10T07:27:40Z</time>
      </trkpt>
      <trkpt lat="47.35573" lon="-1.92323">
        <ele>74</ele>
        <time>2013-11-10T07:27:47Z</time>
      </trkpt>
      <trkpt lat="47.3555" lon="-1.92348">
        <ele>73</ele>
        <time>2013-11-10T07:27:53Z</time>
      </trkpt>
      <trkpt lat="47.35534" lon="-1.92367">
        <ele>75</ele>
        <time>2013-11-10T07:28:00Z</time>
      </trkpt>
      <trkpt lat="47.3552" lon="-1.92377">
        <ele>76</ele>
        <time>2013-11-10T07:28:06Z</time>
      </trkpt>
      <trkpt lat="47.35511" lon="-1.92372">
        <ele>79</ele>
        <time>2013-11-10T07:28:13Z</time>
      </trkpt>
      <trkpt lat="47.355" lon="-1.92363">
        <ele>79</ele>
        <time>2013-11-10T07:28:20Z</time>
      </trkpt>
      <trkpt lat="47.35476" lon="-1.92357">
        <ele>79</ele>
        <time>2013-11-10T07:28:27Z</time>
      </trkpt>
      <trkpt lat="47.35462" lon="-1.92369">
        <ele>73</ele>
        <time>2013-11-10T07:28:35Z</time>
      </trkpt>
      <trkpt lat="47.35457" lon="-1.92387">
        <ele>74</ele>
        <time>2013-11-10T07:28:42Z</time>
      </trkpt>
      <trkpt lat="47.3545" lon="-1.92418">
        <ele>74</ele>
        <time>2013-11-10T07:28:49Z</time>
      </trkpt>
      <trkpt lat="47.35447" lon="-1.92426">
        <ele>74</ele>
        <time>2013-11-10T07:28:56Z</time>
      </trkpt>
      <trkpt lat="47.35447" lon="-1.92426">
        <ele>74</ele>
        <time>2013-11-10T07:29:03Z</time>
      </trkpt>
      <trkpt lat="47.35448" lon="-1.9244">
        <ele>72</ele>
        <time>2013-11-10T07:29:11Z</time>
      </trkpt>
      <trkpt lat="47.35454" lon="-1.92461">
        <ele>71</ele>
        <time>2013-11-10T07:29:18Z</time>
      </trkpt>
      <trkpt lat="47.35455" lon="-1.92492">
        <ele>72</ele>
        <time>2013-11-10T07:29:25Z</time>
      </trkpt>
      <trkpt lat="47.35451" lon="-1.92523">
        <ele>72</ele>
        <time>2013-11-10T07:29:31Z</time>
      </trkpt>
      <trkpt lat="47.3545" lon="-1.92527">
        <ele>72</ele>
        <time>2013-11-10T07:29:38Z</time>
      </trkpt>
      <trkpt lat="47.3545" lon="-1.92527">
        <ele>72</ele>
        <time>2013-11-10T07:29:46Z</time>
      </trkpt>
      <trkpt lat="47.35443" lon="-1.92539">
        <ele>72</ele>
        <time>2013-11-10T07:29:54Z</time>
      </trkpt>
      <trkpt lat="47.35433" lon="-1.92554">
        <ele>75</ele>
        <time>2013-11-10T07:30:01Z</time>
      </trkpt>
      <trkpt lat="47.35429" lon="-1.9256">
        <ele>74</ele>
        <time>2013-11-10T07:30:07Z</time>
      </trkpt>
      <trkpt lat="47.35424" lon="-1.92578">
        <ele>75</ele>
        <time>2013-11-10T07:30:15Z</time>
      </trkpt>
      <trkpt lat="47.35416" lon="-1.92593">
        <ele>74</ele>
        <time>2013-11-10T07:30:22Z</time>
      </trkpt>
      <trkpt lat="47.3541" lon="-1.92602">
        <ele>73</ele>
        <time>2013-11-10T07:30:29Z</time>
      </trkpt>
      <trkpt lat="47.35399" lon="-1.92613">
        <ele>73</ele>
        <time>2013-11-10T07:30:37Z</time>
      </trkpt>
      <trkpt lat="47.3539" lon="-1.92635">
        <ele>72</ele>
        <time>2013-11-10T07:30:43Z</time>
      </trkpt>
      <trkpt lat="47.35379" lon="-1.92657">
        <ele>74</ele>
        <time>2013-11-10T07:30:50Z</time>
      </trkpt>
      <trkpt lat="47.35378" lon="-1.92658">
        <ele>73</ele>
        <time>2013-11-10T07:30:58Z</time>
      </trkpt>
      <trkpt lat="47.35378" lon="-1.92658">
        <ele>73</ele>
        <time>2013-11-10T07:31:05Z</time>
      </trkpt>
      <trkpt lat="47.35365" lon="-1.92677">
        <ele>74</ele>
        <time>2013-11-10T07:31:13Z</time>
      </trkpt>
      <trkpt lat="47.35331" lon="-1.92702">
        <ele>75</ele>
        <time>2013-11-10T07:31:20Z</time>
      </trkpt>
      <trkpt lat="47.3532" lon="-1.9271">
        <ele>76</ele>
        <time>2013-11-10T07:31:26Z</time>
      </trkpt>
      <trkpt lat="47.35315" lon="-1.92713">
        <ele>76</ele>
        <time>2013-11-10T07:31:33Z</time>
      </trkpt>
      <trkpt lat="47.3531" lon="-1.92711">
        <ele>77</ele>
        <time>2013-11-10T07:31:40Z</time>
      </trkpt>
      <trkpt lat="47.35297" lon="-1.92712">
        <ele>77</ele>
        <time>2013-11-10T07:31:47Z</time>
      </trkpt>
      <trkpt lat="47.35285" lon="-1.9271">
        <ele>77</ele>
        <time>2013-11-10T07:31:55Z</time>
      </trkpt>
      <trkpt lat="47.35274" lon="-1.92711">
        <ele>72</ele>
        <time>2013-11-10T07:32:03Z</time>
      </trkpt>
      <trkpt lat="47.35264" lon="-1.92715">
        <ele>67</ele>
        <time>2013-11-10T07:32:10Z</time>
      </trkpt>
      <trkpt lat="47.35259" lon="-1.92728">
        <ele>62</ele>
        <time>2013-11-10T07:32:17Z</time>
      </trkpt>
      <trkpt lat="47.35251" lon="-1.9276">
        <ele>55</ele>
        <time>2013-11-10T07:32:24Z</time>
      </trkpt>
      <trkpt lat="47.35258" lon="-1.92794">
        <ele>55</ele>
        <time>2013-11-10T07:32:32Z</time>
      </trkpt>
      <trkpt lat="47.35259" lon="-1.92797">
        <ele>55</ele>
        <time>2013-11-10T07:32:38Z</time>
      </trkpt>
      <trkpt lat="47.3526" lon="-1.92797">
        <ele>56</ele>
        <time>2013-11-10T07:32:45Z</time>
      </trkpt>
      <trkpt lat="47.3526" lon="-1.92797">
        <ele>55</ele>
        <time>2013-11-10T07:32:52Z</time>
      </trkpt>
      <trkpt lat="47.3526" lon="-1.92797">
        <ele>55</ele>
        <time>2013-11-10T07:33:00Z</time>
      </trkpt>
      <trkpt lat="47.35259" lon="-1.92796">
        <ele>56</ele>
        <time>2013-11-10T07:33:07Z</time>
      </trkpt>
      <trkpt lat="47.35258" lon="-1.92796">
        <ele>56</ele>
        <time>2013-11-10T07:33:13Z</time>
      </trkpt>
      <trkpt lat="47.35259" lon="-1.928">
        <ele>56</ele>
        <time>2013-11-10T07:33:19Z</time>
      </trkpt>
      <trkpt lat="47.35257" lon="-1.928">
        <ele>59</ele>
        <time>2013-11-10T07:33:26Z</time>
      </trkpt>
      <trkpt lat="47.35257" lon="-1.928">
        <ele>58</ele>
        <time>2013-11-10T07:33:33Z</time>
      </trkpt>
      <trkpt lat="47.35255" lon="-1.92792">
        <ele>58</ele>
        <time>2013-11-10T07:33:40Z</time>
      </trkpt>
      <trkpt lat="47.35254" lon="-1.9279">
        <ele>57</ele>
        <time>2013-11-10T07:33:48Z</time>
      </trkpt>
      <trkpt lat="47.35254" lon="-1.9279">
        <ele>55</ele>
        <time>2013-11-10T07:33:54Z</time>
      </trkpt>
      <trkpt lat="47.35254" lon="-1.92791">
        <ele>55</ele>
        <time>2013-11-10T07:34:01Z</time>
      </trkpt>
      <trkpt lat="47.35253" lon="-1.92791">
        <ele>54</ele>
        <time>2013-11-10T07:34:08Z</time>
      </trkpt>
      <trkpt lat="47.35253" lon="-1.92791">
        <ele>54</ele>
        <time>2013-11-10T07:34:15Z</time>
      </trkpt>
      <trkpt lat="47.35253" lon="-1.92791">
        <ele>55</ele>
        <time>2013-11-10T07:34:22Z</time>
      </trkpt>
      <trkpt lat="47.35253" lon="-1.92791">
        <ele>53</ele>
        <time>2013-11-10T07:34:29Z</time>
      </trkpt>
      <trkpt lat="47.35253" lon="-1.92792">
        <ele>54</ele>
        <time>2013-11-10T07:34:36Z</time>
      </trkpt>
      <trkpt lat="47.35253" lon="-1.92793">
        <ele>54</ele>
        <time>2013-11-10T07:34:44Z</time>
      </trkpt>
      <trkpt lat="47.35253" lon="-1.92795">
        <ele>55</ele>
        <time>2013-11-10T07:34:53Z</time>
      </trkpt>
      <trkpt lat="47.35252" lon="-1.92793">
        <ele>54</ele>
        <time>2013-11-10T07:35:00Z</time>
      </trkpt>
      <trkpt lat="47.35251" lon="-1.92792">
        <ele>54</ele>
        <time>2013-11-10T07:35:07Z</time>
      </trkpt>
      <trkpt lat="47.35249" lon="-1.92795">
        <ele>53</ele>
        <time>2013-11-10T07:35:16Z</time>
      </trkpt>
      <trkpt lat="47.3525" lon="-1.92799">
        <ele>53</ele>
        <time>2013-11-10T07:35:22Z</time>
      </trkpt>
      <trkpt lat="47.35251" lon="-1.928">
        <ele>53</ele>
        <time>2013-11-10T07:35:29Z</time>
      </trkpt>
      <trkpt lat="47.35251" lon="-1.92803">
        <ele>54</ele>
        <time>2013-11-10T07:35:36Z</time>
      </trkpt>
      <trkpt lat="47.35253" lon="-1.92804">
        <ele>53</ele>
        <time>2013-11-10T07:35:43Z</time>
      </trkpt>
      <trkpt lat="47.35255" lon="-1.92806">
        <ele>53</ele>
        <time>2013-11-10T07:35:52Z</time>
      </trkpt>
      <trkpt lat="47.35257" lon="-1.92808">
        <ele>54</ele>
        <time>2013-11-10T07:36:00Z</time>
      </trkpt>
      <trkpt lat="47.35258" lon="-1.92808">
        <ele>54</ele>
        <time>2013-11-10T07:36:06Z</time>
      </trkpt>
      <trkpt lat="47.35259" lon="-1.92809">
        <ele>53</ele>
        <time>2013-11-10T07:36:13Z</time>
      </trkpt>
      <trkpt lat="47.3526" lon="-1.92809">
        <ele>53</ele>
        <time>2013-11-10T07:36:21Z</time>
      </trkpt>
      <trkpt lat="47.35261" lon="-1.92809">
        <ele>53</ele>
        <time>2013-11-10T07:36:28Z</time>
      </trkpt>
      <trkpt lat="47.35261" lon="-1.9281">
        <ele>54</ele>
        <time>2013-11-10T07:36:36Z</time>
      </trkpt>
      <trkpt lat="47.3526" lon="-1.92811">
        <ele>54</ele>
        <time>2013-11-10T07:36:43Z</time>
      </trkpt>
      <trkpt lat="47.35258" lon="-1.92818">
        <ele>54</ele>
        <time>2013-11-10T07:36:51Z</time>
      </trkpt>
      <trkpt lat="47.35257" lon="-1.92819">
        <ele>54</ele>
        <time>2013-11-10T07:36:58Z</time>
      </trkpt>
      <trkpt lat="47.35257" lon="-1.92819">
        <ele>54</ele>
        <time>2013-11-10T07:37:06Z</time>
      </trkpt>
      <trkpt lat="47.35257" lon="-1.92819">
        <ele>53</ele>
        <time>2013-11-10T07:37:13Z</time>
      </trkpt>
      <trkpt lat="47.35257" lon="-1.9282">
        <ele>53</ele>
        <time>2013-11-10T07:37:22Z</time>
      </trkpt>
      <trkpt lat="47.35259" lon="-1.92823">
        <ele>54</ele>
        <time>2013-11-10T07:37:29Z</time>
      </trkpt>
      <trkpt lat="47.35259" lon="-1.92824">
        <ele>52</ele>
        <time>2013-11-10T07:37:37Z</time>
      </trkpt>
      <trkpt lat="47.35259" lon="-1.92823">
        <ele>53</ele>
        <time>2013-11-10T07:37:45Z</time>
      </trkpt>
      <trkpt lat="47.3526" lon="-1.92821">
        <ele>54</ele>
        <time>2013-11-10T07:37:53Z</time>
      </trkpt>
      <trkpt lat="47.3526" lon="-1.92818">
        <ele>53</ele>
        <time>2013-11-10T07:38:00Z</time>
      </trkpt>
      <trkpt lat="47.35261" lon="-1.92815">
        <ele>54</ele>
        <time>2013-11-10T07:38:07Z</time>
      </trkpt>
      <trkpt lat="47.3526" lon="-1.92816">
        <ele>53</ele>
        <time>2013-11-10T07:38:15Z</time>
      </trkpt>
      <trkpt lat="47.3526" lon="-1.92816">
        <ele>54</ele>
        <time>2013-11-10T07:38:22Z</time>
      </trkpt>
      <trkpt lat="47.3526" lon="-1.92816">
        <ele>53</ele>
        <time>2013-11-10T07:38:29Z</time>
      </trkpt>
      <trkpt lat="47.3526" lon="-1.92816">
        <ele>53</ele>
        <time>2013-11-10T07:38:35Z</time>
      </trkpt>
      <trkpt lat="47.3526" lon="-1.92817">
        <ele>54</ele>
        <time>2013-11-10T07:38:43Z</time>
      </trkpt>
      <trkpt lat="47.3526" lon="-1.92818">
        <ele>53</ele>
        <time>2013-11-10T07:38:50Z</time>
      </trkpt>
      <trkpt lat="47.35259" lon="-1.92821">
        <ele>53</ele>
        <time>2013-11-10T07:38:58Z</time>
      </trkpt>
      <trkpt lat="47.3526" lon="-1.92822">
        <ele>53</ele>
        <time>2013-11-10T07:39:05Z</time>
      </trkpt>
      <trkpt lat="47.35261" lon="-1.92822">
        <ele>54</ele>
        <time>2013-11-10T07:39:12Z</time>
      </trkpt>
      <trkpt lat="47.35261" lon="-1.92822">
        <ele>52</ele>
        <time>2013-11-10T07:39:19Z</time>
      </trkpt>
      <trkpt lat="47.3526" lon="-1.92819">
        <ele>54</ele>
        <time>2013-11-10T07:39:26Z</time>
      </trkpt>
      <trkpt lat="47.35263" lon="-1.92814">
        <ele>54</ele>
        <time>2013-11-10T07:39:33Z</time>
      </trkpt>
      <trkpt lat="47.35272" lon="-1.92809">
        <ele>54</ele>
        <time>2013-11-10T07:39:40Z</time>
      </trkpt>
      <trkpt lat="47.35286" lon="-1.9281">
        <ele>56</ele>
        <time>2013-11-10T07:39:47Z</time>
      </trkpt>
      <trkpt lat="47.353" lon="-1.92815">
        <ele>55</ele>
        <time>2013-11-10T07:39:54Z</time>
      </trkpt>
      <trkpt lat="47.3532" lon="-1.92818">
        <ele>57</ele>
        <time>2013-11-10T07:40:02Z</time>
      </trkpt>
      <trkpt lat="47.35333" lon="-1.92822">
        <ele>60</ele>
        <time>2013-11-10T07:40:09Z</time>
      </trkpt>
      <trkpt lat="47.35341" lon="-1.92819">
        <ele>64</ele>
        <time>2013-11-10T07:40:16Z</time>
      </trkpt>
      <trkpt lat="47.35342" lon="-1.92819">
        <ele>64</ele>
        <time>2013-11-10T07:40:24Z</time>
      </trkpt>
      <trkpt lat="47.35345" lon="-1.92819">
        <ele>65</ele>
        <time>2013-11-10T07:40:32Z</time>
      </trkpt>
      <trkpt lat="47.35355" lon="-1.92814">
        <ele>67</ele>
        <time>2013-11-10T07:40:38Z</time>
      </trkpt>
      <trkpt lat="47.35369" lon="-1.9281">
        <ele>69</ele>
        <time>2013-11-10T07:40:45Z</time>
      </trkpt>
      <trkpt lat="47.35379" lon="-1.92808">
        <ele>68</ele>
        <time>2013-11-10T07:40:52Z</time>
      </trkpt>
      <trkpt lat="47.35389" lon="-1.92795">
        <ele>68</ele>
        <time>2013-11-10T07:40:59Z</time>
      </trkpt>
      <trkpt lat="47.35408" lon="-1.92779">
        <ele>67</ele>
        <time>2013-11-10T07:41:06Z</time>
      </trkpt>
      <trkpt lat="47.35424" lon="-1.92769">
        <ele>68</ele>
        <time>2013-11-10T07:41:13Z</time>
      </trkpt>
      <trkpt lat="47.35432" lon="-1.92765">
        <ele>67</ele>
        <time>2013-11-10T07:41:21Z</time>
      </trkpt>
      <trkpt lat="47.35434" lon="-1.92765">
        <ele>68</ele>
        <time>2013-11-10T07:41:27Z</time>
      </trkpt>
      <trkpt lat="47.35434" lon="-1.92765">
        <ele>68</ele>
        <time>2013-11-10T07:41:34Z</time>
      </trkpt>
      <trkpt lat="47.35434" lon="-1.92765">
        <ele>67</ele>
        <time>2013-11-10T07:41:41Z</time>
      </trkpt>
      <trkpt lat="47.35434" lon="-1.92765">
        <ele>68</ele>
        <time>2013-11-10T07:41:48Z</time>
      </trkpt>
      <trkpt lat="47.35434" lon="-1.92765">
        <ele>66</ele>
        <time>2013-11-10T07:41:55Z</time>
      </trkpt>
      <trkpt lat="47.35434" lon="-1.92765">
        <ele>67</ele>
        <time>2013-11-10T07:42:02Z</time>
      </trkpt>
      <trkpt lat="47.35434" lon="-1.92766">
        <ele>67</ele>
        <time>2013-11-10T07:42:10Z</time>
      </trkpt>
      <trkpt lat="47.35434" lon="-1.92766">
        <ele>68</ele>
        <time>2013-11-10T07:42:16Z</time>
      </trkpt>
      <trkpt lat="47.35434" lon="-1.92765">
        <ele>67</ele>
        <time>2013-11-10T07:42:23Z</time>
      </trkpt>
      <trkpt lat="47.35435" lon="-1.92765">
        <ele>66</ele>
        <time>2013-11-10T07:42:31Z</time>
      </trkpt>
      <trkpt lat="47.35445" lon="-1.92759">
        <ele>69</ele>
        <time>2013-11-10T07:42:39Z</time>
      </trkpt>
      <trkpt lat="47.35461" lon="-1.92754">
        <ele>72</ele>
        <time>2013-11-10T07:42:46Z</time>
      </trkpt>
      <trkpt lat="47.35479" lon="-1.92728">
        <ele>69</ele>
        <time>2013-11-10T07:42:54Z</time>
      </trkpt>
      <trkpt lat="47.35508" lon="-1.92691">
        <ele>69</ele>
        <time>2013-11-10T07:43:01Z</time>
      </trkpt>
      <trkpt lat="47.35548" lon="-1.92664">
        <ele>67</ele>
        <time>2013-11-10T07:43:08Z</time>
      </trkpt>
      <trkpt lat="47.35568" lon="-1.92624">
        <ele>67</ele>
        <time>2013-11-10T07:43:16Z</time>
      </trkpt>
      <trkpt lat="47.35566" lon="-1.92595">
        <ele>67</ele>
        <time>2013-11-10T07:43:23Z</time>
      </trkpt>
      <trkpt lat="47.35582" lon="-1.92588">
        <ele>69</ele>
        <time>2013-11-10T07:43:31Z</time>
      </trkpt>
      <trkpt lat="47.35614" lon="-1.92594">
        <ele>67</ele>
        <time>2013-11-10T07:43:38Z</time>
      </trkpt>
      <trkpt lat="47.3564" lon="-1.92613">
        <ele>66</ele>
        <time>2013-11-10T07:43:45Z</time>
      </trkpt>
      <trkpt lat="47.35657" lon="-1.92629">
        <ele>67</ele>
        <time>2013-11-10T07:43:52Z</time>
      </trkpt>
      <trkpt lat="47.35661" lon="-1.92625">
        <ele>67</ele>
        <time>2013-11-10T07:43:59Z</time>
      </trkpt>
      <trkpt lat="47.35661" lon="-1.92623">
        <ele>67</ele>
        <time>2013-11-10T07:44:05Z</time>
      </trkpt>
      <trkpt lat="47.35664" lon="-1.92626">
        <ele>67</ele>
        <time>2013-11-10T07:44:13Z</time>
      </trkpt>
      <trkpt lat="47.35665" lon="-1.92626">
        <ele>67</ele>
        <time>2013-11-10T07:44:20Z</time>
      </trkpt>
      <trkpt lat="47.35669" lon="-1.92627">
        <ele>67</ele>
        <time>2013-11-10T07:44:27Z</time>
      </trkpt>
      <trkpt lat="47.3567" lon="-1.92625">
        <ele>67</ele>
        <time>2013-11-10T07:44:35Z</time>
      </trkpt>
      <trkpt lat="47.35673" lon="-1.92615">
        <ele>67</ele>
        <time>2013-11-10T07:44:42Z</time>
      </trkpt>
      <trkpt lat="47.35673" lon="-1.9261">
        <ele>67</ele>
        <time>2013-11-10T07:44:50Z</time>
      </trkpt>
      <trkpt lat="47.35673" lon="-1.92608">
        <ele>67</ele>
        <time>2013-11-10T07:44:58Z</time>
      </trkpt>
      <trkpt lat="47.35674" lon="-1.92604">
        <ele>67</ele>
        <time>2013-11-10T07:45:05Z</time>
      </trkpt>
      <trkpt lat="47.35675" lon="-1.92602">
        <ele>68</ele>
        <time>2013-11-10T07:45:12Z</time>
      </trkpt>
      <trkpt lat="47.35675" lon="-1.92602">
        <ele>68</ele>
        <time>2013-11-10T07:45:19Z</time>
      </trkpt>
      <trkpt lat="47.35675" lon="-1.92602">
        <ele>67</ele>
        <time>2013-11-10T07:45:26Z</time>
      </trkpt>
      <trkpt lat="47.35675" lon="-1.92602">
        <ele>68</ele>
        <time>2013-11-10T07:45:33Z</time>
      </trkpt>
      <trkpt lat="47.35675" lon="-1.92602">
        <ele>68</ele>
        <time>2013-11-10T07:45:40Z</time>
      </trkpt>
      <trkpt lat="47.35676" lon="-1.92602">
        <ele>68</ele>
        <time>2013-11-10T07:45:48Z</time>
      </trkpt>
      <trkpt lat="47.35676" lon="-1.92602">
        <ele>68</ele>
        <time>2013-11-10T07:45:56Z</time>
      </trkpt>
      <trkpt lat="47.35676" lon="-1.92603">
        <ele>69</ele>
        <time>2013-11-10T07:46:03Z</time>
      </trkpt>
      <trkpt lat="47.35672" lon="-1.926">
        <ele>68</ele>
        <time>2013-11-10T07:46:11Z</time>
      </trkpt>
      <trkpt lat="47.35667" lon="-1.92596">
        <ele>68</ele>
        <time>2013-11-10T07:46:18Z</time>
      </trkpt>
      <trkpt lat="47.35665" lon="-1.92603">
        <ele>68</ele>
        <time>2013-11-10T07:46:25Z</time>
      </trkpt>
      <trkpt lat="47.35671" lon="-1.92604">
        <ele>70</ele>
        <time>2013-11-10T07:46:32Z</time>
      </trkpt>
      <trkpt lat="47.35675" lon="-1.92604">
        <ele>71</ele>
        <time>2013-11-10T07:46:39Z</time>
      </trkpt>
      <trkpt lat="47.35676" lon="-1.92605">
        <ele>71</ele>
        <time>2013-11-10T07:46:46Z</time>
      </trkpt>
      <trkpt lat="47.35681" lon="-1.926">
        <ele>73</ele>
        <time>2013-11-10T07:46:52Z</time>
      </trkpt>
      <trkpt lat="47.35689" lon="-1.92601">
        <ele>73</ele>
        <time>2013-11-10T07:47:00Z</time>
      </trkpt>
      <trkpt lat="47.35704" lon="-1.92605">
        <ele>76</ele>
        <time>2013-11-10T07:47:08Z</time>
      </trkpt>
      <trkpt lat="47.35716" lon="-1.92587">
        <ele>76</ele>
        <time>2013-11-10T07:47:15Z</time>
      </trkpt>
      <trkpt lat="47.35724" lon="-1.9256">
        <ele>77</ele>
        <time>2013-11-10T07:47:22Z</time>
      </trkpt>
      <trkpt lat="47.35725" lon="-1.92533">
        <ele>76</ele>
        <time>2013-11-10T07:47:29Z</time>
      </trkpt>
      <trkpt lat="47.35723" lon="-1.92514">
        <ele>75</ele>
        <time>2013-11-10T07:47:35Z</time>
      </trkpt>
      <trkpt lat="47.35728" lon="-1.92496">
        <ele>75</ele>
        <time>2013-11-10T07:47:42Z</time>
      </trkpt>
      <trkpt lat="47.3573" lon="-1.92484">
        <ele>75</ele>
        <time>2013-11-10T07:47:50Z</time>
      </trkpt>
      <trkpt lat="47.35732" lon="-1.92477">
        <ele>75</ele>
        <time>2013-11-10T07:47:56Z</time>
      </trkpt>
      <trkpt lat="47.35729" lon="-1.92463">
        <ele>75</ele>
        <time>2013-11-10T07:48:03Z</time>
      </trkpt>
      <trkpt lat="47.35727" lon="-1.92423">
        <ele>72</ele>
        <time>2013-11-10T07:48:11Z</time>
      </trkpt>
      <trkpt lat="47.35731" lon="-1.92394">
        <ele>71</ele>
        <time>2013-11-10T07:48:18Z</time>
      </trkpt>
      <trkpt lat="47.35742" lon="-1.92363">
        <ele>68</ele>
        <time>2013-11-10T07:48:26Z</time>
      </trkpt>
      <trkpt lat="47.35765" lon="-1.92313">
        <ele>67</ele>
        <time>2013-11-10T07:48:33Z</time>
      </trkpt>
      <trkpt lat="47.35765" lon="-1.92236">
        <ele>68</ele>
        <time>2013-11-10T07:48:40Z</time>
      </trkpt>
      <trkpt lat="47.35754" lon="-1.92179">
        <ele>66</ele>
        <time>2013-11-10T07:48:48Z</time>
      </trkpt>
      <trkpt lat="47.35739" lon="-1.9214">
        <ele>66</ele>
        <time>2013-11-10T07:48:54Z</time>
      </trkpt>
      <trkpt lat="47.35727" lon="-1.92119">
        <ele>67</ele>
        <time>2013-11-10T07:49:01Z</time>
      </trkpt>
      <trkpt lat="47.35723" lon="-1.92111">
        <ele>68</ele>
        <time>2013-11-10T07:49:08Z</time>
      </trkpt>
      <trkpt lat="47.35738" lon="-1.92091">
        <ele>71</ele>
        <time>2013-11-10T07:49:15Z</time>
      </trkpt>
      <trkpt lat="47.35753" lon="-1.92072">
        <ele>71</ele>
        <time>2013-11-10T07:49:22Z</time>
      </trkpt>
      <trkpt lat="47.35775" lon="-1.92067">
        <ele>68</ele>
        <time>2013-11-10T07:49:29Z</time>
      </trkpt>
      <trkpt lat="47.35806" lon="-1.92074">
        <ele>67</ele>
        <time>2013-11-10T07:49:36Z</time>
      </trkpt>
      <trkpt lat="47.35837" lon="-1.92082">
        <ele>68</ele>
        <time>2013-11-10T07:49:42Z</time>
      </trkpt>
      <trkpt lat="47.35872" lon="-1.92106">
        <ele>67</ele>
        <time>2013-11-10T07:49:50Z</time>
      </trkpt>
      <trkpt lat="47.35917" lon="-1.92122">
        <ele>67</ele>
        <time>2013-11-10T07:49:57Z</time>
      </trkpt>
      <trkpt lat="47.35964" lon="-1.92119">
        <ele>67</ele>
        <time>2013-11-10T07:50:05Z</time>
      </trkpt>
      <trkpt lat="47.35994" lon="-1.92093">
        <ele>68</ele>
        <time>2013-11-10T07:50:12Z</time>
      </trkpt>
      <trkpt lat="47.36014" lon="-1.92076">
        <ele>66</ele>
        <time>2013-11-10T07:50:20Z</time>
      </trkpt>
      <trkpt lat="47.36036" lon="-1.92083">
        <ele>68</ele>
        <time>2013-11-10T07:50:27Z</time>
      </trkpt>
      <trkpt lat="47.36044" lon="-1.92089">
        <ele>66</ele>
        <time>2013-11-10T07:50:34Z</time>
      </trkpt>
      <trkpt lat="47.36045" lon="-1.921">
        <ele>68</ele>
        <time>2013-11-10T07:50:40Z</time>
      </trkpt>
      <trkpt lat="47.36043" lon="-1.92103">
        <ele>68</ele>
        <time>2013-11-10T07:50:47Z</time>
      </trkpt>
      <trkpt lat="47.36039" lon="-1.92111">
        <ele>69</ele>
        <time>2013-11-10T07:50:53Z</time>
      </trkpt>
      <trkpt lat="47.36026" lon="-1.92145">
        <ele>69</ele>
        <time>2013-11-10T07:51:00Z</time>
      </trkpt>
      <trkpt lat="47.36013" lon="-1.92192">
        <ele>72</ele>
        <time>2013-11-10T07:51:08Z</time>
      </trkpt>
      <trkpt lat="47.36011" lon="-1.92214">
        <ele>74</ele>
        <time>2013-11-10T07:51:16Z</time>
      </trkpt>
      <trkpt lat="47.36009" lon="-1.92231">
        <ele>75</ele>
        <time>2013-11-10T07:51:23Z</time>
      </trkpt>
      <trkpt lat="47.36" lon="-1.92265">
        <ele>79</ele>
        <time>2013-11-10T07:51:31Z</time>
      </trkpt>
      <trkpt lat="47.35988" lon="-1.92289">
        <ele>81</ele>
        <time>2013-11-10T07:51:38Z</time>
      </trkpt>
      <trkpt lat="47.35986" lon="-1.92322">
        <ele>83</ele>
        <time>2013-11-10T07:51:45Z</time>
      </trkpt>
      <trkpt lat="47.35981" lon="-1.92363">
        <ele>84</ele>
        <time>2013-11-10T07:51:52Z</time>
      </trkpt>
      <trkpt lat="47.35977" lon="-1.92396">
        <ele>85</ele>
        <time>2013-11-10T07:52:00Z</time>
      </trkpt>
      <trkpt lat="47.35982" lon="-1.92429">
        <ele>86</ele>
        <time>2013-11-10T07:52:08Z</time>
      </trkpt>
      <trkpt lat="47.36009" lon="-1.92438">
        <ele>87</ele>
        <time>2013-11-10T07:52:16Z</time>
      </trkpt>
      <trkpt lat="47.36035" lon="-1.92437">
        <ele>88</ele>
        <time>2013-11-10T07:52:22Z</time>
      </trkpt>
      <trkpt lat="47.36061" lon="-1.92437">
        <ele>88</ele>
        <time>2013-11-10T07:52:30Z</time>
      </trkpt>
      <trkpt lat="47.36086" lon="-1.92437">
        <ele>88</ele>
        <time>2013-11-10T07:52:37Z</time>
      </trkpt>
      <trkpt lat="47.3611" lon="-1.92439">
        <ele>91</ele>
        <time>2013-11-10T07:52:44Z</time>
      </trkpt>
      <trkpt lat="47.36138" lon="-1.92442">
        <ele>89</ele>
        <time>2013-11-10T07:52:51Z</time>
      </trkpt>
      <trkpt lat="47.36161" lon="-1.92443">
        <ele>91</ele>
        <time>2013-11-10T07:52:58Z</time>
      </trkpt>
      <trkpt lat="47.36174" lon="-1.9244">
        <ele>91</ele>
        <time>2013-11-10T07:53:05Z</time>
      </trkpt>
      <trkpt lat="47.3618" lon="-1.9244">
        <ele>92</ele>
        <time>2013-11-10T07:53:12Z</time>
      </trkpt>
      <trkpt lat="47.36181" lon="-1.92443">
        <ele>92</ele>
        <time>2013-11-10T07:53:20Z</time>
      </trkpt>
      <trkpt lat="47.36181" lon="-1.92447">
        <ele>92</ele>
        <time>2013-11-10T07:53:26Z</time>
      </trkpt>
      <trkpt lat="47.36187" lon="-1.9246">
        <ele>92</ele>
        <time>2013-11-10T07:53:34Z</time>
      </trkpt>
      <trkpt lat="47.36188" lon="-1.92472">
        <ele>92</ele>
        <time>2013-11-10T07:53:41Z</time>
      </trkpt>
      <trkpt lat="47.36189" lon="-1.92489">
        <ele>92</ele>
        <time>2013-11-10T07:53:47Z</time>
      </trkpt>
      <trkpt lat="47.36185" lon="-1.92521">
        <ele>92</ele>
        <time>2013-11-10T07:53:55Z</time>
      </trkpt>
      <trkpt lat="47.36181" lon="-1.92553">
        <ele>91</ele>
        <time>2013-11-10T07:54:02Z</time>
      </trkpt>
      <trkpt lat="47.3618" lon="-1.92576">
        <ele>91</ele>
        <time>2013-11-10T07:54:09Z</time>
      </trkpt>
      <trkpt lat="47.36179" lon="-1.92595">
        <ele>89</ele>
        <time>2013-11-10T07:54:15Z</time>
      </trkpt>
      <trkpt lat="47.36179" lon="-1.92602">
        <ele>89</ele>
        <time>2013-11-10T07:54:22Z</time>
      </trkpt>
      <trkpt lat="47.36177" lon="-1.92605">
        <ele>90</ele>
        <time>2013-11-10T07:54:30Z</time>
      </trkpt>
      <trkpt lat="47.36177" lon="-1.92605">
        <ele>89</ele>
        <time>2013-11-10T07:54:36Z</time>
      </trkpt>
      <trkpt lat="47.36178" lon="-1.92605">
        <ele>89</ele>
        <time>2013-11-10T07:54:43Z</time>
      </trkpt>
      <trkpt lat="47.36178" lon="-1.92605">
        <ele>90</ele>
        <time>2013-11-10T07:54:49Z</time>
      </trkpt>
      <trkpt lat="47.36179" lon="-1.92604">
        <ele>90</ele>
        <time>2013-11-10T07:54:57Z</time>
      </trkpt>
      <trkpt lat="47.36178" lon="-1.92604">
        <ele>90</ele>
        <time>2013-11-10T07:55:04Z</time>
      </trkpt>
      <trkpt lat="47.36179" lon="-1.92605">
        <ele>90</ele>
        <time>2013-11-10T07:55:11Z</time>
      </trkpt>
      <trkpt lat="47.36179" lon="-1.92606">
        <ele>89</ele>
        <time>2013-11-10T07:55:18Z</time>
      </trkpt>
      <trkpt lat="47.36175" lon="-1.92639">
        <ele>88</ele>
        <time>2013-11-10T07:55:26Z</time>
      </trkpt>
      <trkpt lat="47.36175" lon="-1.92706">
        <ele>88</ele>
        <time>2013-11-10T07:55:34Z</time>
      </trkpt>
      <trkpt lat="47.36176" lon="-1.92784">
        <ele>86</ele>
        <time>2013-11-10T07:55:42Z</time>
      </trkpt>
      <trkpt lat="47.36176" lon="-1.92855">
        <ele>84</ele>
        <time>2013-11-10T07:55:49Z</time>
      </trkpt>
      <trkpt lat="47.36174" lon="-1.92923">
        <ele>81</ele>
        <time>2013-11-10T07:55:55Z</time>
      </trkpt>
      <trkpt lat="47.36177" lon="-1.92986">
        <ele>82</ele>
        <time>2013-11-10T07:56:02Z</time>
      </trkpt>
      <trkpt lat="47.36185" lon="-1.93059">
        <ele>82</ele>
        <time>2013-11-10T07:56:09Z</time>
      </trkpt>
      <trkpt lat="47.36191" lon="-1.93115">
        <ele>80</ele>
        <time>2013-11-10T07:56:16Z</time>
      </trkpt>
      <trkpt lat="47.36206" lon="-1.93185">
        <ele>78</ele>
        <time>2013-11-10T07:56:23Z</time>
      </trkpt>
      <trkpt lat="47.3619" lon="-1.93277">
        <ele>81</ele>
        <time>2013-11-10T07:56:30Z</time>
      </trkpt>
      <trkpt lat="47.36178" lon="-1.93333">
        <ele>80</ele>
        <time>2013-11-10T07:56:37Z</time>
      </trkpt>
      <trkpt lat="47.36164" lon="-1.93389">
        <ele>81</ele>
        <time>2013-11-10T07:56:44Z</time>
      </trkpt>
      <trkpt lat="47.36156" lon="-1.93442">
        <ele>81</ele>
        <time>2013-11-10T07:56:52Z</time>
      </trkpt>
      <trkpt lat="47.36181" lon="-1.93454">
        <ele>84</ele>
        <time>2013-11-10T07:57:00Z</time>
      </trkpt>
      <trkpt lat="47.36204" lon="-1.93448">
        <ele>84</ele>
        <time>2013-11-10T07:57:06Z</time>
      </trkpt>
      <trkpt lat="47.36224" lon="-1.93436">
        <ele>83</ele>
        <time>2013-11-10T07:57:13Z</time>
      </trkpt>
      <trkpt lat="47.36239" lon="-1.93413">
        <ele>87</ele>
        <time>2013-11-10T07:57:21Z</time>
      </trkpt>
      <trkpt lat="47.36248" lon="-1.93409">
        <ele>89</ele>
        <time>2013-11-10T07:57:28Z</time>
      </trkpt>
      <trkpt lat="47.36246" lon="-1.93411">
        <ele>87</ele>
        <time>2013-11-10T07:57:35Z</time>
      </trkpt>
      <trkpt lat="47.36246" lon="-1.93411">
        <ele>87</ele>
        <time>2013-11-10T07:57:42Z</time>
      </trkpt>
      <trkpt lat="47.36246" lon="-1.93411">
        <ele>88</ele>
        <time>2013-11-10T07:57:50Z</time>
      </trkpt>
      <trkpt lat="47.36246" lon="-1.93411">
        <ele>88</ele>
        <time>2013-11-10T07:57:56Z</time>
      </trkpt>
      <trkpt lat="47.36246" lon="-1.93411">
        <ele>87</ele>
        <time>2013-11-10T07:58:03Z</time>
      </trkpt>
      <trkpt lat="47.36246" lon="-1.93411">
        <ele>88</ele>
        <time>2013-11-10T07:58:10Z</time>
      </trkpt>
      <trkpt lat="47.36246" lon="-1.93411">
        <ele>88</ele>
        <time>2013-11-10T07:58:16Z</time>
      </trkpt>
      <trkpt lat="47.36246" lon="-1.93411">
        <ele>87</ele>
        <time>2013-11-10T07:58:23Z</time>
      </trkpt>
      <trkpt lat="47.36246" lon="-1.93412">
        <ele>85</ele>
        <time>2013-11-10T07:58:29Z</time>
      </trkpt>
      <trkpt lat="47.36204" lon="-1.93427">
        <ele>85</ele>
        <time>2013-11-10T07:58:36Z</time>
      </trkpt>
      <trkpt lat="47.36181" lon="-1.93399">
        <ele>84</ele>
        <time>2013-11-10T07:58:43Z</time>
      </trkpt>
      <trkpt lat="47.36218" lon="-1.93371">
        <ele>82</ele>
        <time>2013-11-10T07:58:50Z</time>
      </trkpt>
      <trkpt lat="47.36274" lon="-1.93386">
        <ele>81</ele>
        <time>2013-11-10T07:59:04Z</time>
      </trkpt>
      <trkpt lat="47.36203" lon="-1.93385">
        <ele>81</ele>
        <time>2013-11-10T07:59:12Z</time>
      </trkpt>
      <trkpt lat="47.36207" lon="-1.93386">
        <ele>82</ele>
        <time>2013-11-10T07:59:20Z</time>
      </trkpt>
      <trkpt lat="47.36219" lon="-1.93385">
        <ele>82</ele>
        <time>2013-11-10T07:59:26Z</time>
      </trkpt>
      <trkpt lat="47.3622" lon="-1.93385">
        <ele>83</ele>
        <time>2013-11-10T07:59:34Z</time>
      </trkpt>
      <trkpt lat="47.36221" lon="-1.93384">
        <ele>82</ele>
        <time>2013-11-10T07:59:40Z</time>
      </trkpt>
      <trkpt lat="47.36231" lon="-1.93385">
        <ele>82</ele>
        <time>2013-11-10T07:59:47Z</time>
      </trkpt>
      <trkpt lat="47.36234" lon="-1.93389">
        <ele>83</ele>
        <time>2013-11-10T07:59:54Z</time>
      </trkpt>
      <trkpt lat="47.36234" lon="-1.93389">
        <ele>83</ele>
        <time>2013-11-10T08:00:02Z</time>
      </trkpt>
      <trkpt lat="47.36234" lon="-1.93389">
        <ele>83</ele>
        <time>2013-11-10T08:00:10Z</time>
      </trkpt>
      <trkpt lat="47.36234" lon="-1.93389">
        <ele>83</ele>
        <time>2013-11-10T08:00:16Z</time>
      </trkpt>
      <trkpt lat="47.36234" lon="-1.93389">
        <ele>84</ele>
        <time>2013-11-10T08:00:23Z</time>
      </trkpt>
      <trkpt lat="47.36234" lon="-1.93389">
        <ele>83</ele>
        <time>2013-11-10T08:00:30Z</time>
      </trkpt>
      <trkpt lat="47.36234" lon="-1.93389">
        <ele>83</ele>
        <time>2013-11-10T08:00:37Z</time>
      </trkpt>
      <trkpt lat="47.36234" lon="-1.93389">
        <ele>82</ele>
        <time>2013-11-10T08:00:44Z</time>
      </trkpt>
      <trkpt lat="47.36234" lon="-1.93389">
        <ele>82</ele>
        <time>2013-11-10T08:00:51Z</time>
      </trkpt>
      <trkpt lat="47.36234" lon="-1.93389">
        <ele>82</ele>
        <time>2013-11-10T08:00:59Z</time>
      </trkpt>
      <trkpt lat="47.36234" lon="-1.93389">
        <ele>81</ele>
        <time>2013-11-10T08:01:06Z</time>
      </trkpt>
      <trkpt lat="47.36234" lon="-1.93389">
        <ele>82</ele>
        <time>2013-11-10T08:01:14Z</time>
      </trkpt>
      <trkpt lat="47.36234" lon="-1.93389">
        <ele>82</ele>
        <time>2013-11-10T08:01:20Z</time>
      </trkpt>
      <trkpt lat="47.36234" lon="-1.93389">
        <ele>82</ele>
        <time>2013-11-10T08:01:27Z</time>
      </trkpt>
      <trkpt lat="47.36234" lon="-1.93389">
        <ele>82</ele>
        <time>2013-11-10T08:01:34Z</time>
      </trkpt>
      <trkpt lat="47.36234" lon="-1.93389">
        <ele>83</ele>
        <time>2013-11-10T08:01:41Z</time>
      </trkpt>
      <trkpt lat="47.36234" lon="-1.93389">
        <ele>83</ele>
        <time>2013-11-10T08:01:49Z</time>
      </trkpt>
      <trkpt lat="47.36235" lon="-1.93389">
        <ele>83</ele>
        <time>2013-11-10T08:01:55Z</time>
      </trkpt>
      <trkpt lat="47.36238" lon="-1.93389">
        <ele>83</ele>
        <time>2013-11-10T08:02:03Z</time>
      </trkpt>
      <trkpt lat="47.36238" lon="-1.93389">
        <ele>83</ele>
        <time>2013-11-10T08:02:10Z</time>
      </trkpt>
      <trkpt lat="47.36238" lon="-1.93389">
        <ele>82</ele>
        <time>2013-11-10T08:02:18Z</time>
      </trkpt>
      <trkpt lat="47.36238" lon="-1.93389">
        <ele>83</ele>
        <time>2013-11-10T08:02:25Z</time>
      </trkpt>
      <trkpt lat="47.36238" lon="-1.93389">
        <ele>83</ele>
        <time>2013-11-10T08:02:33Z</time>
      </trkpt>
      <trkpt lat="47.36238" lon="-1.93389">
        <ele>82</ele>
        <time>2013-11-10T08:02:39Z</time>
      </trkpt>
      <trkpt lat="47.36238" lon="-1.93389">
        <ele>83</ele>
        <time>2013-11-10T08:02:46Z</time>
      </trkpt>
      <trkpt lat="47.36238" lon="-1.93389">
        <ele>83</ele>
        <time>2013-11-10T08:02:53Z</time>
      </trkpt>
      <trkpt lat="47.36238" lon="-1.93389">
        <ele>82</ele>
        <time>2013-11-10T08:03:00Z</time>
      </trkpt>
      <trkpt lat="47.36237" lon="-1.9339">
        <ele>83</ele>
        <time>2013-11-10T08:03:07Z</time>
      </trkpt>
      <trkpt lat="47.36226" lon="-1.934">
        <ele>83</ele>
        <time>2013-11-10T08:03:13Z</time>
      </trkpt>
      <trkpt lat="47.36213" lon="-1.93418">
        <ele>83</ele>
        <time>2013-11-10T08:03:19Z</time>
      </trkpt>
      <trkpt lat="47.36186" lon="-1.93451">
        <ele>81</ele>
        <time>2013-11-10T08:03:26Z</time>
      </trkpt>
      <trkpt lat="47.36161" lon="-1.93463">
        <ele>80</ele>
        <time>2013-11-10T08:03:33Z</time>
      </trkpt>
      <trkpt lat="47.3616" lon="-1.93501">
        <ele>80</ele>
        <time>2013-11-10T08:03:41Z</time>
      </trkpt>
      <trkpt lat="47.36163" lon="-1.93506">
        <ele>81</ele>
        <time>2013-11-10T08:03:49Z</time>
      </trkpt>
      <trkpt lat="47.36168" lon="-1.93528">
        <ele>81</ele>
        <time>2013-11-10T08:03:56Z</time>
      </trkpt>
      <trkpt lat="47.36177" lon="-1.93559">
        <ele>81</ele>
        <time>2013-11-10T08:04:03Z</time>
      </trkpt>
      <trkpt lat="47.36182" lon="-1.93606">
        <ele>82</ele>
        <time>2013-11-10T08:04:11Z</time>
      </trkpt>
      <trkpt lat="47.3618" lon="-1.93659">
        <ele>82</ele>
        <time>2013-11-10T08:04:18Z</time>
      </trkpt>
      <trkpt lat="47.36169" lon="-1.93706">
        <ele>82</ele>
        <time>2013-11-10T08:04:25Z</time>
      </trkpt>
      <trkpt lat="47.36148" lon="-1.93761">
        <ele>84</ele>
        <time>2013-11-10T08:04:33Z</time>
      </trkpt>
      <trkpt lat="47.36135" lon="-1.93813">
        <ele>83</ele>
        <time>2013-11-10T08:04:40Z</time>
      </trkpt>
      <trkpt lat="47.36124" lon="-1.93859">
        <ele>82</ele>
        <time>2013-11-10T08:04:46Z</time>
      </trkpt>
      <trkpt lat="47.36111" lon="-1.939">
        <ele>82</ele>
        <time>2013-11-10T08:04:53Z</time>
      </trkpt>
      <trkpt lat="47.36096" lon="-1.93952">
        <ele>82</ele>
        <time>2013-11-10T08:05:01Z</time>
      </trkpt>
      <trkpt lat="47.36068" lon="-1.93978">
        <ele>80</ele>
        <time>2013-11-10T08:05:08Z</time>
      </trkpt>
      <trkpt lat="47.36048" lon="-1.94024">
        <ele>81</ele>
        <time>2013-11-10T08:05:16Z</time>
      </trkpt>
      <trkpt lat="47.36048" lon="-1.94083">
        <ele>81</ele>
        <time>2013-11-10T08:05:23Z</time>
      </trkpt>
      <trkpt lat="47.36057" lon="-1.94137">
        <ele>79</ele>
        <time>2013-11-10T08:05:30Z</time>
      </trkpt>
      <trkpt lat="47.36052" lon="-1.94179">
        <ele>77</ele>
        <time>2013-11-10T08:05:37Z</time>
      </trkpt>
      <trkpt lat="47.36042" lon="-1.94223">
        <ele>77</ele>
        <time>2013-11-10T08:05:45Z</time>
      </trkpt>
      <trkpt lat="47.36041" lon="-1.9423">
        <ele>77</ele>
        <time>2013-11-10T08:05:52Z</time>
      </trkpt>
      <trkpt lat="47.36039" lon="-1.94229">
        <ele>77</ele>
        <time>2013-11-10T08:05:59Z</time>
      </trkpt>
      <trkpt lat="47.3604" lon="-1.94259">
        <ele>78</ele>
        <time>2013-11-10T08:06:07Z</time>
      </trkpt>
      <trkpt lat="47.36053" lon="-1.94304">
        <ele>78</ele>
        <time>2013-11-10T08:06:13Z</time>
      </trkpt>
      <trkpt lat="47.36068" lon="-1.94349">
        <ele>78</ele>
        <time>2013-11-10T08:06:20Z</time>
      </trkpt>
      <trkpt lat="47.36083" lon="-1.94403">
        <ele>76</ele>
        <time>2013-11-10T08:06:27Z</time>
      </trkpt>
      <trkpt lat="47.36074" lon="-1.94442">
        <ele>76</ele>
        <time>2013-11-10T08:06:35Z</time>
      </trkpt>
      <trkpt lat="47.36046" lon="-1.94451">
        <ele>75</ele>
        <time>2013-11-10T08:06:41Z</time>
      </trkpt>
      <trkpt lat="47.36033" lon="-1.94487">
        <ele>75</ele>
        <time>2013-11-10T08:06:49Z</time>
      </trkpt>
      <trkpt lat="47.36047" lon="-1.94533">
        <ele>74</ele>
        <time>2013-11-10T08:06:56Z</time>
      </trkpt>
      <trkpt lat="47.36048" lon="-1.94583">
        <ele>73</ele>
        <time>2013-11-10T08:07:02Z</time>
      </trkpt>
      <trkpt lat="47.36065" lon="-1.94629">
        <ele>73</ele>
        <time>2013-11-10T08:07:09Z</time>
      </trkpt>
      <trkpt lat="47.36092" lon="-1.94677">
        <ele>72</ele>
        <time>2013-11-10T08:07:16Z</time>
      </trkpt>
      <trkpt lat="47.36106" lon="-1.94705">
        <ele>70</ele>
        <time>2013-11-10T08:07:23Z</time>
      </trkpt>
      <trkpt lat="47.36114" lon="-1.94719">
        <ele>69</ele>
        <time>2013-11-10T08:07:30Z</time>
      </trkpt>
      <trkpt lat="47.36124" lon="-1.94727">
        <ele>63</ele>
        <time>2013-11-10T08:07:36Z</time>
      </trkpt>
      <trkpt lat="47.36151" lon="-1.94735">
        <ele>65</ele>
        <time>2013-11-10T08:07:44Z</time>
      </trkpt>
      <trkpt lat="47.36191" lon="-1.94735">
        <ele>65</ele>
        <time>2013-11-10T08:07:51Z</time>
      </trkpt>
      <trkpt lat="47.3621" lon="-1.947">
        <ele>66</ele>
        <time>2013-11-10T08:07:58Z</time>
      </trkpt>
      <trkpt lat="47.3622" lon="-1.94663">
        <ele>68</ele>
        <time>2013-11-10T08:08:05Z</time>
      </trkpt>
      <trkpt lat="47.36229" lon="-1.94635">
        <ele>69</ele>
        <time>2013-11-10T08:08:11Z</time>
      </trkpt>
      <trkpt lat="47.36231" lon="-1.94661">
        <ele>70</ele>
        <time>2013-11-10T08:08:19Z</time>
      </trkpt>
      <trkpt lat="47.36228" lon="-1.94699">
        <ele>71</ele>
        <time>2013-11-10T08:08:26Z</time>
      </trkpt>
      <trkpt lat="47.36236" lon="-1.94734">
        <ele>73</ele>
        <time>2013-11-10T08:08:33Z</time>
      </trkpt>
      <trkpt lat="47.36253" lon="-1.94763">
        <ele>75</ele>
        <time>2013-11-10T08:08:40Z</time>
      </trkpt>
      <trkpt lat="47.3627" lon="-1.9479">
        <ele>77</ele>
        <time>2013-11-10T08:08:48Z</time>
      </trkpt>
      <trkpt lat="47.36289" lon="-1.94822">
        <ele>77</ele>
        <time>2013-11-10T08:08:56Z</time>
      </trkpt>
      <trkpt lat="47.36306" lon="-1.94855">
        <ele>77</ele>
        <time>2013-11-10T08:09:03Z</time>
      </trkpt>
      <trkpt lat="47.36334" lon="-1.94884">
        <ele>77</ele>
        <time>2013-11-10T08:09:11Z</time>
      </trkpt>
      <trkpt lat="47.36355" lon="-1.94908">
        <ele>76</ele>
        <time>2013-11-10T08:09:18Z</time>
      </trkpt>
      <trkpt lat="47.36383" lon="-1.94928">
        <ele>76</ele>
        <time>2013-11-10T08:09:26Z</time>
      </trkpt>
      <trkpt lat="47.36408" lon="-1.94936">
        <ele>77</ele>
        <time>2013-11-10T08:09:34Z</time>
      </trkpt>
      <trkpt lat="47.36424" lon="-1.94936">
        <ele>77</ele>
        <time>2013-11-10T08:09:41Z</time>
      </trkpt>
      <trkpt lat="47.36433" lon="-1.94913">
        <ele>78</ele>
        <time>2013-11-10T08:09:47Z</time>
      </trkpt>
      <trkpt lat="47.36442" lon="-1.94873">
        <ele>78</ele>
        <time>2013-11-10T08:09:54Z</time>
      </trkpt>
      <trkpt lat="47.36449" lon="-1.94844">
        <ele>80</ele>
        <time>2013-11-10T08:10:01Z</time>
      </trkpt>
      <trkpt lat="47.36457" lon="-1.94816">
        <ele>80</ele>
        <time>2013-11-10T08:10:09Z</time>
      </trkpt>
      <trkpt lat="47.36463" lon="-1.94785">
        <ele>80</ele>
        <time>2013-11-10T08:10:17Z</time>
      </trkpt>
      <trkpt lat="47.36459" lon="-1.94752">
        <ele>81</ele>
        <time>2013-11-10T08:10:24Z</time>
      </trkpt>
      <trkpt lat="47.36468" lon="-1.94718">
        <ele>81</ele>
        <time>2013-11-10T08:10:31Z</time>
      </trkpt>
      <trkpt lat="47.36482" lon="-1.94683">
        <ele>81</ele>
        <time>2013-11-10T08:10:38Z</time>
      </trkpt>
      <trkpt lat="47.36492" lon="-1.9464">
        <ele>81</ele>
        <time>2013-11-10T08:10:45Z</time>
      </trkpt>
      <trkpt lat="47.36502" lon="-1.946">
        <ele>80</ele>
        <time>2013-11-10T08:10:52Z</time>
      </trkpt>
      <trkpt lat="47.36509" lon="-1.94568">
        <ele>79</ele>
        <time>2013-11-10T08:10:58Z</time>
      </trkpt>
      <trkpt lat="47.36517" lon="-1.94532">
        <ele>79</ele>
        <time>2013-11-10T08:11:05Z</time>
      </trkpt>
      <trkpt lat="47.36511" lon="-1.94477">
        <ele>76</ele>
        <time>2013-11-10T08:11:13Z</time>
      </trkpt>
      <trkpt lat="47.36499" lon="-1.94435">
        <ele>73</ele>
        <time>2013-11-10T08:11:20Z</time>
      </trkpt>
      <trkpt lat="47.36502" lon="-1.94429">
        <ele>74</ele>
        <time>2013-11-10T08:11:27Z</time>
      </trkpt>
      <trkpt lat="47.36527" lon="-1.94439">
        <ele>74</ele>
        <time>2013-11-10T08:11:34Z</time>
      </trkpt>
      <trkpt lat="47.36556" lon="-1.94455">
        <ele>75</ele>
        <time>2013-11-10T08:11:42Z</time>
      </trkpt>
      <trkpt lat="47.3658" lon="-1.94468">
        <ele>75</ele>
        <time>2013-11-10T08:11:48Z</time>
      </trkpt>
      <trkpt lat="47.36602" lon="-1.94476">
        <ele>77</ele>
        <time>2013-11-10T08:11:55Z</time>
      </trkpt>
      <trkpt lat="47.36624" lon="-1.94485">
        <ele>78</ele>
        <time>2013-11-10T08:12:02Z</time>
      </trkpt>
      <trkpt lat="47.36629" lon="-1.94507">
        <ele>80</ele>
        <time>2013-11-10T08:12:08Z</time>
      </trkpt>
      <trkpt lat="47.36625" lon="-1.94547">
        <ele>80</ele>
        <time>2013-11-10T08:12:16Z</time>
      </trkpt>
      <trkpt lat="47.36647" lon="-1.94549">
        <ele>81</ele>
        <time>2013-11-10T08:12:24Z</time>
      </trkpt>
      <trkpt lat="47.36664" lon="-1.94547">
        <ele>82</ele>
        <time>2013-11-10T08:12:31Z</time>
      </trkpt>
      <trkpt lat="47.36682" lon="-1.94544">
        <ele>84</ele>
        <time>2013-11-10T08:12:37Z</time>
      </trkpt>
      <trkpt lat="47.36706" lon="-1.94536">
        <ele>85</ele>
        <time>2013-11-10T08:12:45Z</time>
      </trkpt>
      <trkpt lat="47.36741" lon="-1.94525">
        <ele>86</ele>
        <time>2013-11-10T08:12:53Z</time>
      </trkpt>
      <trkpt lat="47.36767" lon="-1.94519">
        <ele>87</ele>
        <time>2013-11-10T08:13:01Z</time>
      </trkpt>
      <trkpt lat="47.36791" lon="-1.94507">
        <ele>87</ele>
        <time>2013-11-10T08:13:08Z</time>
      </trkpt>
      <trkpt lat="47.36799" lon="-1.94514">
        <ele>87</ele>
        <time>2013-11-10T08:13:15Z</time>
      </trkpt>
      <trkpt lat="47.36814" lon="-1.9454">
        <ele>87</ele>
        <time>2013-11-10T08:13:21Z</time>
      </trkpt>
      <trkpt lat="47.36833" lon="-1.94568">
        <ele>87</ele>
        <time>2013-11-10T08:13:28Z</time>
      </trkpt>
      <trkpt lat="47.36844" lon="-1.94586">
        <ele>86</ele>
        <time>2013-11-10T08:13:35Z</time>
      </trkpt>
      <trkpt lat="47.36849" lon="-1.94595">
        <ele>87</ele>
        <time>2013-11-10T08:13:42Z</time>
      </trkpt>
      <trkpt lat="47.36852" lon="-1.94611">
        <ele>87</ele>
        <time>2013-11-10T08:13:49Z</time>
      </trkpt>
      <trkpt lat="47.36862" lon="-1.94636">
        <ele>87</ele>
        <time>2013-11-10T08:13:57Z</time>
      </trkpt>
      <trkpt lat="47.3687" lon="-1.94667">
        <ele>87</ele>
        <time>2013-11-10T08:14:05Z</time>
      </trkpt>
      <trkpt lat="47.36877" lon="-1.94692">
        <ele>86</ele>
        <time>2013-11-10T08:14:11Z</time>
      </trkpt>
      <trkpt lat="47.36882" lon="-1.94731">
        <ele>87</ele>
        <time>2013-11-10T08:14:18Z</time>
      </trkpt>
      <trkpt lat="47.36882" lon="-1.94779">
        <ele>84</ele>
        <time>2013-11-10T08:14:25Z</time>
      </trkpt>
      <trkpt lat="47.36882" lon="-1.94847">
        <ele>80</ele>
        <time>2013-11-10T08:14:33Z</time>
      </trkpt>
      <trkpt lat="47.3691" lon="-1.94909">
        <ele>75</ele>
        <time>2013-11-10T08:14:39Z</time>
      </trkpt>
      <trkpt lat="47.36911" lon="-1.94974">
        <ele>75</ele>
        <time>2013-11-10T08:14:46Z</time>
      </trkpt>
      <trkpt lat="47.36918" lon="-1.95009">
        <ele>77</ele>
        <time>2013-11-10T08:14:53Z</time>
      </trkpt>
      <trkpt lat="47.36925" lon="-1.95028">
        <ele>78</ele>
        <time>2013-11-10T08:15:00Z</time>
      </trkpt>
      <trkpt lat="47.3692" lon="-1.9506">
        <ele>71</ele>
        <time>2013-11-10T08:15:08Z</time>
      </trkpt>
      <trkpt lat="47.36892" lon="-1.95126">
        <ele>70</ele>
        <time>2013-11-10T08:15:15Z</time>
      </trkpt>
      <trkpt lat="47.36867" lon="-1.95178">
        <ele>70</ele>
        <time>2013-11-10T08:15:22Z</time>
      </trkpt>
      <trkpt lat="47.3685" lon="-1.95233">
        <ele>69</ele>
        <time>2013-11-10T08:15:30Z</time>
      </trkpt>
      <trkpt lat="47.36836" lon="-1.95288">
        <ele>68</ele>
        <time>2013-11-10T08:15:37Z</time>
      </trkpt>
      <trkpt lat="47.36827" lon="-1.95353">
        <ele>65</ele>
        <time>2013-11-10T08:15:45Z</time>
      </trkpt>
      <trkpt lat="47.36819" lon="-1.95412">
        <ele>65</ele>
        <time>2013-11-10T08:15:52Z</time>
      </trkpt>
      <trkpt lat="47.36806" lon="-1.95452">
        <ele>65</ele>
        <time>2013-11-10T08:15:59Z</time>
      </trkpt>
      <trkpt lat="47.36797" lon="-1.95476">
        <ele>63</ele>
        <time>2013-11-10T08:16:07Z</time>
      </trkpt>
      <trkpt lat="47.36778" lon="-1.95517">
        <ele>61</ele>
        <time>2013-11-10T08:16:14Z</time>
      </trkpt>
      <trkpt lat="47.36747" lon="-1.95562">
        <ele>60</ele>
        <time>2013-11-10T08:16:21Z</time>
      </trkpt>
      <trkpt lat="47.36709" lon="-1.95628">
        <ele>58</ele>
        <time>2013-11-10T08:16:28Z</time>
      </trkpt>
      <trkpt lat="47.36686" lon="-1.95705">
        <ele>58</ele>
        <time>2013-11-10T08:16:35Z</time>
      </trkpt>
      <trkpt lat="47.36677" lon="-1.95781">
        <ele>55</ele>
        <time>2013-11-10T08:16:43Z</time>
      </trkpt>
      <trkpt lat="47.36669" lon="-1.95835">
        <ele>55</ele>
        <time>2013-11-10T08:16:50Z</time>
      </trkpt>
      <trkpt lat="47.36661" lon="-1.95886">
        <ele>55</ele>
        <time>2013-11-10T08:16:58Z</time>
      </trkpt>
      <trkpt lat="47.36649" lon="-1.95936">
        <ele>54</ele>
        <time>2013-11-10T08:17:05Z</time>
      </trkpt>
      <trkpt lat="47.36623" lon="-1.95978">
        <ele>50</ele>
        <time>2013-11-10T08:17:12Z</time>
      </trkpt>
      <trkpt lat="47.36613" lon="-1.95993">
        <ele>50</ele>
        <time>2013-11-10T08:17:19Z</time>
      </trkpt>
      <trkpt lat="47.36612" lon="-1.95994">
        <ele>50</ele>
        <time>2013-11-10T08:17:25Z</time>
      </trkpt>
      <trkpt lat="47.36612" lon="-1.95994">
        <ele>50</ele>
        <time>2013-11-10T08:17:33Z</time>
      </trkpt>
      <trkpt lat="47.36612" lon="-1.95994">
        <ele>50</ele>
        <time>2013-11-10T08:17:40Z</time>
      </trkpt>
      <trkpt lat="47.36612" lon="-1.95994">
        <ele>50</ele>
        <time>2013-11-10T08:17:47Z</time>
      </trkpt>
      <trkpt lat="47.36612" lon="-1.95994">
        <ele>50</ele>
        <time>2013-11-10T08:17:55Z</time>
      </trkpt>
      <trkpt lat="47.36612" lon="-1.95994">
        <ele>50</ele>
        <time>2013-11-10T08:18:03Z</time>
      </trkpt>
      <trkpt lat="47.36612" lon="-1.95994">
        <ele>50</ele>
        <time>2013-11-10T08:18:10Z</time>
      </trkpt>
      <trkpt lat="47.36612" lon="-1.95994">
        <ele>50</ele>
        <time>2013-11-10T08:18:18Z</time>
      </trkpt>
      <trkpt lat="47.36598" lon="-1.96016">
        <ele>50</ele>
        <time>2013-11-10T08:18:26Z</time>
      </trkpt>
      <trkpt lat="47.36593" lon="-1.96072">
        <ele>49</ele>
        <time>2013-11-10T08:18:34Z</time>
      </trkpt>
      <trkpt lat="47.36562" lon="-1.9611">
        <ele>51</ele>
        <time>2013-11-10T08:18:42Z</time>
      </trkpt>
      <trkpt lat="47.36537" lon="-1.96136">
        <ele>49</ele>
        <time>2013-11-10T08:18:49Z</time>
      </trkpt>
      <trkpt lat="47.365" lon="-1.96153">
        <ele>46</ele>
        <time>2013-11-10T08:18:56Z</time>
      </trkpt>
      <trkpt lat="47.36484" lon="-1.96163">
        <ele>47</ele>
        <time>2013-11-10T08:19:04Z</time>
      </trkpt>
      <trkpt lat="47.36492" lon="-1.96209">
        <ele>47</ele>
        <time>2013-11-10T08:19:11Z</time>
      </trkpt>
      <trkpt lat="47.36503" lon="-1.96259">
        <ele>49</ele>
        <time>2013-11-10T08:19:19Z</time>
      </trkpt>
      <trkpt lat="47.3652" lon="-1.96303">
        <ele>51</ele>
        <time>2013-11-10T08:19:26Z</time>
      </trkpt>
      <trkpt lat="47.3654" lon="-1.96341">
        <ele>52</ele>
        <time>2013-11-10T08:19:33Z</time>
      </trkpt>
      <trkpt lat="47.36558" lon="-1.96383">
        <ele>53</ele>
        <time>2013-11-10T08:19:41Z</time>
      </trkpt>
      <trkpt lat="47.36577" lon="-1.96422">
        <ele>56</ele>
        <time>2013-11-10T08:19:48Z</time>
      </trkpt>
      <trkpt lat="47.36596" lon="-1.96457">
        <ele>56</ele>
        <time>2013-11-10T08:19:55Z</time>
      </trkpt>
      <trkpt lat="47.36616" lon="-1.96487">
        <ele>58</ele>
        <time>2013-11-10T08:20:01Z</time>
      </trkpt>
      <trkpt lat="47.36639" lon="-1.9652">
        <ele>59</ele>
        <time>2013-11-10T08:20:09Z</time>
      </trkpt>
      <trkpt lat="47.36665" lon="-1.96551">
        <ele>60</ele>
        <time>2013-11-10T08:20:16Z</time>
      </trkpt>
      <trkpt lat="47.36692" lon="-1.96575">
        <ele>58</ele>
        <time>2013-11-10T08:20:23Z</time>
      </trkpt>
      <trkpt lat="47.36724" lon="-1.96602">
        <ele>57</ele>
        <time>2013-11-10T08:20:31Z</time>
      </trkpt>
      <trkpt lat="47.36751" lon="-1.96637">
        <ele>56</ele>
        <time>2013-11-10T08:20:38Z</time>
      </trkpt>
      <trkpt lat="47.36777" lon="-1.9668">
        <ele>56</ele>
        <time>2013-11-10T08:20:45Z</time>
      </trkpt>
      <trkpt lat="47.368" lon="-1.96702">
        <ele>58</ele>
        <time>2013-11-10T08:20:53Z</time>
      </trkpt>
      <trkpt lat="47.3683" lon="-1.96685">
        <ele>60</ele>
        <time>2013-11-10T08:21:00Z</time>
      </trkpt>
      <trkpt lat="47.36855" lon="-1.96684">
        <ele>61</ele>
        <time>2013-11-10T08:21:07Z</time>
      </trkpt>
      <trkpt lat="47.36884" lon="-1.96698">
        <ele>61</ele>
        <time>2013-11-10T08:21:14Z</time>
      </trkpt>
      <trkpt lat="47.36919" lon="-1.96714">
        <ele>63</ele>
        <time>2013-11-10T08:21:21Z</time>
      </trkpt>
      <trkpt lat="47.36944" lon="-1.96713">
        <ele>63</ele>
        <time>2013-11-10T08:21:28Z</time>
      </trkpt>
      <trkpt lat="47.36972" lon="-1.96709">
        <ele>63</ele>
        <time>2013-11-10T08:21:36Z</time>
      </trkpt>
      <trkpt lat="47.36992" lon="-1.967">
        <ele>64</ele>
        <time>2013-11-10T08:21:43Z</time>
      </trkpt>
      <trkpt lat="47.36994" lon="-1.96687">
        <ele>67</ele>
        <time>2013-11-10T08:21:50Z</time>
      </trkpt>
      <trkpt lat="47.36988" lon="-1.96672">
        <ele>68</ele>
        <time>2013-11-10T08:21:57Z</time>
      </trkpt>
      <trkpt lat="47.36969" lon="-1.96668">
        <ele>68</ele>
        <time>2013-11-10T08:22:04Z</time>
      </trkpt>
      <trkpt lat="47.36954" lon="-1.96666">
        <ele>69</ele>
        <time>2013-11-10T08:22:10Z</time>
      </trkpt>
      <trkpt lat="47.36958" lon="-1.96662">
        <ele>69</ele>
        <time>2013-11-10T08:22:17Z</time>
      </trkpt>
      <trkpt lat="47.3697" lon="-1.9666">
        <ele>71</ele>
        <time>2013-11-10T08:22:24Z</time>
      </trkpt>
      <trkpt lat="47.36982" lon="-1.96662">
        <ele>71</ele>
        <time>2013-11-10T08:22:31Z</time>
      </trkpt>
      <trkpt lat="47.36994" lon="-1.96664">
        <ele>74</ele>
        <time>2013-11-10T08:22:38Z</time>
      </trkpt>
      <trkpt lat="47.37007" lon="-1.96657">
        <ele>74</ele>
        <time>2013-11-10T08:22:46Z</time>
      </trkpt>
      <trkpt lat="47.37022" lon="-1.96651">
        <ele>72</ele>
        <time>2013-11-10T08:22:53Z</time>
      </trkpt>
      <trkpt lat="47.3703" lon="-1.96651">
        <ele>73</ele>
        <time>2013-11-10T08:23:01Z</time>
      </trkpt>
      <trkpt lat="47.37036" lon="-1.9665">
        <ele>72</ele>
        <time>2013-11-10T08:23:09Z</time>
      </trkpt>
      <trkpt lat="47.37041" lon="-1.9665">
        <ele>71</ele>
        <time>2013-11-10T08:23:16Z</time>
      </trkpt>
      <trkpt lat="47.37037" lon="-1.96652">
        <ele>71</ele>
        <time>2013-11-10T08:23:24Z</time>
      </trkpt>
      <trkpt lat="47.37039" lon="-1.96658">
        <ele>72</ele>
        <time>2013-11-10T08:23:32Z</time>
      </trkpt>
      <trkpt lat="47.37041" lon="-1.96658">
        <ele>72</ele>
        <time>2013-11-10T08:23:39Z</time>
      </trkpt>
      <trkpt lat="47.37042" lon="-1.96658">
        <ele>72</ele>
        <time>2013-11-10T08:23:46Z</time>
      </trkpt>
      <trkpt lat="47.37048" lon="-1.96678">
        <ele>69</ele>
        <time>2013-11-10T08:23:54Z</time>
      </trkpt>
      <trkpt lat="47.3706" lon="-1.96692">
        <ele>69</ele>
        <time>2013-11-10T08:24:00Z</time>
      </trkpt>
      <trkpt lat="47.37062" lon="-1.96692">
        <ele>69</ele>
        <time>2013-11-10T08:24:08Z</time>
      </trkpt>
      <trkpt lat="47.37062" lon="-1.96692">
        <ele>69</ele>
        <time>2013-11-10T08:24:16Z</time>
      </trkpt>
      <trkpt lat="47.37062" lon="-1.96692">
        <ele>69</ele>
        <time>2013-11-10T08:24:24Z</time>
      </trkpt>
      <trkpt lat="47.37063" lon="-1.96691">
        <ele>68</ele>
        <time>2013-11-10T08:24:31Z</time>
      </trkpt>
      <trkpt lat="47.37063" lon="-1.96692">
        <ele>70</ele>
        <time>2013-11-10T08:24:38Z</time>
      </trkpt>
      <trkpt lat="47.37078" lon="-1.96692">
        <ele>69</ele>
        <time>2013-11-10T08:24:45Z</time>
      </trkpt>
      <trkpt lat="47.37102" lon="-1.96687">
        <ele>71</ele>
        <time>2013-11-10T08:24:53Z</time>
      </trkpt>
      <trkpt lat="47.37128" lon="-1.96678">
        <ele>73</ele>
        <time>2013-11-10T08:25:01Z</time>
      </trkpt>
      <trkpt lat="47.37137" lon="-1.96685">
        <ele>74</ele>
        <time>2013-11-10T08:25:08Z</time>
      </trkpt>
      <trkpt lat="47.37122" lon="-1.96707">
        <ele>75</ele>
        <time>2013-11-10T08:25:15Z</time>
      </trkpt>
      <trkpt lat="47.37104" lon="-1.96732">
        <ele>76</ele>
        <time>2013-11-10T08:25:23Z</time>
      </trkpt>
      <trkpt lat="47.37096" lon="-1.96763">
        <ele>77</ele>
        <time>2013-11-10T08:25:30Z</time>
      </trkpt>
      <trkpt lat="47.37109" lon="-1.96782">
        <ele>77</ele>
        <time>2013-11-10T08:25:36Z</time>
      </trkpt>
      <trkpt lat="47.37116" lon="-1.968">
        <ele>78</ele>
        <time>2013-11-10T08:25:43Z</time>
      </trkpt>
      <trkpt lat="47.37116" lon="-1.96815">
        <ele>79</ele>
        <time>2013-11-10T08:25:50Z</time>
      </trkpt>
      <trkpt lat="47.37115" lon="-1.96836">
        <ele>79</ele>
        <time>2013-11-10T08:25:57Z</time>
      </trkpt>
      <trkpt lat="47.37113" lon="-1.96859">
        <ele>80</ele>
        <time>2013-11-10T08:26:05Z</time>
      </trkpt>
      <trkpt lat="47.37111" lon="-1.96887">
        <ele>80</ele>
        <time>2013-11-10T08:26:13Z</time>
      </trkpt>
      <trkpt lat="47.3711" lon="-1.96915">
        <ele>81</ele>
        <time>2013-11-10T08:26:21Z</time>
      </trkpt>
      <trkpt lat="47.37111" lon="-1.96942">
        <ele>80</ele>
        <time>2013-11-10T08:26:28Z</time>
      </trkpt>
      <trkpt lat="47.3711" lon="-1.96969">
        <ele>81</ele>
        <time>2013-11-10T08:26:34Z</time>
      </trkpt>
      <trkpt lat="47.37113" lon="-1.97004">
        <ele>79</ele>
        <time>2013-11-10T08:26:41Z</time>
      </trkpt>
      <trkpt lat="47.3712" lon="-1.97034">
        <ele>78</ele>
        <time>2013-11-10T08:26:48Z</time>
      </trkpt>
      <trkpt lat="47.37145" lon="-1.97041">
        <ele>77</ele>
        <time>2013-11-10T08:26:56Z</time>
      </trkpt>
      <trkpt lat="47.37163" lon="-1.97038">
        <ele>77</ele>
        <time>2013-11-10T08:27:03Z</time>
      </trkpt>
      <trkpt lat="47.37185" lon="-1.97035">
        <ele>77</ele>
        <time>2013-11-10T08:27:11Z</time>
      </trkpt>
      <trkpt lat="47.37201" lon="-1.97035">
        <ele>77</ele>
        <time>2013-11-10T08:27:18Z</time>
      </trkpt>
      <trkpt lat="47.37211" lon="-1.97044">
        <ele>76</ele>
        <time>2013-11-10T08:27:25Z</time>
      </trkpt>
      <trkpt lat="47.37217" lon="-1.9708">
        <ele>74</ele>
        <time>2013-11-10T08:27:32Z</time>
      </trkpt>
      <trkpt lat="47.37231" lon="-1.97141">
        <ele>73</ele>
        <time>2013-11-10T08:27:40Z</time>
      </trkpt>
      <trkpt lat="47.37265" lon="-1.97148">
        <ele>71</ele>
        <time>2013-11-10T08:27:48Z</time>
      </trkpt>
      <trkpt lat="47.37295" lon="-1.97138">
        <ele>73</ele>
        <time>2013-11-10T08:27:55Z</time>
      </trkpt>
      <trkpt lat="47.3733" lon="-1.9713">
        <ele>75</ele>
        <time>2013-11-10T08:28:03Z</time>
      </trkpt>
      <trkpt lat="47.37366" lon="-1.9712">
        <ele>77</ele>
        <time>2013-11-10T08:28:10Z</time>
      </trkpt>
      <trkpt lat="47.37399" lon="-1.97112">
        <ele>75</ele>
        <time>2013-11-10T08:28:18Z</time>
      </trkpt>
      <trkpt lat="47.37419" lon="-1.97124">
        <ele>74</ele>
        <time>2013-11-10T08:28:25Z</time>
      </trkpt>
      <trkpt lat="47.37427" lon="-1.97176">
        <ele>69</ele>
        <time>2013-11-10T08:28:33Z</time>
      </trkpt>
      <trkpt lat="47.37417" lon="-1.97207">
        <ele>69</ele>
        <time>2013-11-10T08:28:40Z</time>
      </trkpt>
      <trkpt lat="47.3742" lon="-1.97225">
        <ele>68</ele>
        <time>2013-11-10T08:28:48Z</time>
      </trkpt>
      <trkpt lat="47.37432" lon="-1.97238">
        <ele>68</ele>
        <time>2013-11-10T08:28:55Z</time>
      </trkpt>
      <trkpt lat="47.37444" lon="-1.97244">
        <ele>71</ele>
        <time>2013-11-10T08:29:03Z</time>
      </trkpt>
      <trkpt lat="47.37439" lon="-1.9727">
        <ele>73</ele>
        <time>2013-11-10T08:29:10Z</time>
      </trkpt>
      <trkpt lat="47.37431" lon="-1.97278">
        <ele>74</ele>
        <time>2013-11-10T08:29:17Z</time>
      </trkpt>
      <trkpt lat="47.37426" lon="-1.97279">
        <ele>74</ele>
        <time>2013-11-10T08:29:24Z</time>
      </trkpt>
      <trkpt lat="47.37416" lon="-1.97285">
        <ele>76</ele>
        <time>2013-11-10T08:29:31Z</time>
      </trkpt>
      <trkpt lat="47.374" lon="-1.97308">
        <ele>76</ele>
        <time>2013-11-10T08:29:38Z</time>
      </trkpt>
      <trkpt lat="47.3739" lon="-1.97334">
        <ele>76</ele>
        <time>2013-11-10T08:29:45Z</time>
      </trkpt>
      <trkpt lat="47.37381" lon="-1.97351">
        <ele>79</ele>
        <time>2013-11-10T08:29:53Z</time>
      </trkpt>
      <trkpt lat="47.37376" lon="-1.97356">
        <ele>78</ele>
        <time>2013-11-10T08:30:01Z</time>
      </trkpt>
      <trkpt lat="47.37372" lon="-1.97341">
        <ele>76</ele>
        <time>2013-11-10T08:30:07Z</time>
      </trkpt>
      <trkpt lat="47.37359" lon="-1.97318">
        <ele>78</ele>
        <time>2013-11-10T08:30:15Z</time>
      </trkpt>
      <trkpt lat="47.37342" lon="-1.97314">
        <ele>75</ele>
        <time>2013-11-10T08:30:23Z</time>
      </trkpt>
      <trkpt lat="47.37339" lon="-1.97315">
        <ele>74</ele>
        <time>2013-11-10T08:30:30Z</time>
      </trkpt>
      <trkpt lat="47.37337" lon="-1.97319">
        <ele>74</ele>
        <time>2013-11-10T08:30:36Z</time>
      </trkpt>
      <trkpt lat="47.37336" lon="-1.9732">
        <ele>74</ele>
        <time>2013-11-10T08:30:43Z</time>
      </trkpt>
      <trkpt lat="47.37333" lon="-1.9732">
        <ele>75</ele>
        <time>2013-11-10T08:30:51Z</time>
      </trkpt>
      <trkpt lat="47.37324" lon="-1.97317">
        <ele>74</ele>
        <time>2013-11-10T08:30:58Z</time>
      </trkpt>
      <trkpt lat="47.3732" lon="-1.97316">
        <ele>75</ele>
        <time>2013-11-10T08:31:05Z</time>
      </trkpt>
      <trkpt lat="47.37314" lon="-1.97315">
        <ele>74</ele>
        <time>2013-11-10T08:31:13Z</time>
      </trkpt>
      <trkpt lat="47.37309" lon="-1.97315">
        <ele>74</ele>
        <time>2013-11-10T08:31:21Z</time>
      </trkpt>
      <trkpt lat="47.37308" lon="-1.97316">
        <ele>74</ele>
        <time>2013-11-10T08:31:28Z</time>
      </trkpt>
      <trkpt lat="47.37305" lon="-1.97322">
        <ele>74</ele>
        <time>2013-11-10T08:31:35Z</time>
      </trkpt>
      <trkpt lat="47.37306" lon="-1.97326">
        <ele>74</ele>
        <time>2013-11-10T08:31:43Z</time>
      </trkpt>
      <trkpt lat="47.37305" lon="-1.97328">
        <ele>74</ele>
        <time>2013-11-10T08:31:50Z</time>
      </trkpt>
      <trkpt lat="47.37302" lon="-1.97328">
        <ele>74</ele>
        <time>2013-11-10T08:31:57Z</time>
      </trkpt>
      <trkpt lat="47.3729" lon="-1.97329">
        <ele>74</ele>
        <time>2013-11-10T08:32:04Z</time>
      </trkpt>
      <trkpt lat="47.37277" lon="-1.97333">
        <ele>75</ele>
        <time>2013-11-10T08:32:11Z</time>
      </trkpt>
      <trkpt lat="47.37252" lon="-1.97328">
        <ele>69</ele>
        <time>2013-11-10T08:32:18Z</time>
      </trkpt>
      <trkpt lat="47.37222" lon="-1.9734">
        <ele>69</ele>
        <time>2013-11-10T08:32:26Z</time>
      </trkpt>
      <trkpt lat="47.37205" lon="-1.97367">
        <ele>68</ele>
        <time>2013-11-10T08:32:33Z</time>
      </trkpt>
      <trkpt lat="47.37195" lon="-1.97406">
        <ele>69</ele>
        <time>2013-11-10T08:32:41Z</time>
      </trkpt>
      <trkpt lat="47.37195" lon="-1.97409">
        <ele>69</ele>
        <time>2013-11-10T08:32:48Z</time>
      </trkpt>
      <trkpt lat="47.37202" lon="-1.97427">
        <ele>69</ele>
        <time>2013-11-10T08:32:55Z</time>
      </trkpt>
      <trkpt lat="47.37207" lon="-1.97457">
        <ele>68</ele>
        <time>2013-11-10T08:33:02Z</time>
      </trkpt>
      <trkpt lat="47.37215" lon="-1.97481">
        <ele>71</ele>
        <time>2013-11-10T08:33:09Z</time>
      </trkpt>
      <trkpt lat="47.37227" lon="-1.97505">
        <ele>71</ele>
        <time>2013-11-10T08:33:15Z</time>
      </trkpt>
      <trkpt lat="47.37243" lon="-1.97519">
        <ele>74</ele>
        <time>2013-11-10T08:33:23Z</time>
      </trkpt>
      <trkpt lat="47.37255" lon="-1.97514">
        <ele>76</ele>
        <time>2013-11-10T08:33:29Z</time>
      </trkpt>
      <trkpt lat="47.37263" lon="-1.97529">
        <ele>75</ele>
        <time>2013-11-10T08:33:36Z</time>
      </trkpt>
      <trkpt lat="47.37273" lon="-1.97565">
        <ele>75</ele>
        <time>2013-11-10T08:33:44Z</time>
      </trkpt>
      <trkpt lat="47.37283" lon="-1.976">
        <ele>75</ele>
        <time>2013-11-10T08:33:51Z</time>
      </trkpt>
      <trkpt lat="47.37301" lon="-1.97636">
        <ele>75</ele>
        <time>2013-11-10T08:33:59Z</time>
      </trkpt>
      <trkpt lat="47.37318" lon="-1.97681">
        <ele>74</ele>
        <time>2013-11-10T08:34:06Z</time>
      </trkpt>
      <trkpt lat="47.3733" lon="-1.9773">
        <ele>72</ele>
        <time>2013-11-10T08:34:14Z</time>
      </trkpt>
      <trkpt lat="47.37343" lon="-1.97784">
        <ele>69</ele>
        <time>2013-11-10T08:34:21Z</time>
      </trkpt>
      <trkpt lat="47.37351" lon="-1.9782">
        <ele>68</ele>
        <time>2013-11-10T08:34:28Z</time>
      </trkpt>
      <trkpt lat="47.37358" lon="-1.97861">
        <ele>67</ele>
        <time>2013-11-10T08:34:35Z</time>
      </trkpt>
      <trkpt lat="47.37363" lon="-1.97898">
        <ele>67</ele>
        <time>2013-11-10T08:34:42Z</time>
      </trkpt>
      <trkpt lat="47.37368" lon="-1.97935">
        <ele>67</ele>
        <time>2013-11-10T08:34:50Z</time>
      </trkpt>
      <trkpt lat="47.37372" lon="-1.97965">
        <ele>64</ele>
        <time>2013-11-10T08:34:57Z</time>
      </trkpt>
      <trkpt lat="47.37382" lon="-1.9801">
        <ele>59</ele>
        <time>2013-11-10T08:35:05Z</time>
      </trkpt>
      <trkpt lat="47.37394" lon="-1.98033">
        <ele>57</ele>
        <time>2013-11-10T08:35:11Z</time>
      </trkpt>
      <trkpt lat="47.37404" lon="-1.98025">
        <ele>60</ele>
        <time>2013-11-10T08:35:18Z</time>
      </trkpt>
      <trkpt lat="47.37416" lon="-1.98">
        <ele>63</ele>
        <time>2013-11-10T08:35:26Z</time>
      </trkpt>
      <trkpt lat="47.37429" lon="-1.97981">
        <ele>64</ele>
        <time>2013-11-10T08:35:33Z</time>
      </trkpt>
      <trkpt lat="47.37443" lon="-1.97958">
        <ele>63</ele>
        <time>2013-11-10T08:35:39Z</time>
      </trkpt>
      <trkpt lat="47.37461" lon="-1.97942">
        <ele>66</ele>
        <time>2013-11-10T08:35:46Z</time>
      </trkpt>
      <trkpt lat="47.37466" lon="-1.97926">
        <ele>67</ele>
        <time>2013-11-10T08:35:52Z</time>
      </trkpt>
      <trkpt lat="47.3747" lon="-1.97907">
        <ele>69</ele>
        <time>2013-11-10T08:35:59Z</time>
      </trkpt>
      <trkpt lat="47.3748" lon="-1.97895">
        <ele>70</ele>
        <time>2013-11-10T08:36:07Z</time>
      </trkpt>
      <trkpt lat="47.37501" lon="-1.97886">
        <ele>69</ele>
        <time>2013-11-10T08:36:15Z</time>
      </trkpt>
      <trkpt lat="47.37517" lon="-1.97884">
        <ele>69</ele>
        <time>2013-11-10T08:36:22Z</time>
      </trkpt>
      <trkpt lat="47.37544" lon="-1.97885">
        <ele>66</ele>
        <time>2013-11-10T08:36:30Z</time>
      </trkpt>
      <trkpt lat="47.37556" lon="-1.97887">
        <ele>67</ele>
        <time>2013-11-10T08:36:37Z</time>
      </trkpt>
      <trkpt lat="47.3757" lon="-1.97881">
        <ele>68</ele>
        <time>2013-11-10T08:36:44Z</time>
      </trkpt>
      <trkpt lat="47.37583" lon="-1.97875">
        <ele>67</ele>
        <time>2013-11-10T08:36:51Z</time>
      </trkpt>
      <trkpt lat="47.37597" lon="-1.97874">
        <ele>64</ele>
        <time>2013-11-10T08:36:58Z</time>
      </trkpt>
      <trkpt lat="47.37615" lon="-1.97872">
        <ele>68</ele>
        <time>2013-11-10T08:37:06Z</time>
      </trkpt>
      <trkpt lat="47.37625" lon="-1.97874">
        <ele>68</ele>
        <time>2013-11-10T08:37:14Z</time>
      </trkpt>
      <trkpt lat="47.3763" lon="-1.97885">
        <ele>71</ele>
        <time>2013-11-10T08:37:21Z</time>
      </trkpt>
      <trkpt lat="47.37631" lon="-1.97893">
        <ele>72</ele>
        <time>2013-11-10T08:37:27Z</time>
      </trkpt>
      <trkpt lat="47.37627" lon="-1.97907">
        <ele>72</ele>
        <time>2013-11-10T08:37:34Z</time>
      </trkpt>
      <trkpt lat="47.37615" lon="-1.97919">
        <ele>71</ele>
        <time>2013-11-10T08:37:41Z</time>
      </trkpt>
      <trkpt lat="47.37588" lon="-1.97935">
        <ele>70</ele>
        <time>2013-11-10T08:37:48Z</time>
      </trkpt>
      <trkpt lat="47.37555" lon="-1.97954">
        <ele>65</ele>
        <time>2013-11-10T08:37:56Z</time>
      </trkpt>
      <trkpt lat="47.37526" lon="-1.97967">
        <ele>57</ele>
        <time>2013-11-10T08:38:04Z</time>
      </trkpt>
      <trkpt lat="47.37507" lon="-1.97978">
        <ele>57</ele>
        <time>2013-11-10T08:38:11Z</time>
      </trkpt>
      <trkpt lat="47.375" lon="-1.97983">
        <ele>57</ele>
        <time>2013-11-10T08:38:17Z</time>
      </trkpt>
      <trkpt lat="47.37499" lon="-1.97983">
        <ele>58</ele>
        <time>2013-11-10T08:38:25Z</time>
      </trkpt>
      <trkpt lat="47.37498" lon="-1.97986">
        <ele>57</ele>
        <time>2013-11-10T08:38:31Z</time>
      </trkpt>
      <trkpt lat="47.37499" lon="-1.97986">
        <ele>58</ele>
        <time>2013-11-10T08:38:38Z</time>
      </trkpt>
      <trkpt lat="47.37501" lon="-1.97982">
        <ele>58</ele>
        <time>2013-11-10T08:38:44Z</time>
      </trkpt>
      <trkpt lat="47.37501" lon="-1.97981">
        <ele>56</ele>
        <time>2013-11-10T08:38:51Z</time>
      </trkpt>
      <trkpt lat="47.37499" lon="-1.97982">
        <ele>57</ele>
        <time>2013-11-10T08:38:57Z</time>
      </trkpt>
      <trkpt lat="47.37499" lon="-1.97983">
        <ele>57</ele>
        <time>2013-11-10T08:39:04Z</time>
      </trkpt>
      <trkpt lat="47.37498" lon="-1.97981">
        <ele>57</ele>
        <time>2013-11-10T08:39:11Z</time>
      </trkpt>
      <trkpt lat="47.37498" lon="-1.97981">
        <ele>57</ele>
        <time>2013-11-10T08:39:18Z</time>
      </trkpt>
      <trkpt lat="47.37491" lon="-1.97981">
        <ele>57</ele>
        <time>2013-11-10T08:39:24Z</time>
      </trkpt>
      <trkpt lat="47.37491" lon="-1.9798">
        <ele>57</ele>
        <time>2013-11-10T08:39:31Z</time>
      </trkpt>
      <trkpt lat="47.37489" lon="-1.97979">
        <ele>57</ele>
        <time>2013-11-10T08:39:38Z</time>
      </trkpt>
      <trkpt lat="47.37489" lon="-1.97979">
        <ele>56</ele>
        <time>2013-11-10T08:39:45Z</time>
      </trkpt>
      <trkpt lat="47.37489" lon="-1.97979">
        <ele>56</ele>
        <time>2013-11-10T08:39:51Z</time>
      </trkpt>
      <trkpt lat="47.37487" lon="-1.97977">
        <ele>56</ele>
        <time>2013-11-10T08:39:58Z</time>
      </trkpt>
      <trkpt lat="47.37488" lon="-1.97976">
        <ele>57</ele>
        <time>2013-11-10T08:40:05Z</time>
      </trkpt>
      <trkpt lat="47.37488" lon="-1.97974">
        <ele>57</ele>
        <time>2013-11-10T08:40:12Z</time>
      </trkpt>
      <trkpt lat="47.37488" lon="-1.97973">
        <ele>57</ele>
        <time>2013-11-10T08:40:19Z</time>
      </trkpt>
      <trkpt lat="47.37488" lon="-1.97972">
        <ele>57</ele>
        <time>2013-11-10T08:40:27Z</time>
      </trkpt>
      <trkpt lat="47.37487" lon="-1.97958">
        <ele>58</ele>
        <time>2013-11-10T08:40:35Z</time>
      </trkpt>
      <trkpt lat="47.37482" lon="-1.97955">
        <ele>56</ele>
        <time>2013-11-10T08:40:43Z</time>
      </trkpt>
      <trkpt lat="47.37482" lon="-1.97956">
        <ele>56</ele>
        <time>2013-11-10T08:40:50Z</time>
      </trkpt>
      <trkpt lat="47.37482" lon="-1.97957">
        <ele>57</ele>
        <time>2013-11-10T08:40:57Z</time>
      </trkpt>
      <trkpt lat="47.37482" lon="-1.97958">
        <ele>57</ele>
        <time>2013-11-10T08:41:04Z</time>
      </trkpt>
      <trkpt lat="47.37482" lon="-1.97958">
        <ele>57</ele>
        <time>2013-11-10T08:41:11Z</time>
      </trkpt>
      <trkpt lat="47.37482" lon="-1.97958">
        <ele>57</ele>
        <time>2013-11-10T08:41:18Z</time>
      </trkpt>
      <trkpt lat="47.37481" lon="-1.97962">
        <ele>56</ele>
        <time>2013-11-10T08:41:25Z</time>
      </trkpt>
      <trkpt lat="47.37475" lon="-1.97971">
        <ele>57</ele>
        <time>2013-11-10T08:41:33Z</time>
      </trkpt>
      <trkpt lat="47.37474" lon="-1.97978">
        <ele>58</ele>
        <time>2013-11-10T08:41:40Z</time>
      </trkpt>
      <trkpt lat="47.37466" lon="-1.98001">
        <ele>59</ele>
        <time>2013-11-10T08:41:48Z</time>
      </trkpt>
      <trkpt lat="47.37462" lon="-1.98022">
        <ele>57</ele>
        <time>2013-11-10T08:41:54Z</time>
      </trkpt>
      <trkpt lat="47.37459" lon="-1.98037">
        <ele>56</ele>
        <time>2013-11-10T08:42:00Z</time>
      </trkpt>
      <trkpt lat="47.37441" lon="-1.98066">
        <ele>56</ele>
        <time>2013-11-10T08:42:07Z</time>
      </trkpt>
      <trkpt lat="47.37436" lon="-1.98107">
        <ele>59</ele>
        <time>2013-11-10T08:42:15Z</time>
      </trkpt>
      <trkpt lat="47.37432" lon="-1.98152">
        <ele>62</ele>
        <time>2013-11-10T08:42:22Z</time>
      </trkpt>
      <trkpt lat="47.37433" lon="-1.98197">
        <ele>62</ele>
        <time>2013-11-10T08:42:30Z</time>
      </trkpt>
      <trkpt lat="47.37442" lon="-1.98232">
        <ele>63</ele>
        <time>2013-11-10T08:42:37Z</time>
      </trkpt>
      <trkpt lat="47.37452" lon="-1.98274">
        <ele>60</ele>
        <time>2013-11-10T08:42:44Z</time>
      </trkpt>
      <trkpt lat="47.37462" lon="-1.98327">
        <ele>57</ele>
        <time>2013-11-10T08:42:51Z</time>
      </trkpt>
      <trkpt lat="47.37475" lon="-1.98383">
        <ele>61</ele>
        <time>2013-11-10T08:42:59Z</time>
      </trkpt>
      <trkpt lat="47.37485" lon="-1.98431">
        <ele>60</ele>
        <time>2013-11-10T08:43:07Z</time>
      </trkpt>
      <trkpt lat="47.37494" lon="-1.98472">
        <ele>59</ele>
        <time>2013-11-10T08:43:13Z</time>
      </trkpt>
      <trkpt lat="47.375" lon="-1.98506">
        <ele>58</ele>
        <time>2013-11-10T08:43:19Z</time>
      </trkpt>
      <trkpt lat="47.37507" lon="-1.98546">
        <ele>49</ele>
        <time>2013-11-10T08:43:27Z</time>
      </trkpt>
      <trkpt lat="47.37502" lon="-1.98575">
        <ele>45</ele>
        <time>2013-11-10T08:43:35Z</time>
      </trkpt>
      <trkpt lat="47.37488" lon="-1.98613">
        <ele>43</ele>
        <time>2013-11-10T08:43:42Z</time>
      </trkpt>
      <trkpt lat="47.37483" lon="-1.98642">
        <ele>42</ele>
        <time>2013-11-10T08:43:49Z</time>
      </trkpt>
      <trkpt lat="47.37475" lon="-1.98706">
        <ele>41</ele>
        <time>2013-11-10T08:43:57Z</time>
      </trkpt>
      <trkpt lat="47.37476" lon="-1.9876">
        <ele>41</ele>
        <time>2013-11-10T08:44:04Z</time>
      </trkpt>
      <trkpt lat="47.37494" lon="-1.98796">
        <ele>40</ele>
        <time>2013-11-10T08:44:11Z</time>
      </trkpt>
      <trkpt lat="47.37512" lon="-1.98826">
        <ele>41</ele>
        <time>2013-11-10T08:44:18Z</time>
      </trkpt>
      <trkpt lat="47.37524" lon="-1.98851">
        <ele>39</ele>
        <time>2013-11-10T08:44:26Z</time>
      </trkpt>
      <trkpt lat="47.37539" lon="-1.98881">
        <ele>40</ele>
        <time>2013-11-10T08:44:34Z</time>
      </trkpt>
      <trkpt lat="47.3755" lon="-1.98906">
        <ele>40</ele>
        <time>2013-11-10T08:44:41Z</time>
      </trkpt>
      <trkpt lat="47.37565" lon="-1.98932">
        <ele>40</ele>
        <time>2013-11-10T08:44:49Z</time>
      </trkpt>
      <trkpt lat="47.37577" lon="-1.98957">
        <ele>41</ele>
        <time>2013-11-10T08:44:56Z</time>
      </trkpt>
      <trkpt lat="47.37585" lon="-1.98979">
        <ele>41</ele>
        <time>2013-11-10T08:45:03Z</time>
      </trkpt>
      <trkpt lat="47.37594" lon="-1.98979">
        <ele>43</ele>
        <time>2013-11-10T08:45:10Z</time>
      </trkpt>
      <trkpt lat="47.37603" lon="-1.98972">
        <ele>43</ele>
        <time>2013-11-10T08:45:17Z</time>
      </trkpt>
      <trkpt lat="47.3762" lon="-1.98964">
        <ele>44</ele>
        <time>2013-11-10T08:45:24Z</time>
      </trkpt>
      <trkpt lat="47.37638" lon="-1.98953">
        <ele>46</ele>
        <time>2013-11-10T08:45:31Z</time>
      </trkpt>
      <trkpt lat="47.37659" lon="-1.98946">
        <ele>46</ele>
        <time>2013-11-10T08:45:39Z</time>
      </trkpt>
      <trkpt lat="47.37674" lon="-1.9894">
        <ele>49</ele>
        <time>2013-11-10T08:45:46Z</time>
      </trkpt>
      <trkpt lat="47.37687" lon="-1.98935">
        <ele>50</ele>
        <time>2013-11-10T08:45:53Z</time>
      </trkpt>
      <trkpt lat="47.37699" lon="-1.98933">
        <ele>54</ele>
        <time>2013-11-10T08:46:00Z</time>
      </trkpt>
      <trkpt lat="47.37712" lon="-1.98927">
        <ele>53</ele>
        <time>2013-11-10T08:46:07Z</time>
      </trkpt>
      <trkpt lat="47.3772" lon="-1.98922">
        <ele>52</ele>
        <time>2013-11-10T08:46:14Z</time>
      </trkpt>
      <trkpt lat="47.37724" lon="-1.98921">
        <ele>55</ele>
        <time>2013-11-10T08:46:20Z</time>
      </trkpt>
      <trkpt lat="47.37731" lon="-1.9892">
        <ele>55</ele>
        <time>2013-11-10T08:46:28Z</time>
      </trkpt>
      <trkpt lat="47.37737" lon="-1.98919">
        <ele>56</ele>
        <time>2013-11-10T08:46:35Z</time>
      </trkpt>
      <trkpt lat="47.37745" lon="-1.98918">
        <ele>57</ele>
        <time>2013-11-10T08:46:42Z</time>
      </trkpt>
      <trkpt lat="47.37752" lon="-1.98915">
        <ele>59</ele>
        <time>2013-11-10T08:46:50Z</time>
      </trkpt>
      <trkpt lat="47.37759" lon="-1.98916">
        <ele>59</ele>
        <time>2013-11-10T08:46:56Z</time>
      </trkpt>
      <trkpt lat="47.37773" lon="-1.98915">
        <ele>60</ele>
        <time>2013-11-10T08:47:04Z</time>
      </trkpt>
      <trkpt lat="47.37788" lon="-1.9891">
        <ele>61</ele>
        <time>2013-11-10T08:47:10Z</time>
      </trkpt>
      <trkpt lat="47.37799" lon="-1.98907">
        <ele>62</ele>
        <time>2013-11-10T08:47:17Z</time>
      </trkpt>
      <trkpt lat="47.37807" lon="-1.98906">
        <ele>64</ele>
        <time>2013-11-10T08:47:24Z</time>
      </trkpt>
      <trkpt lat="47.37818" lon="-1.98907">
        <ele>65</ele>
        <time>2013-11-10T08:47:31Z</time>
      </trkpt>
      <trkpt lat="47.37828" lon="-1.98908">
        <ele>67</ele>
        <time>2013-11-10T08:47:39Z</time>
      </trkpt>
      <trkpt lat="47.37842" lon="-1.98903">
        <ele>65</ele>
        <time>2013-11-10T08:47:46Z</time>
      </trkpt>
      <trkpt lat="47.37861" lon="-1.98902">
        <ele>68</ele>
        <time>2013-11-10T08:47:53Z</time>
      </trkpt>
      <trkpt lat="47.37876" lon="-1.98897">
        <ele>68</ele>
        <time>2013-11-10T08:48:01Z</time>
      </trkpt>
      <trkpt lat="47.3789" lon="-1.98892">
        <ele>70</ele>
        <time>2013-11-10T08:48:09Z</time>
      </trkpt>
      <trkpt lat="47.37903" lon="-1.98886">
        <ele>70</ele>
        <time>2013-11-10T08:48:17Z</time>
      </trkpt>
      <trkpt lat="47.37916" lon="-1.98876">
        <ele>73</ele>
        <time>2013-11-10T08:48:24Z</time>
      </trkpt>
      <trkpt lat="47.37927" lon="-1.98873">
        <ele>74</ele>
        <time>2013-11-10T08:48:31Z</time>
      </trkpt>
      <trkpt lat="47.3793" lon="-1.98873">
        <ele>73</ele>
        <time>2013-11-10T08:48:38Z</time>
      </trkpt>
      <trkpt lat="47.37931" lon="-1.9887">
        <ele>73</ele>
        <time>2013-11-10T08:48:44Z</time>
      </trkpt>
      <trkpt lat="47.37932" lon="-1.98869">
        <ele>73</ele>
        <time>2013-11-10T08:48:52Z</time>
      </trkpt>
      <trkpt lat="47.37931" lon="-1.98869">
        <ele>73</ele>
        <time>2013-11-10T08:48:59Z</time>
      </trkpt>
      <trkpt lat="47.37933" lon="-1.98871">
        <ele>73</ele>
        <time>2013-11-10T08:49:05Z</time>
      </trkpt>
      <trkpt lat="47.37934" lon="-1.98872">
        <ele>73</ele>
        <time>2013-11-10T08:49:12Z</time>
      </trkpt>
      <trkpt lat="47.37935" lon="-1.98869">
        <ele>74</ele>
        <time>2013-11-10T08:49:19Z</time>
      </trkpt>
      <trkpt lat="47.37937" lon="-1.98868">
        <ele>73</ele>
        <time>2013-11-10T08:49:27Z</time>
      </trkpt>
      <trkpt lat="47.37937" lon="-1.98869">
        <ele>74</ele>
        <time>2013-11-10T08:49:34Z</time>
      </trkpt>
      <trkpt lat="47.3794" lon="-1.98867">
        <ele>73</ele>
        <time>2013-11-10T08:49:41Z</time>
      </trkpt>
      <trkpt lat="47.37942" lon="-1.98868">
        <ele>73</ele>
        <time>2013-11-10T08:49:49Z</time>
      </trkpt>
      <trkpt lat="47.37943" lon="-1.98866">
        <ele>73</ele>
        <time>2013-11-10T08:49:56Z</time>
      </trkpt>
      <trkpt lat="47.37943" lon="-1.98864">
        <ele>73</ele>
        <time>2013-11-10T08:50:03Z</time>
      </trkpt>
      <trkpt lat="47.37943" lon="-1.98866">
        <ele>73</ele>
        <time>2013-11-10T08:50:10Z</time>
      </trkpt>
      <trkpt lat="47.37944" lon="-1.98869">
        <ele>74</ele>
        <time>2013-11-10T08:50:17Z</time>
      </trkpt>
      <trkpt lat="47.37948" lon="-1.98867">
        <ele>73</ele>
        <time>2013-11-10T08:50:24Z</time>
      </trkpt>
      <trkpt lat="47.37948" lon="-1.98862">
        <ele>71</ele>
        <time>2013-11-10T08:50:32Z</time>
      </trkpt>
      <trkpt lat="47.37949" lon="-1.9886">
        <ele>73</ele>
        <time>2013-11-10T08:50:38Z</time>
      </trkpt>
      <trkpt lat="47.37951" lon="-1.98864">
        <ele>73</ele>
        <time>2013-11-10T08:50:46Z</time>
      </trkpt>
      <trkpt lat="47.37956" lon="-1.98909">
        <ele>73</ele>
        <time>2013-11-10T08:50:54Z</time>
      </trkpt>
      <trkpt lat="47.37961" lon="-1.98953">
        <ele>73</ele>
        <time>2013-11-10T08:51:02Z</time>
      </trkpt>
      <trkpt lat="47.37967" lon="-1.98997">
        <ele>73</ele>
        <time>2013-11-10T08:51:09Z</time>
      </trkpt>
      <trkpt lat="47.37972" lon="-1.99033">
        <ele>72</ele>
        <time>2013-11-10T08:51:16Z</time>
      </trkpt>
      <trkpt lat="47.37977" lon="-1.99075">
        <ele>71</ele>
        <time>2013-11-10T08:51:23Z</time>
      </trkpt>
      <trkpt lat="47.37983" lon="-1.99104">
        <ele>68</ele>
        <time>2013-11-10T08:51:30Z</time>
      </trkpt>
      <trkpt lat="47.37993" lon="-1.99141">
        <ele>62</ele>
        <time>2013-11-10T08:51:38Z</time>
      </trkpt>
      <trkpt lat="47.37999" lon="-1.99177">
        <ele>60</ele>
        <time>2013-11-10T08:51:45Z</time>
      </trkpt>
      <trkpt lat="47.38004" lon="-1.99234">
        <ele>57</ele>
        <time>2013-11-10T08:51:53Z</time>
      </trkpt>
      <trkpt lat="47.38011" lon="-1.99291">
        <ele>54</ele>
        <time>2013-11-10T08:52:00Z</time>
      </trkpt>
      <trkpt lat="47.38024" lon="-1.9931">
        <ele>56</ele>
        <time>2013-11-10T08:52:07Z</time>
      </trkpt>
      <trkpt lat="47.38032" lon="-1.99319">
        <ele>57</ele>
        <time>2013-11-10T08:52:14Z</time>
      </trkpt>
      <trkpt lat="47.38045" lon="-1.99319">
        <ele>60</ele>
        <time>2013-11-10T08:52:22Z</time>
      </trkpt>
      <trkpt lat="47.38058" lon="-1.99315">
        <ele>60</ele>
        <time>2013-11-10T08:52:30Z</time>
      </trkpt>
      <trkpt lat="47.38064" lon="-1.99307">
        <ele>62</ele>
        <time>2013-11-10T08:52:37Z</time>
      </trkpt>
      <trkpt lat="47.38067" lon="-1.99292">
        <ele>63</ele>
        <time>2013-11-10T08:52:44Z</time>
      </trkpt>
      <trkpt lat="47.38075" lon="-1.99274">
        <ele>63</ele>
        <time>2013-11-10T08:52:51Z</time>
      </trkpt>
      <trkpt lat="47.38093" lon="-1.99261">
        <ele>64</ele>
        <time>2013-11-10T08:52:58Z</time>
      </trkpt>
      <trkpt lat="47.38108" lon="-1.9926">
        <ele>61</ele>
        <time>2013-11-10T08:53:06Z</time>
      </trkpt>
      <trkpt lat="47.38117" lon="-1.99261">
        <ele>62</ele>
        <time>2013-11-10T08:53:13Z</time>
      </trkpt>
      <trkpt lat="47.38124" lon="-1.99263">
        <ele>64</ele>
        <time>2013-11-10T08:53:20Z</time>
      </trkpt>
      <trkpt lat="47.38133" lon="-1.99259">
        <ele>65</ele>
        <time>2013-11-10T08:53:27Z</time>
      </trkpt>
      <trkpt lat="47.38139" lon="-1.99257">
        <ele>67</ele>
        <time>2013-11-10T08:53:34Z</time>
      </trkpt>
      <trkpt lat="47.38147" lon="-1.99255">
        <ele>69</ele>
        <time>2013-11-10T08:53:42Z</time>
      </trkpt>
      <trkpt lat="47.38154" lon="-1.99252">
        <ele>70</ele>
        <time>2013-11-10T08:53:48Z</time>
      </trkpt>
      <trkpt lat="47.38161" lon="-1.99248">
        <ele>70</ele>
        <time>2013-11-10T08:53:56Z</time>
      </trkpt>
      <trkpt lat="47.38175" lon="-1.99242">
        <ele>69</ele>
        <time>2013-11-10T08:54:03Z</time>
      </trkpt>
      <trkpt lat="47.38179" lon="-1.99241">
        <ele>69</ele>
        <time>2013-11-10T08:54:11Z</time>
      </trkpt>
      <trkpt lat="47.38183" lon="-1.99239">
        <ele>69</ele>
        <time>2013-11-10T08:54:18Z</time>
      </trkpt>
      <trkpt lat="47.38187" lon="-1.99238">
        <ele>67</ele>
        <time>2013-11-10T08:54:25Z</time>
      </trkpt>
      <trkpt lat="47.38204" lon="-1.99241">
        <ele>66</ele>
        <time>2013-11-10T08:54:31Z</time>
      </trkpt>
      <trkpt lat="47.38215" lon="-1.99247">
        <ele>64</ele>
        <time>2013-11-10T08:54:38Z</time>
      </trkpt>
      <trkpt lat="47.38216" lon="-1.99269">
        <ele>62</ele>
        <time>2013-11-10T08:54:45Z</time>
      </trkpt>
      <trkpt lat="47.3819" lon="-1.99286">
        <ele>59</ele>
        <time>2013-11-10T08:54:53Z</time>
      </trkpt>
      <trkpt lat="47.38181" lon="-1.99285">
        <ele>58</ele>
        <time>2013-11-10T08:54:59Z</time>
      </trkpt>
      <trkpt lat="47.38165" lon="-1.99283">
        <ele>57</ele>
        <time>2013-11-10T08:55:07Z</time>
      </trkpt>
      <trkpt lat="47.38136" lon="-1.99301">
        <ele>54</ele>
        <time>2013-11-10T08:55:15Z</time>
      </trkpt>
      <trkpt lat="47.38121" lon="-1.99321">
        <ele>53</ele>
        <time>2013-11-10T08:55:22Z</time>
      </trkpt>
      <trkpt lat="47.38111" lon="-1.99333">
        <ele>55</ele>
        <time>2013-11-10T08:55:29Z</time>
      </trkpt>
      <trkpt lat="47.38101" lon="-1.99351">
        <ele>56</ele>
        <time>2013-11-10T08:55:37Z</time>
      </trkpt>
      <trkpt lat="47.38094" lon="-1.99362">
        <ele>57</ele>
        <time>2013-11-10T08:55:44Z</time>
      </trkpt>
      <trkpt lat="47.3809" lon="-1.99367">
        <ele>59</ele>
        <time>2013-11-10T08:55:50Z</time>
      </trkpt>
      <trkpt lat="47.38083" lon="-1.99376">
        <ele>62</ele>
        <time>2013-11-10T08:55:58Z</time>
      </trkpt>
      <trkpt lat="47.38081" lon="-1.99381">
        <ele>62</ele>
        <time>2013-11-10T08:56:05Z</time>
      </trkpt>
      <trkpt lat="47.38066" lon="-1.99394">
        <ele>63</ele>
        <time>2013-11-10T08:56:11Z</time>
      </trkpt>
      <trkpt lat="47.3804" lon="-1.99433">
        <ele>63</ele>
        <time>2013-11-10T08:56:19Z</time>
      </trkpt>
      <trkpt lat="47.38033" lon="-1.99476">
        <ele>64</ele>
        <time>2013-11-10T08:56:26Z</time>
      </trkpt>
      <trkpt lat="47.38041" lon="-1.99512">
        <ele>64</ele>
        <time>2013-11-10T08:56:34Z</time>
      </trkpt>
      <trkpt lat="47.38058" lon="-1.99543">
        <ele>63</ele>
        <time>2013-11-10T08:56:41Z</time>
      </trkpt>
      <trkpt lat="47.38073" lon="-1.99579">
        <ele>63</ele>
        <time>2013-11-10T08:56:49Z</time>
      </trkpt>
      <trkpt lat="47.38089" lon="-1.99617">
        <ele>62</ele>
        <time>2013-11-10T08:56:57Z</time>
      </trkpt>
      <trkpt lat="47.38106" lon="-1.99649">
        <ele>61</ele>
        <time>2013-11-10T08:57:04Z</time>
      </trkpt>
      <trkpt lat="47.38107" lon="-1.99662">
        <ele>61</ele>
        <time>2013-11-10T08:57:11Z</time>
      </trkpt>
      <trkpt lat="47.38094" lon="-1.99678">
        <ele>58</ele>
        <time>2013-11-10T08:57:18Z</time>
      </trkpt>
      <trkpt lat="47.38066" lon="-1.99707">
        <ele>54</ele>
        <time>2013-11-10T08:57:25Z</time>
      </trkpt>
      <trkpt lat="47.3802" lon="-1.99751">
        <ele>45</ele>
        <time>2013-11-10T08:57:33Z</time>
      </trkpt>
      <trkpt lat="47.37964" lon="-1.99798">
        <ele>37</ele>
        <time>2013-11-10T08:57:41Z</time>
      </trkpt>
      <trkpt lat="47.37944" lon="-1.99817">
        <ele>36</ele>
        <time>2013-11-10T08:57:48Z</time>
      </trkpt>
      <trkpt lat="47.37949" lon="-1.99837">
        <ele>37</ele>
        <time>2013-11-10T08:57:54Z</time>
      </trkpt>
      <trkpt lat="47.37964" lon="-1.99861">
        <ele>37</ele>
        <time>2013-11-10T08:58:01Z</time>
      </trkpt>
      <trkpt lat="47.37976" lon="-1.9989">
        <ele>36</ele>
        <time>2013-11-10T08:58:09Z</time>
      </trkpt>
      <trkpt lat="47.37988" lon="-1.99915">
        <ele>35</ele>
        <time>2013-11-10T08:58:16Z</time>
      </trkpt>
      <trkpt lat="47.37998" lon="-1.99952">
        <ele>35</ele>
        <time>2013-11-10T08:58:23Z</time>
      </trkpt>
      <trkpt lat="47.38005" lon="-1.99979">
        <ele>37</ele>
        <time>2013-11-10T08:58:30Z</time>
      </trkpt>
      <trkpt lat="47.3802" lon="-1.99999">
        <ele>38</ele>
        <time>2013-11-10T08:58:38Z</time>
      </trkpt>
      <trkpt lat="47.38025" lon="-2.00013">
        <ele>38</ele>
        <time>2013-11-10T08:58:44Z</time>
      </trkpt>
      <trkpt lat="47.38037" lon="-2.0003">
        <ele>42</ele>
        <time>2013-11-10T08:58:52Z</time>
      </trkpt>
      <trkpt lat="47.38053" lon="-2.00077">
        <ele>43</ele>
        <time>2013-11-10T08:58:59Z</time>
      </trkpt>
      <trkpt lat="47.38062" lon="-2.00098">
        <ele>44</ele>
        <time>2013-11-10T08:59:06Z</time>
      </trkpt>
      <trkpt lat="47.38073" lon="-2.00123">
        <ele>45</ele>
        <time>2013-11-10T08:59:14Z</time>
      </trkpt>
      <trkpt lat="47.38087" lon="-2.00146">
        <ele>46</ele>
        <time>2013-11-10T08:59:21Z</time>
      </trkpt>
      <trkpt lat="47.38093" lon="-2.00166">
        <ele>47</ele>
        <time>2013-11-10T08:59:29Z</time>
      </trkpt>
      <trkpt lat="47.38098" lon="-2.00177">
        <ele>48</ele>
        <time>2013-11-10T08:59:37Z</time>
      </trkpt>
      <trkpt lat="47.38099" lon="-2.00178">
        <ele>48</ele>
        <time>2013-11-10T08:59:43Z</time>
      </trkpt>
      <trkpt lat="47.38116" lon="-2.00173">
        <ele>49</ele>
        <time>2013-11-10T08:59:51Z</time>
      </trkpt>
      <trkpt lat="47.38131" lon="-2.00158">
        <ele>49</ele>
        <time>2013-11-10T08:59:59Z</time>
      </trkpt>
      <trkpt lat="47.38141" lon="-2.00151">
        <ele>50</ele>
        <time>2013-11-10T09:00:07Z</time>
      </trkpt>
      <trkpt lat="47.38148" lon="-2.0014">
        <ele>51</ele>
        <time>2013-11-10T09:00:15Z</time>
      </trkpt>
      <trkpt lat="47.38155" lon="-2.00127">
        <ele>52</ele>
        <time>2013-11-10T09:00:23Z</time>
      </trkpt>
      <trkpt lat="47.38172" lon="-2.00114">
        <ele>51</ele>
        <time>2013-11-10T09:00:31Z</time>
      </trkpt>
      <trkpt lat="47.38186" lon="-2.00105">
        <ele>51</ele>
        <time>2013-11-10T09:00:37Z</time>
      </trkpt>
      <trkpt lat="47.38206" lon="-2.00099">
        <ele>50</ele>
        <time>2013-11-10T09:00:44Z</time>
      </trkpt>
      <trkpt lat="47.38213" lon="-2.00094">
        <ele>50</ele>
        <time>2013-11-10T09:00:52Z</time>
      </trkpt>
      <trkpt lat="47.38214" lon="-2.00092">
        <ele>52</ele>
        <time>2013-11-10T09:00:58Z</time>
      </trkpt>
      <trkpt lat="47.38224" lon="-2.00079">
        <ele>55</ele>
        <time>2013-11-10T09:01:05Z</time>
      </trkpt>
      <trkpt lat="47.38226" lon="-2.00077">
        <ele>55</ele>
        <time>2013-11-10T09:01:12Z</time>
      </trkpt>
      <trkpt lat="47.38226" lon="-2.00077">
        <ele>56</ele>
        <time>2013-11-10T09:01:19Z</time>
      </trkpt>
      <trkpt lat="47.38228" lon="-2.0007">
        <ele>58</ele>
        <time>2013-11-10T09:01:27Z</time>
      </trkpt>
      <trkpt lat="47.38228" lon="-2.0007">
        <ele>58</ele>
        <time>2013-11-10T09:01:33Z</time>
      </trkpt>
      <trkpt lat="47.38238" lon="-2.00056">
        <ele>59</ele>
        <time>2013-11-10T09:01:40Z</time>
      </trkpt>
      <trkpt lat="47.38248" lon="-2.00043">
        <ele>59</ele>
        <time>2013-11-10T09:01:48Z</time>
      </trkpt>
      <trkpt lat="47.38252" lon="-2.00035">
        <ele>59</ele>
        <time>2013-11-10T09:01:55Z</time>
      </trkpt>
      <trkpt lat="47.38252" lon="-2.00035">
        <ele>59</ele>
        <time>2013-11-10T09:02:02Z</time>
      </trkpt>
      <trkpt lat="47.38252" lon="-2.00035">
        <ele>60</ele>
        <time>2013-11-10T09:02:09Z</time>
      </trkpt>
      <trkpt lat="47.38256" lon="-2.00027">
        <ele>60</ele>
        <time>2013-11-10T09:02:16Z</time>
      </trkpt>
      <trkpt lat="47.38271" lon="-2.00003">
        <ele>58</ele>
        <time>2013-11-10T09:02:23Z</time>
      </trkpt>
      <trkpt lat="47.38281" lon="-1.99985">
        <ele>54</ele>
        <time>2013-11-10T09:02:29Z</time>
      </trkpt>
      <trkpt lat="47.38287" lon="-1.99952">
        <ele>51</ele>
        <time>2013-11-10T09:02:35Z</time>
      </trkpt>
      <trkpt lat="47.38288" lon="-1.99923">
        <ele>52</ele>
        <time>2013-11-10T09:02:42Z</time>
      </trkpt>
      <trkpt lat="47.38296" lon="-1.99915">
        <ele>55</ele>
        <time>2013-11-10T09:02:49Z</time>
      </trkpt>
      <trkpt lat="47.38303" lon="-1.99907">
        <ele>58</ele>
        <time>2013-11-10T09:02:56Z</time>
      </trkpt>
      <trkpt lat="47.38307" lon="-1.99904">
        <ele>59</ele>
        <time>2013-11-10T09:03:02Z</time>
      </trkpt>
      <trkpt lat="47.38312" lon="-1.99895">
        <ele>59</ele>
        <time>2013-11-10T09:03:09Z</time>
      </trkpt>
      <trkpt lat="47.38319" lon="-1.99878">
        <ele>59</ele>
        <time>2013-11-10T09:03:17Z</time>
      </trkpt>
      <trkpt lat="47.38326" lon="-1.99858">
        <ele>59</ele>
        <time>2013-11-10T09:03:23Z</time>
      </trkpt>
      <trkpt lat="47.38338" lon="-1.99826">
        <ele>60</ele>
        <time>2013-11-10T09:03:30Z</time>
      </trkpt>
      <trkpt lat="47.38348" lon="-1.99814">
        <ele>63</ele>
        <time>2013-11-10T09:03:37Z</time>
      </trkpt>
      <trkpt lat="47.38354" lon="-1.99814">
        <ele>62</ele>
        <time>2013-11-10T09:03:44Z</time>
      </trkpt>
      <trkpt lat="47.3837" lon="-1.99813">
        <ele>65</ele>
        <time>2013-11-10T09:03:52Z</time>
      </trkpt>
      <trkpt lat="47.38375" lon="-1.99815">
        <ele>63</ele>
        <time>2013-11-10T09:03:59Z</time>
      </trkpt>
      <trkpt lat="47.38382" lon="-1.99801">
        <ele>63</ele>
        <time>2013-11-10T09:04:06Z</time>
      </trkpt>
      <trkpt lat="47.38381" lon="-1.99781">
        <ele>60</ele>
        <time>2013-11-10T09:04:13Z</time>
      </trkpt>
      <trkpt lat="47.38383" lon="-1.99772">
        <ele>57</ele>
        <time>2013-11-10T09:04:20Z</time>
      </trkpt>
      <trkpt lat="47.38382" lon="-1.99767">
        <ele>58</ele>
        <time>2013-11-10T09:04:28Z</time>
      </trkpt>
      <trkpt lat="47.38384" lon="-1.99757">
        <ele>52</ele>
        <time>2013-11-10T09:04:35Z</time>
      </trkpt>
      <trkpt lat="47.38395" lon="-1.9974">
        <ele>52</ele>
        <time>2013-11-10T09:04:42Z</time>
      </trkpt>
      <trkpt lat="47.38396" lon="-1.99737">
        <ele>52</ele>
        <time>2013-11-10T09:04:48Z</time>
      </trkpt>
      <trkpt lat="47.38401" lon="-1.99743">
        <ele>52</ele>
        <time>2013-11-10T09:04:55Z</time>
      </trkpt>
      <trkpt lat="47.38404" lon="-1.99745">
        <ele>52</ele>
        <time>2013-11-10T09:05:02Z</time>
      </trkpt>
      <trkpt lat="47.38404" lon="-1.99734">
        <ele>52</ele>
        <time>2013-11-10T09:05:09Z</time>
      </trkpt>
      <trkpt lat="47.3841" lon="-1.99727">
        <ele>52</ele>
        <time>2013-11-10T09:05:17Z</time>
      </trkpt>
      <trkpt lat="47.38415" lon="-1.99719">
        <ele>53</ele>
        <time>2013-11-10T09:05:24Z</time>
      </trkpt>
      <trkpt lat="47.38433" lon="-1.99708">
        <ele>53</ele>
        <time>2013-11-10T09:05:31Z</time>
      </trkpt>
      <trkpt lat="47.38437" lon="-1.99692">
        <ele>56</ele>
        <time>2013-11-10T09:05:39Z</time>
      </trkpt>
      <trkpt lat="47.3844" lon="-1.99674">
        <ele>58</ele>
        <time>2013-11-10T09:05:46Z</time>
      </trkpt>
      <trkpt lat="47.38442" lon="-1.99657">
        <ele>60</ele>
        <time>2013-11-10T09:05:53Z</time>
      </trkpt>
      <trkpt lat="47.38444" lon="-1.99644">
        <ele>62</ele>
        <time>2013-11-10T09:06:01Z</time>
      </trkpt>
      <trkpt lat="47.38443" lon="-1.99641">
        <ele>62</ele>
        <time>2013-11-10T09:06:08Z</time>
      </trkpt>
      <trkpt lat="47.38443" lon="-1.99639">
        <ele>63</ele>
        <time>2013-11-10T09:06:15Z</time>
      </trkpt>
      <trkpt lat="47.38443" lon="-1.99635">
        <ele>61</ele>
        <time>2013-11-10T09:06:23Z</time>
      </trkpt>
      <trkpt lat="47.38441" lon="-1.9963">
        <ele>63</ele>
        <time>2013-11-10T09:06:30Z</time>
      </trkpt>
      <trkpt lat="47.38435" lon="-1.99626">
        <ele>63</ele>
        <time>2013-11-10T09:06:37Z</time>
      </trkpt>
      <trkpt lat="47.38426" lon="-1.99629">
        <ele>62</ele>
        <time>2013-11-10T09:06:45Z</time>
      </trkpt>
      <trkpt lat="47.38416" lon="-1.99635">
        <ele>60</ele>
        <time>2013-11-10T09:06:52Z</time>
      </trkpt>
      <trkpt lat="47.38413" lon="-1.99639">
        <ele>56</ele>
        <time>2013-11-10T09:06:59Z</time>
      </trkpt>
      <trkpt lat="47.38409" lon="-1.99643">
        <ele>60</ele>
        <time>2013-11-10T09:07:05Z</time>
      </trkpt>
      <trkpt lat="47.38402" lon="-1.99645">
        <ele>61</ele>
        <time>2013-11-10T09:07:13Z</time>
      </trkpt>
      <trkpt lat="47.38399" lon="-1.99645">
        <ele>62</ele>
        <time>2013-11-10T09:07:20Z</time>
      </trkpt>
      <trkpt lat="47.38396" lon="-1.99643">
        <ele>64</ele>
        <time>2013-11-10T09:07:26Z</time>
      </trkpt>
      <trkpt lat="47.38392" lon="-1.9964">
        <ele>66</ele>
        <time>2013-11-10T09:07:33Z</time>
      </trkpt>
      <trkpt lat="47.38388" lon="-1.99638">
        <ele>66</ele>
        <time>2013-11-10T09:07:41Z</time>
      </trkpt>
      <trkpt lat="47.38381" lon="-1.99639">
        <ele>67</ele>
        <time>2013-11-10T09:07:48Z</time>
      </trkpt>
      <trkpt lat="47.38374" lon="-1.99642">
        <ele>67</ele>
        <time>2013-11-10T09:07:55Z</time>
      </trkpt>
      <trkpt lat="47.38364" lon="-1.99653">
        <ele>62</ele>
        <time>2013-11-10T09:08:01Z</time>
      </trkpt>
      <trkpt lat="47.38351" lon="-1.99667">
        <ele>64</ele>
        <time>2013-11-10T09:08:08Z</time>
      </trkpt>
      <trkpt lat="47.38337" lon="-1.99674">
        <ele>61</ele>
        <time>2013-11-10T09:08:15Z</time>
      </trkpt>
      <trkpt lat="47.38322" lon="-1.99681">
        <ele>61</ele>
        <time>2013-11-10T09:08:22Z</time>
      </trkpt>
      <trkpt lat="47.38305" lon="-1.99692">
        <ele>58</ele>
        <time>2013-11-10T09:08:29Z</time>
      </trkpt>
      <trkpt lat="47.38291" lon="-1.99716">
        <ele>59</ele>
        <time>2013-11-10T09:08:36Z</time>
      </trkpt>
      <trkpt lat="47.38287" lon="-1.9972">
        <ele>60</ele>
        <time>2013-11-10T09:08:42Z</time>
      </trkpt>
      <trkpt lat="47.38285" lon="-1.99724">
        <ele>57</ele>
        <time>2013-11-10T09:08:49Z</time>
      </trkpt>
      <trkpt lat="47.38284" lon="-1.99726">
        <ele>56</ele>
        <time>2013-11-10T09:08:56Z</time>
      </trkpt>
      <trkpt lat="47.38279" lon="-1.9973">
        <ele>57</ele>
        <time>2013-11-10T09:09:04Z</time>
      </trkpt>
      <trkpt lat="47.38279" lon="-1.9973">
        <ele>57</ele>
        <time>2013-11-10T09:09:10Z</time>
      </trkpt>
      <trkpt lat="47.38276" lon="-1.99728">
        <ele>56</ele>
        <time>2013-11-10T09:09:17Z</time>
      </trkpt>
      <trkpt lat="47.38276" lon="-1.99728">
        <ele>56</ele>
        <time>2013-11-10T09:09:25Z</time>
      </trkpt>
      <trkpt lat="47.38276" lon="-1.99728">
        <ele>56</ele>
        <time>2013-11-10T09:09:32Z</time>
      </trkpt>
      <trkpt lat="47.38276" lon="-1.99728">
        <ele>57</ele>
        <time>2013-11-10T09:09:39Z</time>
      </trkpt>
      <trkpt lat="47.38276" lon="-1.99728">
        <ele>56</ele>
        <time>2013-11-10T09:09:46Z</time>
      </trkpt>
      <trkpt lat="47.38275" lon="-1.99728">
        <ele>56</ele>
        <time>2013-11-10T09:09:54Z</time>
      </trkpt>
      <trkpt lat="47.38274" lon="-1.99728">
        <ele>56</ele>
        <time>2013-11-10T09:10:01Z</time>
      </trkpt>
      <trkpt lat="47.38273" lon="-1.99728">
        <ele>56</ele>
        <time>2013-11-10T09:10:08Z</time>
      </trkpt>
      <trkpt lat="47.38273" lon="-1.99729">
        <ele>55</ele>
        <time>2013-11-10T09:10:15Z</time>
      </trkpt>
      <trkpt lat="47.38273" lon="-1.99729">
        <ele>55</ele>
        <time>2013-11-10T09:10:23Z</time>
      </trkpt>
      <trkpt lat="47.38273" lon="-1.99728">
        <ele>55</ele>
        <time>2013-11-10T09:10:30Z</time>
      </trkpt>
      <trkpt lat="47.38273" lon="-1.99725">
        <ele>56</ele>
        <time>2013-11-10T09:10:37Z</time>
      </trkpt>
      <trkpt lat="47.38273" lon="-1.99725">
        <ele>55</ele>
        <time>2013-11-10T09:10:44Z</time>
      </trkpt>
      <trkpt lat="47.38273" lon="-1.99729">
        <ele>55</ele>
        <time>2013-11-10T09:10:52Z</time>
      </trkpt>
      <trkpt lat="47.38273" lon="-1.99729">
        <ele>55</ele>
        <time>2013-11-10T09:10:59Z</time>
      </trkpt>
      <trkpt lat="47.38273" lon="-1.99729">
        <ele>55</ele>
        <time>2013-11-10T09:11:05Z</time>
      </trkpt>
      <trkpt lat="47.38272" lon="-1.9973">
        <ele>55</ele>
        <time>2013-11-10T09:11:12Z</time>
      </trkpt>
      <trkpt lat="47.38272" lon="-1.9973">
        <ele>56</ele>
        <time>2013-11-10T09:11:18Z</time>
      </trkpt>
      <trkpt lat="47.38272" lon="-1.9973">
        <ele>55</ele>
        <time>2013-11-10T09:11:25Z</time>
      </trkpt>
      <trkpt lat="47.38272" lon="-1.9973">
        <ele>55</ele>
        <time>2013-11-10T09:11:32Z</time>
      </trkpt>
      <trkpt lat="47.38273" lon="-1.99731">
        <ele>55</ele>
        <time>2013-11-10T09:11:39Z</time>
      </trkpt>
      <trkpt lat="47.38273" lon="-1.99732">
        <ele>55</ele>
        <time>2013-11-10T09:11:45Z</time>
      </trkpt>
      <trkpt lat="47.38273" lon="-1.99733">
        <ele>55</ele>
        <time>2013-11-10T09:11:52Z</time>
      </trkpt>
      <trkpt lat="47.38273" lon="-1.99737">
        <ele>54</ele>
        <time>2013-11-10T09:11:59Z</time>
      </trkpt>
      <trkpt lat="47.38273" lon="-1.99737">
        <ele>55</ele>
        <time>2013-11-10T09:12:07Z</time>
      </trkpt>
      <trkpt lat="47.38273" lon="-1.99737">
        <ele>55</ele>
        <time>2013-11-10T09:12:14Z</time>
      </trkpt>
      <trkpt lat="47.38273" lon="-1.99737">
        <ele>55</ele>
        <time>2013-11-10T09:12:21Z</time>
      </trkpt>
      <trkpt lat="47.38273" lon="-1.99737">
        <ele>55</ele>
        <time>2013-11-10T09:12:28Z</time>
      </trkpt>
      <trkpt lat="47.38272" lon="-1.99737">
        <ele>55</ele>
        <time>2013-11-10T09:12:36Z</time>
      </trkpt>
      <trkpt lat="47.38269" lon="-1.99737">
        <ele>55</ele>
        <time>2013-11-10T09:12:43Z</time>
      </trkpt>
      <trkpt lat="47.38269" lon="-1.99737">
        <ele>55</ele>
        <time>2013-11-10T09:12:50Z</time>
      </trkpt>
      <trkpt lat="47.38268" lon="-1.99738">
        <ele>55</ele>
        <time>2013-11-10T09:12:57Z</time>
      </trkpt>
      <trkpt lat="47.38268" lon="-1.99739">
        <ele>55</ele>
        <time>2013-11-10T09:13:04Z</time>
      </trkpt>
      <trkpt lat="47.3827" lon="-1.99745">
        <ele>56</ele>
        <time>2013-11-10T09:13:10Z</time>
      </trkpt>
      <trkpt lat="47.38275" lon="-1.99752">
        <ele>56</ele>
        <time>2013-11-10T09:13:18Z</time>
      </trkpt>
      <trkpt lat="47.38275" lon="-1.99755">
        <ele>55</ele>
        <time>2013-11-10T09:13:26Z</time>
      </trkpt>
      <trkpt lat="47.38273" lon="-1.99751">
        <ele>55</ele>
        <time>2013-11-10T09:13:32Z</time>
      </trkpt>
      <trkpt lat="47.38271" lon="-1.99746">
        <ele>55</ele>
        <time>2013-11-10T09:13:39Z</time>
      </trkpt>
      <trkpt lat="47.38269" lon="-1.99742">
        <ele>55</ele>
        <time>2013-11-10T09:13:46Z</time>
      </trkpt>
      <trkpt lat="47.38273" lon="-1.99745">
        <ele>55</ele>
        <time>2013-11-10T09:13:54Z</time>
      </trkpt>
      <trkpt lat="47.38274" lon="-1.99748">
        <ele>55</ele>
        <time>2013-11-10T09:14:01Z</time>
      </trkpt>
      <trkpt lat="47.38275" lon="-1.99748">
        <ele>54</ele>
        <time>2013-11-10T09:14:09Z</time>
      </trkpt>
      <trkpt lat="47.38277" lon="-1.99746">
        <ele>55</ele>
        <time>2013-11-10T09:14:16Z</time>
      </trkpt>
      <trkpt lat="47.38275" lon="-1.99746">
        <ele>55</ele>
        <time>2013-11-10T09:14:24Z</time>
      </trkpt>
      <trkpt lat="47.38273" lon="-1.99746">
        <ele>55</ele>
        <time>2013-11-10T09:14:31Z</time>
      </trkpt>
      <trkpt lat="47.38272" lon="-1.99749">
        <ele>54</ele>
        <time>2013-11-10T09:14:39Z</time>
      </trkpt>
      <trkpt lat="47.38271" lon="-1.99756">
        <ele>55</ele>
        <time>2013-11-10T09:14:46Z</time>
      </trkpt>
      <trkpt lat="47.38268" lon="-1.99748">
        <ele>55</ele>
        <time>2013-11-10T09:14:54Z</time>
      </trkpt>
      <trkpt lat="47.38267" lon="-1.99747">
        <ele>55</ele>
        <time>2013-11-10T09:15:01Z</time>
      </trkpt>
      <trkpt lat="47.38266" lon="-1.99747">
        <ele>55</ele>
        <time>2013-11-10T09:15:09Z</time>
      </trkpt>
      <trkpt lat="47.38266" lon="-1.99747">
        <ele>54</ele>
        <time>2013-11-10T09:15:15Z</time>
      </trkpt>
      <trkpt lat="47.38266" lon="-1.99747">
        <ele>55</ele>
        <time>2013-11-10T09:15:23Z</time>
      </trkpt>
      <trkpt lat="47.38265" lon="-1.99746">
        <ele>55</ele>
        <time>2013-11-10T09:15:29Z</time>
      </trkpt>
      <trkpt lat="47.38265" lon="-1.99746">
        <ele>54</ele>
        <time>2013-11-10T09:15:37Z</time>
      </trkpt>
      <trkpt lat="47.38265" lon="-1.99747">
        <ele>54</ele>
        <time>2013-11-10T09:15:44Z</time>
      </trkpt>
      <trkpt lat="47.38265" lon="-1.99747">
        <ele>53</ele>
        <time>2013-11-10T09:15:51Z</time>
      </trkpt>
      <trkpt lat="47.38265" lon="-1.99747">
        <ele>53</ele>
        <time>2013-11-10T09:15:59Z</time>
      </trkpt>
      <trkpt lat="47.38265" lon="-1.99747">
        <ele>54</ele>
        <time>2013-11-10T09:16:06Z</time>
      </trkpt>
      <trkpt lat="47.38265" lon="-1.99747">
        <ele>55</ele>
        <time>2013-11-10T09:16:13Z</time>
      </trkpt>
      <trkpt lat="47.38264" lon="-1.99743">
        <ele>53</ele>
        <time>2013-11-10T09:16:21Z</time>
      </trkpt>
      <trkpt lat="47.38254" lon="-1.99751">
        <ele>55</ele>
        <time>2013-11-10T09:16:27Z</time>
      </trkpt>
      <trkpt lat="47.38246" lon="-1.99772">
        <ele>56</ele>
        <time>2013-11-10T09:16:35Z</time>
      </trkpt>
      <trkpt lat="47.38242" lon="-1.99795">
        <ele>56</ele>
        <time>2013-11-10T09:16:43Z</time>
      </trkpt>
      <trkpt lat="47.38233" lon="-1.99814">
        <ele>56</ele>
        <time>2013-11-10T09:16:50Z</time>
      </trkpt>
      <trkpt lat="47.38222" lon="-1.99834">
        <ele>56</ele>
        <time>2013-11-10T09:16:58Z</time>
      </trkpt>
      <trkpt lat="47.38211" lon="-1.99842">
        <ele>58</ele>
        <time>2013-11-10T09:17:04Z</time>
      </trkpt>
      <trkpt lat="47.38189" lon="-1.99845">
        <ele>58</ele>
        <time>2013-11-10T09:17:11Z</time>
      </trkpt>
      <trkpt lat="47.3816" lon="-1.99848">
        <ele>55</ele>
        <time>2013-11-10T09:17:18Z</time>
      </trkpt>
      <trkpt lat="47.38142" lon="-1.99864">
        <ele>51</ele>
        <time>2013-11-10T09:17:25Z</time>
      </trkpt>
      <trkpt lat="47.38126" lon="-1.99867">
        <ele>51</ele>
        <time>2013-11-10T09:17:32Z</time>
      </trkpt>
      <trkpt lat="47.38115" lon="-1.99874">
        <ele>48</ele>
        <time>2013-11-10T09:17:39Z</time>
      </trkpt>
      <trkpt lat="47.38113" lon="-1.99881">
        <ele>47</ele>
        <time>2013-11-10T09:17:46Z</time>
      </trkpt>
      <trkpt lat="47.38108" lon="-1.99882">
        <ele>47</ele>
        <time>2013-11-10T09:17:53Z</time>
      </trkpt>
      <trkpt lat="47.38103" lon="-1.99873">
        <ele>47</ele>
        <time>2013-11-10T09:17:59Z</time>
      </trkpt>
      <trkpt lat="47.38087" lon="-1.99857">
        <ele>43</ele>
        <time>2013-11-10T09:18:07Z</time>
      </trkpt>
      <trkpt lat="47.38081" lon="-1.99845">
        <ele>46</ele>
        <time>2013-11-10T09:18:13Z</time>
      </trkpt>
      <trkpt lat="47.38064" lon="-1.99832">
        <ele>46</ele>
        <time>2013-11-10T09:18:20Z</time>
      </trkpt>
      <trkpt lat="47.38057" lon="-1.99816">
        <ele>46</ele>
        <time>2013-11-10T09:18:27Z</time>
      </trkpt>
      <trkpt lat="47.38053" lon="-1.99801">
        <ele>47</ele>
        <time>2013-11-10T09:18:34Z</time>
      </trkpt>
      <trkpt lat="47.38043" lon="-1.99787">
        <ele>47</ele>
        <time>2013-11-10T09:18:40Z</time>
      </trkpt>
      <trkpt lat="47.38038" lon="-1.99774">
        <ele>45</ele>
        <time>2013-11-10T09:18:47Z</time>
      </trkpt>
      <trkpt lat="47.38032" lon="-1.99772">
        <ele>41</ele>
        <time>2013-11-10T09:18:54Z</time>
      </trkpt>
      <trkpt lat="47.38024" lon="-1.99777">
        <ele>40</ele>
        <time>2013-11-10T09:19:01Z</time>
      </trkpt>
      <trkpt lat="47.38018" lon="-1.99782">
        <ele>40</ele>
        <time>2013-11-10T09:19:08Z</time>
      </trkpt>
      <trkpt lat="47.38014" lon="-1.99778">
        <ele>40</ele>
        <time>2013-11-10T09:19:15Z</time>
      </trkpt>
      <trkpt lat="47.38012" lon="-1.99769">
        <ele>39</ele>
        <time>2013-11-10T09:19:22Z</time>
      </trkpt>
      <trkpt lat="47.38009" lon="-1.99766">
        <ele>40</ele>
        <time>2013-11-10T09:19:29Z</time>
      </trkpt>
      <trkpt lat="47.38009" lon="-1.99762">
        <ele>39</ele>
        <time>2013-11-10T09:19:35Z</time>
      </trkpt>
      <trkpt lat="47.38009" lon="-1.9976">
        <ele>39</ele>
        <time>2013-11-10T09:19:43Z</time>
      </trkpt>
      <trkpt lat="47.38009" lon="-1.9976">
        <ele>39</ele>
        <time>2013-11-10T09:19:51Z</time>
      </trkpt>
      <trkpt lat="47.38009" lon="-1.9976">
        <ele>41</ele>
        <time>2013-11-10T09:19:58Z</time>
      </trkpt>
      <trkpt lat="47.38009" lon="-1.9976">
        <ele>40</ele>
        <time>2013-11-10T09:20:05Z</time>
      </trkpt>
      <trkpt lat="47.38007" lon="-1.99765">
        <ele>40</ele>
        <time>2013-11-10T09:20:12Z</time>
      </trkpt>
      <trkpt lat="47.38012" lon="-1.99784">
        <ele>41</ele>
        <time>2013-11-10T09:20:18Z</time>
      </trkpt>
      <trkpt lat="47.38021" lon="-1.99809">
        <ele>38</ele>
        <time>2013-11-10T09:20:25Z</time>
      </trkpt>
      <trkpt lat="47.38039" lon="-1.99845">
        <ele>40</ele>
        <time>2013-11-10T09:20:33Z</time>
      </trkpt>
      <trkpt lat="47.38047" lon="-1.99867">
        <ele>37</ele>
        <time>2013-11-10T09:20:40Z</time>
      </trkpt>
      <trkpt lat="47.38055" lon="-1.99886">
        <ele>39</ele>
        <time>2013-11-10T09:20:47Z</time>
      </trkpt>
      <trkpt lat="47.38079" lon="-1.99916">
        <ele>40</ele>
        <time>2013-11-10T09:20:55Z</time>
      </trkpt>
      <trkpt lat="47.38091" lon="-1.99917">
        <ele>42</ele>
        <time>2013-11-10T09:21:02Z</time>
      </trkpt>
      <trkpt lat="47.38094" lon="-1.99921">
        <ele>43</ele>
        <time>2013-11-10T09:21:09Z</time>
      </trkpt>
      <trkpt lat="47.38106" lon="-1.9992">
        <ele>43</ele>
        <time>2013-11-10T09:21:17Z</time>
      </trkpt>
      <trkpt lat="47.38119" lon="-1.99914">
        <ele>45</ele>
        <time>2013-11-10T09:21:25Z</time>
      </trkpt>
      <trkpt lat="47.38124" lon="-1.99923">
        <ele>45</ele>
        <time>2013-11-10T09:21:32Z</time>
      </trkpt>
      <trkpt lat="47.38127" lon="-1.99926">
        <ele>45</ele>
        <time>2013-11-10T09:21:39Z</time>
      </trkpt>
      <trkpt lat="47.38129" lon="-1.99928">
        <ele>45</ele>
        <time>2013-11-10T09:21:45Z</time>
      </trkpt>
      <trkpt lat="47.38139" lon="-1.99933">
        <ele>44</ele>
        <time>2013-11-10T09:21:52Z</time>
      </trkpt>
      <trkpt lat="47.3815" lon="-1.99936">
        <ele>45</ele>
        <time>2013-11-10T09:21:59Z</time>
      </trkpt>
      <trkpt lat="47.38158" lon="-1.99951">
        <ele>45</ele>
        <time>2013-11-10T09:22:06Z</time>
      </trkpt>
      <trkpt lat="47.38165" lon="-1.99959">
        <ele>44</ele>
        <time>2013-11-10T09:22:14Z</time>
      </trkpt>
      <trkpt lat="47.3817" lon="-1.99968">
        <ele>46</ele>
        <time>2013-11-10T09:22:21Z</time>
      </trkpt>
      <trkpt lat="47.38178" lon="-1.99963">
        <ele>44</ele>
        <time>2013-11-10T09:22:28Z</time>
      </trkpt>
      <trkpt lat="47.38186" lon="-1.99956">
        <ele>43</ele>
        <time>2013-11-10T09:22:35Z</time>
      </trkpt>
      <trkpt lat="47.38189" lon="-1.99952">
        <ele>43</ele>
        <time>2013-11-10T09:22:42Z</time>
      </trkpt>
      <trkpt lat="47.38188" lon="-1.99948">
        <ele>43</ele>
        <time>2013-11-10T09:22:49Z</time>
      </trkpt>
      <trkpt lat="47.38191" lon="-1.99943">
        <ele>42</ele>
        <time>2013-11-10T09:22:56Z</time>
      </trkpt>
      <trkpt lat="47.38194" lon="-1.99945">
        <ele>39</ele>
        <time>2013-11-10T09:23:03Z</time>
      </trkpt>
      <trkpt lat="47.38196" lon="-1.99948">
        <ele>38</ele>
        <time>2013-11-10T09:23:09Z</time>
      </trkpt>
      <trkpt lat="47.38195" lon="-1.99947">
        <ele>38</ele>
        <time>2013-11-10T09:23:16Z</time>
      </trkpt>
      <trkpt lat="47.38195" lon="-1.99945">
        <ele>38</ele>
        <time>2013-11-10T09:23:23Z</time>
      </trkpt>
      <trkpt lat="47.38197" lon="-1.99941">
        <ele>38</ele>
        <time>2013-11-10T09:23:31Z</time>
      </trkpt>
      <trkpt lat="47.38201" lon="-1.99935">
        <ele>38</ele>
        <time>2013-11-10T09:23:38Z</time>
      </trkpt>
      <trkpt lat="47.38202" lon="-1.99933">
        <ele>36</ele>
        <time>2013-11-10T09:23:46Z</time>
      </trkpt>
      <trkpt lat="47.38207" lon="-1.99936">
        <ele>39</ele>
        <time>2013-11-10T09:23:53Z</time>
      </trkpt>
      <trkpt lat="47.38214" lon="-1.9993">
        <ele>38</ele>
        <time>2013-11-10T09:24:00Z</time>
      </trkpt>
      <trkpt lat="47.38217" lon="-1.99932">
        <ele>39</ele>
        <time>2013-11-10T09:24:07Z</time>
      </trkpt>
      <trkpt lat="47.38222" lon="-1.9993">
        <ele>42</ele>
        <time>2013-11-10T09:24:14Z</time>
      </trkpt>
      <trkpt lat="47.38218" lon="-1.99924">
        <ele>45</ele>
        <time>2013-11-10T09:24:22Z</time>
      </trkpt>
      <trkpt lat="47.38209" lon="-1.99914">
        <ele>47</ele>
        <time>2013-11-10T09:24:29Z</time>
      </trkpt>
      <trkpt lat="47.38201" lon="-1.99917">
        <ele>49</ele>
        <time>2013-11-10T09:24:36Z</time>
      </trkpt>
      <trkpt lat="47.38195" lon="-1.99922">
        <ele>49</ele>
        <time>2013-11-10T09:24:43Z</time>
      </trkpt>
      <trkpt lat="47.38189" lon="-1.99927">
        <ele>49</ele>
        <time>2013-11-10T09:24:50Z</time>
      </trkpt>
      <trkpt lat="47.38187" lon="-1.99927">
        <ele>49</ele>
        <time>2013-11-10T09:24:58Z</time>
      </trkpt>
      <trkpt lat="47.38188" lon="-1.99927">
        <ele>49</ele>
        <time>2013-11-10T09:25:05Z</time>
      </trkpt>
      <trkpt lat="47.38187" lon="-1.99926">
        <ele>49</ele>
        <time>2013-11-10T09:25:13Z</time>
      </trkpt>
      <trkpt lat="47.3819" lon="-1.99927">
        <ele>49</ele>
        <time>2013-11-10T09:25:19Z</time>
      </trkpt>
      <trkpt lat="47.38191" lon="-1.99927">
        <ele>48</ele>
        <time>2013-11-10T09:25:26Z</time>
      </trkpt>
      <trkpt lat="47.3819" lon="-1.99928">
        <ele>49</ele>
        <time>2013-11-10T09:25:33Z</time>
      </trkpt>
      <trkpt lat="47.3819" lon="-1.99929">
        <ele>49</ele>
        <time>2013-11-10T09:25:39Z</time>
      </trkpt>
      <trkpt lat="47.38187" lon="-1.9993">
        <ele>49</ele>
        <time>2013-11-10T09:25:47Z</time>
      </trkpt>
      <trkpt lat="47.38182" lon="-1.9993">
        <ele>48</ele>
        <time>2013-11-10T09:25:54Z</time>
      </trkpt>
      <trkpt lat="47.38174" lon="-1.99926">
        <ele>49</ele>
        <time>2013-11-10T09:26:01Z</time>
      </trkpt>
      <trkpt lat="47.38164" lon="-1.99918">
        <ele>50</ele>
        <time>2013-11-10T09:26:08Z</time>
      </trkpt>
      <trkpt lat="47.38152" lon="-1.99909">
        <ele>49</ele>
        <time>2013-11-10T09:26:15Z</time>
      </trkpt>
      <trkpt lat="47.3814" lon="-1.99907">
        <ele>47</ele>
        <time>2013-11-10T09:26:22Z</time>
      </trkpt>
      <trkpt lat="47.38136" lon="-1.99923">
        <ele>44</ele>
        <time>2013-11-10T09:26:30Z</time>
      </trkpt>
      <trkpt lat="47.3814" lon="-1.9994">
        <ele>43</ele>
        <time>2013-11-10T09:26:37Z</time>
      </trkpt>
      <trkpt lat="47.38162" lon="-1.99949">
        <ele>44</ele>
        <time>2013-11-10T09:26:43Z</time>
      </trkpt>
      <trkpt lat="47.38183" lon="-1.99954">
        <ele>43</ele>
        <time>2013-11-10T09:26:51Z</time>
      </trkpt>
      <trkpt lat="47.38191" lon="-1.99953">
        <ele>41</ele>
        <time>2013-11-10T09:26:57Z</time>
      </trkpt>
      <trkpt lat="47.38199" lon="-1.99954">
        <ele>36</ele>
        <time>2013-11-10T09:27:04Z</time>
      </trkpt>
      <trkpt lat="47.38202" lon="-1.99958">
        <ele>37</ele>
        <time>2013-11-10T09:27:11Z</time>
      </trkpt>
      <trkpt lat="47.38203" lon="-1.99958">
        <ele>37</ele>
        <time>2013-11-10T09:27:19Z</time>
      </trkpt>
      <trkpt lat="47.38193" lon="-1.99969">
        <ele>36</ele>
        <time>2013-11-10T09:27:26Z</time>
      </trkpt>
      <trkpt lat="47.38197" lon="-1.99974">
        <ele>36</ele>
        <time>2013-11-10T09:27:34Z</time>
      </trkpt>
      <trkpt lat="47.382" lon="-1.99976">
        <ele>36</ele>
        <time>2013-11-10T09:27:41Z</time>
      </trkpt>
      <trkpt lat="47.382" lon="-1.99976">
        <ele>37</ele>
        <time>2013-11-10T09:27:48Z</time>
      </trkpt>
      <trkpt lat="47.38188" lon="-1.99973">
        <ele>36</ele>
        <time>2013-11-10T09:27:55Z</time>
      </trkpt>
      <trkpt lat="47.38174" lon="-1.99971">
        <ele>35</ele>
        <time>2013-11-10T09:28:03Z</time>
      </trkpt>
      <trkpt lat="47.38169" lon="-1.99973">
        <ele>37</ele>
        <time>2013-11-10T09:28:10Z</time>
      </trkpt>
      <trkpt lat="47.38161" lon="-1.99972">
        <ele>38</ele>
        <time>2013-11-10T09:28:17Z</time>
      </trkpt>
      <trkpt lat="47.38151" lon="-1.99963">
        <ele>41</ele>
        <time>2013-11-10T09:28:24Z</time>
      </trkpt>
      <trkpt lat="47.38143" lon="-1.99956">
        <ele>41</ele>
        <time>2013-11-10T09:28:31Z</time>
      </trkpt>
      <trkpt lat="47.38133" lon="-1.99944">
        <ele>41</ele>
        <time>2013-11-10T09:28:39Z</time>
      </trkpt>
      <trkpt lat="47.38121" lon="-1.99937">
        <ele>40</ele>
        <time>2013-11-10T09:28:45Z</time>
      </trkpt>
      <trkpt lat="47.38105" lon="-1.99923">
        <ele>37</ele>
        <time>2013-11-10T09:28:53Z</time>
      </trkpt>
      <trkpt lat="47.3809" lon="-1.99908">
        <ele>37</ele>
        <time>2013-11-10T09:29:01Z</time>
      </trkpt>
      <trkpt lat="47.38077" lon="-1.99892">
        <ele>39</ele>
        <time>2013-11-10T09:29:08Z</time>
      </trkpt>
      <trkpt lat="47.38063" lon="-1.99867">
        <ele>38</ele>
        <time>2013-11-10T09:29:15Z</time>
      </trkpt>
      <trkpt lat="47.3804" lon="-1.99826">
        <ele>40</ele>
        <time>2013-11-10T09:29:23Z</time>
      </trkpt>
      <trkpt lat="47.38018" lon="-1.99795">
        <ele>38</ele>
        <time>2013-11-10T09:29:29Z</time>
      </trkpt>
      <trkpt lat="47.38007" lon="-1.99778">
        <ele>38</ele>
        <time>2013-11-10T09:29:36Z</time>
      </trkpt>
      <trkpt lat="47.38004" lon="-1.99777">
        <ele>38</ele>
        <time>2013-11-10T09:29:43Z</time>
      </trkpt>
      <trkpt lat="47.38002" lon="-1.99777">
        <ele>38</ele>
        <time>2013-11-10T09:29:51Z</time>
      </trkpt>
      <trkpt lat="47.38006" lon="-1.99773">
        <ele>39</ele>
        <time>2013-11-10T09:29:57Z</time>
      </trkpt>
      <trkpt lat="47.38017" lon="-1.99764">
        <ele>41</ele>
        <time>2013-11-10T09:30:05Z</time>
      </trkpt>
      <trkpt lat="47.3803" lon="-1.99753">
        <ele>44</ele>
        <time>2013-11-10T09:30:13Z</time>
      </trkpt>
      <trkpt lat="47.38041" lon="-1.99745">
        <ele>44</ele>
        <time>2013-11-10T09:30:20Z</time>
      </trkpt>
      <trkpt lat="47.3805" lon="-1.99732">
        <ele>46</ele>
        <time>2013-11-10T09:30:27Z</time>
      </trkpt>
      <trkpt lat="47.38065" lon="-1.99718">
        <ele>47</ele>
        <time>2013-11-10T09:30:35Z</time>
      </trkpt>
      <trkpt lat="47.38075" lon="-1.99706">
        <ele>50</ele>
        <time>2013-11-10T09:30:42Z</time>
      </trkpt>
      <trkpt lat="47.38086" lon="-1.99696">
        <ele>51</ele>
        <time>2013-11-10T09:30:49Z</time>
      </trkpt>
      <trkpt lat="47.38097" lon="-1.99686">
        <ele>53</ele>
        <time>2013-11-10T09:30:56Z</time>
      </trkpt>
      <trkpt lat="47.38109" lon="-1.99669">
        <ele>54</ele>
        <time>2013-11-10T09:31:04Z</time>
      </trkpt>
      <trkpt lat="47.38105" lon="-1.99648">
        <ele>54</ele>
        <time>2013-11-10T09:31:11Z</time>
      </trkpt>
      <trkpt lat="47.38095" lon="-1.99627">
        <ele>56</ele>
        <time>2013-11-10T09:31:18Z</time>
      </trkpt>
      <trkpt lat="47.38086" lon="-1.99607">
        <ele>56</ele>
        <time>2013-11-10T09:31:25Z</time>
      </trkpt>
      <trkpt lat="47.38073" lon="-1.99579">
        <ele>57</ele>
        <time>2013-11-10T09:31:33Z</time>
      </trkpt>
      <trkpt lat="47.38061" lon="-1.99552">
        <ele>57</ele>
        <time>2013-11-10T09:31:40Z</time>
      </trkpt>
      <trkpt lat="47.38047" lon="-1.99524">
        <ele>57</ele>
        <time>2013-11-10T09:31:47Z</time>
      </trkpt>
      <trkpt lat="47.3803" lon="-1.99499">
        <ele>56</ele>
        <time>2013-11-10T09:31:54Z</time>
      </trkpt>
      <trkpt lat="47.38024" lon="-1.99465">
        <ele>56</ele>
        <time>2013-11-10T09:32:01Z</time>
      </trkpt>
      <trkpt lat="47.3802" lon="-1.99435">
        <ele>55</ele>
        <time>2013-11-10T09:32:07Z</time>
      </trkpt>
      <trkpt lat="47.3804" lon="-1.9941">
        <ele>54</ele>
        <time>2013-11-10T09:32:14Z</time>
      </trkpt>
      <trkpt lat="47.38068" lon="-1.99406">
        <ele>49</ele>
        <time>2013-11-10T09:32:22Z</time>
      </trkpt>
      <trkpt lat="47.38091" lon="-1.99376">
        <ele>46</ele>
        <time>2013-11-10T09:32:29Z</time>
      </trkpt>
      <trkpt lat="47.38097" lon="-1.99353">
        <ele>46</ele>
        <time>2013-11-10T09:32:36Z</time>
      </trkpt>
      <trkpt lat="47.3811" lon="-1.99327">
        <ele>48</ele>
        <time>2013-11-10T09:32:43Z</time>
      </trkpt>
      <trkpt lat="47.38123" lon="-1.99311">
        <ele>49</ele>
        <time>2013-11-10T09:32:50Z</time>
      </trkpt>
      <trkpt lat="47.38128" lon="-1.99302">
        <ele>50</ele>
        <time>2013-11-10T09:32:57Z</time>
      </trkpt>
      <trkpt lat="47.38134" lon="-1.99291">
        <ele>52</ele>
        <time>2013-11-10T09:33:04Z</time>
      </trkpt>
      <trkpt lat="47.38137" lon="-1.99272">
        <ele>52</ele>
        <time>2013-11-10T09:33:11Z</time>
      </trkpt>
      <trkpt lat="47.38142" lon="-1.99257">
        <ele>54</ele>
        <time>2013-11-10T09:33:19Z</time>
      </trkpt>
      <trkpt lat="47.38139" lon="-1.99253">
        <ele>54</ele>
        <time>2013-11-10T09:33:26Z</time>
      </trkpt>
      <trkpt lat="47.38128" lon="-1.99252">
        <ele>55</ele>
        <time>2013-11-10T09:33:34Z</time>
      </trkpt>
      <trkpt lat="47.38126" lon="-1.99252">
        <ele>55</ele>
        <time>2013-11-10T09:33:41Z</time>
      </trkpt>
      <trkpt lat="47.38105" lon="-1.99253">
        <ele>55</ele>
        <time>2013-11-10T09:33:49Z</time>
      </trkpt>
      <trkpt lat="47.38087" lon="-1.99262">
        <ele>54</ele>
        <time>2013-11-10T09:33:55Z</time>
      </trkpt>
      <trkpt lat="47.38081" lon="-1.99283">
        <ele>53</ele>
        <time>2013-11-10T09:34:02Z</time>
      </trkpt>
      <trkpt lat="47.38069" lon="-1.99304">
        <ele>51</ele>
        <time>2013-11-10T09:34:10Z</time>
      </trkpt>
      <trkpt lat="47.38046" lon="-1.99309">
        <ele>46</ele>
        <time>2013-11-10T09:34:18Z</time>
      </trkpt>
      <trkpt lat="47.38032" lon="-1.99298">
        <ele>44</ele>
        <time>2013-11-10T09:34:25Z</time>
      </trkpt>
      <trkpt lat="47.3802" lon="-1.99279">
        <ele>45</ele>
        <time>2013-11-10T09:34:32Z</time>
      </trkpt>
      <trkpt lat="47.38016" lon="-1.99253">
        <ele>46</ele>
        <time>2013-11-10T09:34:39Z</time>
      </trkpt>
      <trkpt lat="47.38014" lon="-1.99228">
        <ele>49</ele>
        <time>2013-11-10T09:34:47Z</time>
      </trkpt>
      <trkpt lat="47.3801" lon="-1.99205">
        <ele>51</ele>
        <time>2013-11-10T09:34:54Z</time>
      </trkpt>
      <trkpt lat="47.38007" lon="-1.99183">
        <ele>52</ele>
        <time>2013-11-10T09:35:01Z</time>
      </trkpt>
      <trkpt lat="47.38003" lon="-1.99163">
        <ele>53</ele>
        <time>2013-11-10T09:35:09Z</time>
      </trkpt>
      <trkpt lat="47.38" lon="-1.99148">
        <ele>54</ele>
        <time>2013-11-10T09:35:16Z</time>
      </trkpt>
      <trkpt lat="47.37999" lon="-1.99135">
        <ele>56</ele>
        <time>2013-11-10T09:35:23Z</time>
      </trkpt>
      <trkpt lat="47.37994" lon="-1.99121">
        <ele>57</ele>
        <time>2013-11-10T09:35:31Z</time>
      </trkpt>
      <trkpt lat="47.3799" lon="-1.99112">
        <ele>59</ele>
        <time>2013-11-10T09:35:39Z</time>
      </trkpt>
      <trkpt lat="47.37989" lon="-1.9911">
        <ele>60</ele>
        <time>2013-11-10T09:35:46Z</time>
      </trkpt>
      <trkpt lat="47.37983" lon="-1.99096">
        <ele>59</ele>
        <time>2013-11-10T09:35:52Z</time>
      </trkpt>
      <trkpt lat="47.37976" lon="-1.99072">
        <ele>62</ele>
        <time>2013-11-10T09:35:59Z</time>
      </trkpt>
      <trkpt lat="47.37969" lon="-1.99039">
        <ele>62</ele>
        <time>2013-11-10T09:36:07Z</time>
      </trkpt>
      <trkpt lat="47.37964" lon="-1.99008">
        <ele>63</ele>
        <time>2013-11-10T09:36:13Z</time>
      </trkpt>
      <trkpt lat="47.37957" lon="-1.98976">
        <ele>64</ele>
        <time>2013-11-10T09:36:21Z</time>
      </trkpt>
      <trkpt lat="47.3795" lon="-1.98934">
        <ele>64</ele>
        <time>2013-11-10T09:36:29Z</time>
      </trkpt>
      <trkpt lat="47.37943" lon="-1.98892">
        <ele>64</ele>
        <time>2013-11-10T09:36:36Z</time>
      </trkpt>
      <trkpt lat="47.37936" lon="-1.9887">
        <ele>64</ele>
        <time>2013-11-10T09:36:43Z</time>
      </trkpt>
      <trkpt lat="47.37918" lon="-1.98873">
        <ele>60</ele>
        <time>2013-11-10T09:36:51Z</time>
      </trkpt>
      <trkpt lat="47.37883" lon="-1.98885">
        <ele>58</ele>
        <time>2013-11-10T09:36:57Z</time>
      </trkpt>
      <trkpt lat="47.37854" lon="-1.98891">
        <ele>56</ele>
        <time>2013-11-10T09:37:04Z</time>
      </trkpt>
      <trkpt lat="47.37824" lon="-1.9889">
        <ele>51</ele>
        <time>2013-11-10T09:37:11Z</time>
      </trkpt>
      <trkpt lat="47.37793" lon="-1.98898">
        <ele>49</ele>
        <time>2013-11-10T09:37:18Z</time>
      </trkpt>
      <trkpt lat="47.37756" lon="-1.98903">
        <ele>43</ele>
        <time>2013-11-10T09:37:26Z</time>
      </trkpt>
      <trkpt lat="47.3772" lon="-1.98915">
        <ele>40</ele>
        <time>2013-11-10T09:37:34Z</time>
      </trkpt>
      <trkpt lat="47.37693" lon="-1.98925">
        <ele>38</ele>
        <time>2013-11-10T09:37:40Z</time>
      </trkpt>
      <trkpt lat="47.37664" lon="-1.98935">
        <ele>34</ele>
        <time>2013-11-10T09:37:46Z</time>
      </trkpt>
      <trkpt lat="47.37641" lon="-1.98946">
        <ele>33</ele>
        <time>2013-11-10T09:37:53Z</time>
      </trkpt>
      <trkpt lat="47.37615" lon="-1.9896">
        <ele>33</ele>
        <time>2013-11-10T09:38:00Z</time>
      </trkpt>
      <trkpt lat="47.37592" lon="-1.98973">
        <ele>31</ele>
        <time>2013-11-10T09:38:08Z</time>
      </trkpt>
      <trkpt lat="47.3757" lon="-1.98938">
        <ele>28</ele>
        <time>2013-11-10T09:38:16Z</time>
      </trkpt>
      <trkpt lat="47.37549" lon="-1.98902">
        <ele>29</ele>
        <time>2013-11-10T09:38:22Z</time>
      </trkpt>
      <trkpt lat="47.37531" lon="-1.9887">
        <ele>29</ele>
        <time>2013-11-10T09:38:29Z</time>
      </trkpt>
      <trkpt lat="47.37518" lon="-1.98831">
        <ele>29</ele>
        <time>2013-11-10T09:38:35Z</time>
      </trkpt>
      <trkpt lat="47.37501" lon="-1.98792">
        <ele>27</ele>
        <time>2013-11-10T09:38:42Z</time>
      </trkpt>
      <trkpt lat="47.37478" lon="-1.98762">
        <ele>29</ele>
        <time>2013-11-10T09:38:49Z</time>
      </trkpt>
      <trkpt lat="47.37482" lon="-1.98738">
        <ele>29</ele>
        <time>2013-11-10T09:38:55Z</time>
      </trkpt>
      <trkpt lat="47.37487" lon="-1.9871">
        <ele>30</ele>
        <time>2013-11-10T09:39:01Z</time>
      </trkpt>
      <trkpt lat="47.37489" lon="-1.98678">
        <ele>30</ele>
        <time>2013-11-10T09:39:08Z</time>
      </trkpt>
      <trkpt lat="47.37491" lon="-1.98651">
        <ele>32</ele>
        <time>2013-11-10T09:39:14Z</time>
      </trkpt>
      <trkpt lat="47.37493" lon="-1.98623">
        <ele>32</ele>
        <time>2013-11-10T09:39:21Z</time>
      </trkpt>
      <trkpt lat="47.37491" lon="-1.98597">
        <ele>34</ele>
        <time>2013-11-10T09:39:28Z</time>
      </trkpt>
      <trkpt lat="47.37502" lon="-1.98588">
        <ele>36</ele>
        <time>2013-11-10T09:39:35Z</time>
      </trkpt>
      <trkpt lat="47.37512" lon="-1.98577">
        <ele>37</ele>
        <time>2013-11-10T09:39:42Z</time>
      </trkpt>
      <trkpt lat="47.37516" lon="-1.98572">
        <ele>37</ele>
        <time>2013-11-10T09:39:50Z</time>
      </trkpt>
      <trkpt lat="47.37518" lon="-1.98571">
        <ele>38</ele>
        <time>2013-11-10T09:39:56Z</time>
      </trkpt>
      <trkpt lat="47.37515" lon="-1.98556">
        <ele>41</ele>
        <time>2013-11-10T09:40:03Z</time>
      </trkpt>
      <trkpt lat="47.37512" lon="-1.98541">
        <ele>42</ele>
        <time>2013-11-10T09:40:11Z</time>
      </trkpt>
      <trkpt lat="47.37509" lon="-1.98526">
        <ele>44</ele>
        <time>2013-11-10T09:40:19Z</time>
      </trkpt>
      <trkpt lat="47.37505" lon="-1.98507">
        <ele>46</ele>
        <time>2013-11-10T09:40:26Z</time>
      </trkpt>
      <trkpt lat="47.37501" lon="-1.98489">
        <ele>47</ele>
        <time>2013-11-10T09:40:34Z</time>
      </trkpt>
      <trkpt lat="47.37497" lon="-1.98464">
        <ele>47</ele>
        <time>2013-11-10T09:40:41Z</time>
      </trkpt>
      <trkpt lat="47.3749" lon="-1.9843">
        <ele>46</ele>
        <time>2013-11-10T09:40:49Z</time>
      </trkpt>
      <trkpt lat="47.37484" lon="-1.98399">
        <ele>47</ele>
        <time>2013-11-10T09:40:56Z</time>
      </trkpt>
      <trkpt lat="47.37477" lon="-1.98365">
        <ele>47</ele>
        <time>2013-11-10T09:41:03Z</time>
      </trkpt>
      <trkpt lat="47.37468" lon="-1.98316">
        <ele>48</ele>
        <time>2013-11-10T09:41:10Z</time>
      </trkpt>
      <trkpt lat="47.3746" lon="-1.9828">
        <ele>49</ele>
        <time>2013-11-10T09:41:17Z</time>
      </trkpt>
      <trkpt lat="47.37455" lon="-1.9825">
        <ele>49</ele>
        <time>2013-11-10T09:41:24Z</time>
      </trkpt>
      <trkpt lat="47.3745" lon="-1.98221">
        <ele>50</ele>
        <time>2013-11-10T09:41:31Z</time>
      </trkpt>
      <trkpt lat="47.37443" lon="-1.98188">
        <ele>49</ele>
        <time>2013-11-10T09:41:38Z</time>
      </trkpt>
      <trkpt lat="47.37434" lon="-1.98144">
        <ele>44</ele>
        <time>2013-11-10T09:41:46Z</time>
      </trkpt>
      <trkpt lat="47.37441" lon="-1.98122">
        <ele>44</ele>
        <time>2013-11-10T09:41:52Z</time>
      </trkpt>
      <trkpt lat="47.37452" lon="-1.98101">
        <ele>44</ele>
        <time>2013-11-10T09:41:59Z</time>
      </trkpt>
      <trkpt lat="47.37463" lon="-1.98078">
        <ele>44</ele>
        <time>2013-11-10T09:42:07Z</time>
      </trkpt>
      <trkpt lat="47.37473" lon="-1.98056">
        <ele>44</ele>
        <time>2013-11-10T09:42:14Z</time>
      </trkpt>
      <trkpt lat="47.3748" lon="-1.98037">
        <ele>45</ele>
        <time>2013-11-10T09:42:21Z</time>
      </trkpt>
      <trkpt lat="47.37493" lon="-1.98007">
        <ele>46</ele>
        <time>2013-11-10T09:42:28Z</time>
      </trkpt>
      <trkpt lat="47.37506" lon="-1.97991">
        <ele>48</ele>
        <time>2013-11-10T09:42:35Z</time>
      </trkpt>
      <trkpt lat="47.3752" lon="-1.97978">
        <ele>50</ele>
        <time>2013-11-10T09:42:43Z</time>
      </trkpt>
      <trkpt lat="47.37532" lon="-1.97972">
        <ele>50</ele>
        <time>2013-11-10T09:42:50Z</time>
      </trkpt>
      <trkpt lat="47.37543" lon="-1.97969">
        <ele>52</ele>
        <time>2013-11-10T09:42:56Z</time>
      </trkpt>
      <trkpt lat="47.37553" lon="-1.97968">
        <ele>54</ele>
        <time>2013-11-10T09:43:02Z</time>
      </trkpt>
      <trkpt lat="47.37563" lon="-1.97965">
        <ele>56</ele>
        <time>2013-11-10T09:43:09Z</time>
      </trkpt>
      <trkpt lat="47.37575" lon="-1.97961">
        <ele>57</ele>
        <time>2013-11-10T09:43:16Z</time>
      </trkpt>
      <trkpt lat="47.37583" lon="-1.97956">
        <ele>57</ele>
        <time>2013-11-10T09:43:23Z</time>
      </trkpt>
      <trkpt lat="47.37596" lon="-1.97942">
        <ele>58</ele>
        <time>2013-11-10T09:43:30Z</time>
      </trkpt>
      <trkpt lat="47.37611" lon="-1.97933">
        <ele>59</ele>
        <time>2013-11-10T09:43:37Z</time>
      </trkpt>
      <trkpt lat="47.37627" lon="-1.97922">
        <ele>59</ele>
        <time>2013-11-10T09:43:45Z</time>
      </trkpt>
      <trkpt lat="47.37643" lon="-1.97912">
        <ele>59</ele>
        <time>2013-11-10T09:43:53Z</time>
      </trkpt>
      <trkpt lat="47.37649" lon="-1.97903">
        <ele>55</ele>
        <time>2013-11-10T09:43:59Z</time>
      </trkpt>
      <trkpt lat="47.37645" lon="-1.97868">
        <ele>54</ele>
        <time>2013-11-10T09:44:07Z</time>
      </trkpt>
      <trkpt lat="47.37632" lon="-1.97857">
        <ele>54</ele>
        <time>2013-11-10T09:44:14Z</time>
      </trkpt>
      <trkpt lat="47.37619" lon="-1.97856">
        <ele>53</ele>
        <time>2013-11-10T09:44:20Z</time>
      </trkpt>
      <trkpt lat="47.3761" lon="-1.97859">
        <ele>54</ele>
        <time>2013-11-10T09:44:27Z</time>
      </trkpt>
      <trkpt lat="47.37585" lon="-1.9787">
        <ele>51</ele>
        <time>2013-11-10T09:44:34Z</time>
      </trkpt>
      <trkpt lat="47.37572" lon="-1.97871">
        <ele>52</ele>
        <time>2013-11-10T09:44:41Z</time>
      </trkpt>
      <trkpt lat="47.37558" lon="-1.97874">
        <ele>52</ele>
        <time>2013-11-10T09:44:48Z</time>
      </trkpt>
      <trkpt lat="47.37543" lon="-1.97874">
        <ele>54</ele>
        <time>2013-11-10T09:44:55Z</time>
      </trkpt>
      <trkpt lat="47.37532" lon="-1.97876">
        <ele>54</ele>
        <time>2013-11-10T09:45:03Z</time>
      </trkpt>
      <trkpt lat="47.37516" lon="-1.97877">
        <ele>55</ele>
        <time>2013-11-10T09:45:10Z</time>
      </trkpt>
      <trkpt lat="47.37502" lon="-1.97878">
        <ele>55</ele>
        <time>2013-11-10T09:45:16Z</time>
      </trkpt>
      <trkpt lat="47.37489" lon="-1.97883">
        <ele>55</ele>
        <time>2013-11-10T09:45:23Z</time>
      </trkpt>
      <trkpt lat="47.37484" lon="-1.97883">
        <ele>54</ele>
        <time>2013-11-10T09:45:30Z</time>
      </trkpt>
      <trkpt lat="47.37482" lon="-1.97884">
        <ele>55</ele>
        <time>2013-11-10T09:45:38Z</time>
      </trkpt>
      <trkpt lat="47.37482" lon="-1.97884">
        <ele>54</ele>
        <time>2013-11-10T09:45:45Z</time>
      </trkpt>
      <trkpt lat="47.37484" lon="-1.97886">
        <ele>54</ele>
        <time>2013-11-10T09:45:52Z</time>
      </trkpt>
      <trkpt lat="47.37483" lon="-1.97888">
        <ele>55</ele>
        <time>2013-11-10T09:45:59Z</time>
      </trkpt>
      <trkpt lat="47.37482" lon="-1.97886">
        <ele>54</ele>
        <time>2013-11-10T09:46:06Z</time>
      </trkpt>
      <trkpt lat="47.37482" lon="-1.97885">
        <ele>53</ele>
        <time>2013-11-10T09:46:14Z</time>
      </trkpt>
      <trkpt lat="47.37481" lon="-1.97887">
        <ele>53</ele>
        <time>2013-11-10T09:46:21Z</time>
      </trkpt>
      <trkpt lat="47.3748" lon="-1.9789">
        <ele>54</ele>
        <time>2013-11-10T09:46:28Z</time>
      </trkpt>
      <trkpt lat="47.37479" lon="-1.97893">
        <ele>54</ele>
        <time>2013-11-10T09:46:35Z</time>
      </trkpt>
      <trkpt lat="47.37477" lon="-1.97898">
        <ele>51</ele>
        <time>2013-11-10T09:46:42Z</time>
      </trkpt>
      <trkpt lat="47.37459" lon="-1.97928">
        <ele>48</ele>
        <time>2013-11-10T09:46:49Z</time>
      </trkpt>
      <trkpt lat="47.3744" lon="-1.97949">
        <ele>48</ele>
        <time>2013-11-10T09:46:57Z</time>
      </trkpt>
      <trkpt lat="47.37422" lon="-1.97984">
        <ele>45</ele>
        <time>2013-11-10T09:47:05Z</time>
      </trkpt>
      <trkpt lat="47.37399" lon="-1.98021">
        <ele>44</ele>
        <time>2013-11-10T09:47:12Z</time>
      </trkpt>
      <trkpt lat="47.37394" lon="-1.98017">
        <ele>46</ele>
        <time>2013-11-10T09:47:19Z</time>
      </trkpt>
      <trkpt lat="47.37383" lon="-1.98002">
        <ele>48</ele>
        <time>2013-11-10T09:47:26Z</time>
      </trkpt>
      <trkpt lat="47.37376" lon="-1.97984">
        <ele>49</ele>
        <time>2013-11-10T09:47:34Z</time>
      </trkpt>
      <trkpt lat="47.37373" lon="-1.97967">
        <ele>50</ele>
        <time>2013-11-10T09:47:41Z</time>
      </trkpt>
      <trkpt lat="47.3737" lon="-1.97947">
        <ele>51</ele>
        <time>2013-11-10T09:47:48Z</time>
      </trkpt>
      <trkpt lat="47.37367" lon="-1.97927">
        <ele>52</ele>
        <time>2013-11-10T09:47:56Z</time>
      </trkpt>
      <trkpt lat="47.37362" lon="-1.97904">
        <ele>53</ele>
        <time>2013-11-10T09:48:03Z</time>
      </trkpt>
      <trkpt lat="47.37359" lon="-1.97869">
        <ele>53</ele>
        <time>2013-11-10T09:48:10Z</time>
      </trkpt>
      <trkpt lat="47.37355" lon="-1.97833">
        <ele>51</ele>
        <time>2013-11-10T09:48:18Z</time>
      </trkpt>
      <trkpt lat="47.3735" lon="-1.97807">
        <ele>53</ele>
        <time>2013-11-10T09:48:24Z</time>
      </trkpt>
      <trkpt lat="47.37344" lon="-1.97782">
        <ele>55</ele>
        <time>2013-11-10T09:48:32Z</time>
      </trkpt>
      <trkpt lat="47.37337" lon="-1.97753">
        <ele>56</ele>
        <time>2013-11-10T09:48:40Z</time>
      </trkpt>
      <trkpt lat="47.37331" lon="-1.97721">
        <ele>58</ele>
        <time>2013-11-10T09:48:48Z</time>
      </trkpt>
      <trkpt lat="47.37324" lon="-1.97696">
        <ele>59</ele>
        <time>2013-11-10T09:48:54Z</time>
      </trkpt>
      <trkpt lat="47.37317" lon="-1.9767">
        <ele>59</ele>
        <time>2013-11-10T09:49:02Z</time>
      </trkpt>
      <trkpt lat="47.37309" lon="-1.97649">
        <ele>59</ele>
        <time>2013-11-10T09:49:08Z</time>
      </trkpt>
      <trkpt lat="47.37297" lon="-1.97627">
        <ele>59</ele>
        <time>2013-11-10T09:49:16Z</time>
      </trkpt>
      <trkpt lat="47.37291" lon="-1.97605">
        <ele>60</ele>
        <time>2013-11-10T09:49:23Z</time>
      </trkpt>
      <trkpt lat="47.37279" lon="-1.97567">
        <ele>59</ele>
        <time>2013-11-10T09:49:30Z</time>
      </trkpt>
      <trkpt lat="47.37266" lon="-1.97527">
        <ele>60</ele>
        <time>2013-11-10T09:49:38Z</time>
      </trkpt>
      <trkpt lat="47.3725" lon="-1.97511">
        <ele>56</ele>
        <time>2013-11-10T09:49:45Z</time>
      </trkpt>
      <trkpt lat="47.37238" lon="-1.97506">
        <ele>56</ele>
        <time>2013-11-10T09:49:52Z</time>
      </trkpt>
      <trkpt lat="47.37224" lon="-1.97465">
        <ele>54</ele>
        <time>2013-11-10T09:50:00Z</time>
      </trkpt>
      <trkpt lat="47.37216" lon="-1.97442">
        <ele>54</ele>
        <time>2013-11-10T09:50:07Z</time>
      </trkpt>
      <trkpt lat="47.37197" lon="-1.97426">
        <ele>52</ele>
        <time>2013-11-10T09:50:14Z</time>
      </trkpt>
      <trkpt lat="47.37194" lon="-1.97396">
        <ele>52</ele>
        <time>2013-11-10T09:50:21Z</time>
      </trkpt>
      <trkpt lat="47.37191" lon="-1.97369">
        <ele>55</ele>
        <time>2013-11-10T09:50:27Z</time>
      </trkpt>
      <trkpt lat="47.37192" lon="-1.97352">
        <ele>55</ele>
        <time>2013-11-10T09:50:34Z</time>
      </trkpt>
      <trkpt lat="47.37202" lon="-1.97346">
        <ele>56</ele>
        <time>2013-11-10T09:50:41Z</time>
      </trkpt>
      <trkpt lat="47.37218" lon="-1.97341">
        <ele>57</ele>
        <time>2013-11-10T09:50:48Z</time>
      </trkpt>
      <trkpt lat="47.37222" lon="-1.97339">
        <ele>57</ele>
        <time>2013-11-10T09:50:55Z</time>
      </trkpt>
      <trkpt lat="47.37223" lon="-1.9734">
        <ele>57</ele>
        <time>2013-11-10T09:51:03Z</time>
      </trkpt>
      <trkpt lat="47.37222" lon="-1.9734">
        <ele>57</ele>
        <time>2013-11-10T09:51:10Z</time>
      </trkpt>
      <trkpt lat="47.37223" lon="-1.9734">
        <ele>57</ele>
        <time>2013-11-10T09:51:18Z</time>
      </trkpt>
      <trkpt lat="47.37239" lon="-1.97341">
        <ele>58</ele>
        <time>2013-11-10T09:51:25Z</time>
      </trkpt>
      <trkpt lat="47.3726" lon="-1.97335">
        <ele>58</ele>
        <time>2013-11-10T09:51:32Z</time>
      </trkpt>
      <trkpt lat="47.3728" lon="-1.97329">
        <ele>59</ele>
        <time>2013-11-10T09:51:40Z</time>
      </trkpt>
      <trkpt lat="47.37298" lon="-1.97329">
        <ele>56</ele>
        <time>2013-11-10T09:51:47Z</time>
      </trkpt>
      <trkpt lat="47.37315" lon="-1.97324">
        <ele>58</ele>
        <time>2013-11-10T09:51:54Z</time>
      </trkpt>
      <trkpt lat="47.37338" lon="-1.97321">
        <ele>58</ele>
        <time>2013-11-10T09:52:01Z</time>
      </trkpt>
      <trkpt lat="47.37354" lon="-1.97319">
        <ele>60</ele>
        <time>2013-11-10T09:52:08Z</time>
      </trkpt>
      <trkpt lat="47.37366" lon="-1.97316">
        <ele>61</ele>
        <time>2013-11-10T09:52:14Z</time>
      </trkpt>
      <trkpt lat="47.37379" lon="-1.97328">
        <ele>61</ele>
        <time>2013-11-10T09:52:22Z</time>
      </trkpt>
      <trkpt lat="47.37413" lon="-1.97341">
        <ele>59</ele>
        <time>2013-11-10T09:52:29Z</time>
      </trkpt>
      <trkpt lat="47.37419" lon="-1.97345">
        <ele>58</ele>
        <time>2013-11-10T09:52:36Z</time>
      </trkpt>
      <trkpt lat="47.37418" lon="-1.97317">
        <ele>58</ele>
        <time>2013-11-10T09:52:43Z</time>
      </trkpt>
      <trkpt lat="47.37413" lon="-1.97298">
        <ele>57</ele>
        <time>2013-11-10T09:52:50Z</time>
      </trkpt>
      <trkpt lat="47.37412" lon="-1.97292">
        <ele>56</ele>
        <time>2013-11-10T09:52:57Z</time>
      </trkpt>
      <trkpt lat="47.37413" lon="-1.97296">
        <ele>57</ele>
        <time>2013-11-10T09:53:04Z</time>
      </trkpt>
      <trkpt lat="47.37413" lon="-1.97296">
        <ele>57</ele>
        <time>2013-11-10T09:53:11Z</time>
      </trkpt>
      <trkpt lat="47.37411" lon="-1.97291">
        <ele>58</ele>
        <time>2013-11-10T09:53:19Z</time>
      </trkpt>
      <trkpt lat="47.37409" lon="-1.97288">
        <ele>57</ele>
        <time>2013-11-10T09:53:27Z</time>
      </trkpt>
      <trkpt lat="47.37411" lon="-1.97288">
        <ele>58</ele>
        <time>2013-11-10T09:53:35Z</time>
      </trkpt>
      <trkpt lat="47.37412" lon="-1.97286">
        <ele>58</ele>
        <time>2013-11-10T09:53:41Z</time>
      </trkpt>
      <trkpt lat="47.3742" lon="-1.97288">
        <ele>57</ele>
        <time>2013-11-10T09:53:49Z</time>
      </trkpt>
      <trkpt lat="47.37457" lon="-1.97289">
        <ele>53</ele>
        <time>2013-11-10T09:53:57Z</time>
      </trkpt>
      <trkpt lat="47.37458" lon="-1.97272">
        <ele>51</ele>
        <time>2013-11-10T09:54:04Z</time>
      </trkpt>
      <trkpt lat="47.3744" lon="-1.97249">
        <ele>49</ele>
        <time>2013-11-10T09:54:12Z</time>
      </trkpt>
      <trkpt lat="47.37433" lon="-1.97228">
        <ele>50</ele>
        <time>2013-11-10T09:54:19Z</time>
      </trkpt>
      <trkpt lat="47.37434" lon="-1.97205">
        <ele>51</ele>
        <time>2013-11-10T09:54:26Z</time>
      </trkpt>
      <trkpt lat="47.37437" lon="-1.9718">
        <ele>54</ele>
        <time>2013-11-10T09:54:33Z</time>
      </trkpt>
      <trkpt lat="47.37434" lon="-1.97154">
        <ele>55</ele>
        <time>2013-11-10T09:54:40Z</time>
      </trkpt>
      <trkpt lat="47.37424" lon="-1.97121">
        <ele>57</ele>
        <time>2013-11-10T09:54:47Z</time>
      </trkpt>
      <trkpt lat="47.37413" lon="-1.97108">
        <ele>56</ele>
        <time>2013-11-10T09:54:54Z</time>
      </trkpt>
      <trkpt lat="47.37393" lon="-1.97112">
        <ele>56</ele>
        <time>2013-11-10T09:55:01Z</time>
      </trkpt>
      <trkpt lat="47.37373" lon="-1.97118">
        <ele>56</ele>
        <time>2013-11-10T09:55:08Z</time>
      </trkpt>
      <trkpt lat="47.37345" lon="-1.97123">
        <ele>56</ele>
        <time>2013-11-10T09:55:16Z</time>
      </trkpt>
      <trkpt lat="47.37315" lon="-1.97131">
        <ele>55</ele>
        <time>2013-11-10T09:55:23Z</time>
      </trkpt>
      <trkpt lat="47.37277" lon="-1.9714">
        <ele>55</ele>
        <time>2013-11-10T09:55:31Z</time>
      </trkpt>
      <trkpt lat="47.37242" lon="-1.9715">
        <ele>54</ele>
        <time>2013-11-10T09:55:39Z</time>
      </trkpt>
      <trkpt lat="47.37236" lon="-1.97156">
        <ele>53</ele>
        <time>2013-11-10T09:55:46Z</time>
      </trkpt>
      <trkpt lat="47.37231" lon="-1.97162">
        <ele>52</ele>
        <time>2013-11-10T09:55:53Z</time>
      </trkpt>
      <trkpt lat="47.3723" lon="-1.97159">
        <ele>54</ele>
        <time>2013-11-10T09:56:01Z</time>
      </trkpt>
      <trkpt lat="47.37231" lon="-1.97159">
        <ele>52</ele>
        <time>2013-11-10T09:56:07Z</time>
      </trkpt>
      <trkpt lat="47.37231" lon="-1.97162">
        <ele>52</ele>
        <time>2013-11-10T09:56:15Z</time>
      </trkpt>
      <trkpt lat="47.37231" lon="-1.97171">
        <ele>53</ele>
        <time>2013-11-10T09:56:22Z</time>
      </trkpt>
      <trkpt lat="47.37231" lon="-1.97172">
        <ele>53</ele>
        <time>2013-11-10T09:56:30Z</time>
      </trkpt>
      <trkpt lat="47.37231" lon="-1.97172">
        <ele>53</ele>
        <time>2013-11-10T09:56:37Z</time>
      </trkpt>
      <trkpt lat="47.3723" lon="-1.97172">
        <ele>52</ele>
        <time>2013-11-10T09:56:45Z</time>
      </trkpt>
      <trkpt lat="47.3723" lon="-1.97172">
        <ele>53</ele>
        <time>2013-11-10T09:56:52Z</time>
      </trkpt>
      <trkpt lat="47.3723" lon="-1.97172">
        <ele>53</ele>
        <time>2013-11-10T09:57:00Z</time>
      </trkpt>
      <trkpt lat="47.3723" lon="-1.97172">
        <ele>53</ele>
        <time>2013-11-10T09:57:07Z</time>
      </trkpt>
      <trkpt lat="47.3723" lon="-1.97172">
        <ele>52</ele>
        <time>2013-11-10T09:57:14Z</time>
      </trkpt>
      <trkpt lat="47.3723" lon="-1.97172">
        <ele>52</ele>
        <time>2013-11-10T09:57:22Z</time>
      </trkpt>
      <trkpt lat="47.3723" lon="-1.97172">
        <ele>52</ele>
        <time>2013-11-10T09:57:29Z</time>
      </trkpt>
      <trkpt lat="47.3723" lon="-1.97172">
        <ele>53</ele>
        <time>2013-11-10T09:57:36Z</time>
      </trkpt>
      <trkpt lat="47.3723" lon="-1.97172">
        <ele>52</ele>
        <time>2013-11-10T09:57:44Z</time>
      </trkpt>
      <trkpt lat="47.3723" lon="-1.97172">
        <ele>52</ele>
        <time>2013-11-10T09:57:52Z</time>
      </trkpt>
      <trkpt lat="47.3723" lon="-1.9717">
        <ele>52</ele>
        <time>2013-11-10T09:58:00Z</time>
      </trkpt>
      <trkpt lat="47.3723" lon="-1.9717">
        <ele>52</ele>
        <time>2013-11-10T09:58:07Z</time>
      </trkpt>
      <trkpt lat="47.3723" lon="-1.9717">
        <ele>53</ele>
        <time>2013-11-10T09:58:15Z</time>
      </trkpt>
      <trkpt lat="47.3723" lon="-1.9717">
        <ele>52</ele>
        <time>2013-11-10T09:58:22Z</time>
      </trkpt>
      <trkpt lat="47.37234" lon="-1.97164">
        <ele>55</ele>
        <time>2013-11-10T09:58:30Z</time>
      </trkpt>
      <trkpt lat="47.37254" lon="-1.97149">
        <ele>54</ele>
        <time>2013-11-10T09:58:37Z</time>
      </trkpt>
      <trkpt lat="47.37282" lon="-1.97139">
        <ele>55</ele>
        <time>2013-11-10T09:58:44Z</time>
      </trkpt>
      <trkpt lat="47.3731" lon="-1.97131">
        <ele>55</ele>
        <time>2013-11-10T09:58:51Z</time>
      </trkpt>
      <trkpt lat="47.37337" lon="-1.97125">
        <ele>56</ele>
        <time>2013-11-10T09:58:57Z</time>
      </trkpt>
      <trkpt lat="47.37365" lon="-1.9712">
        <ele>56</ele>
        <time>2013-11-10T09:59:04Z</time>
      </trkpt>
      <trkpt lat="47.37392" lon="-1.97113">
        <ele>57</ele>
        <time>2013-11-10T09:59:11Z</time>
      </trkpt>
      <trkpt lat="47.37419" lon="-1.97102">
        <ele>58</ele>
        <time>2013-11-10T09:59:18Z</time>
      </trkpt>
      <trkpt lat="47.37444" lon="-1.97092">
        <ele>57</ele>
        <time>2013-11-10T09:59:25Z</time>
      </trkpt>
      <trkpt lat="47.37475" lon="-1.97074">
        <ele>58</ele>
        <time>2013-11-10T09:59:33Z</time>
      </trkpt>
      <trkpt lat="47.37504" lon="-1.97053">
        <ele>60</ele>
        <time>2013-11-10T09:59:40Z</time>
      </trkpt>
      <trkpt lat="47.37526" lon="-1.97029">
        <ele>60</ele>
        <time>2013-11-10T09:59:46Z</time>
      </trkpt>
      <trkpt lat="47.37554" lon="-1.96998">
        <ele>62</ele>
        <time>2013-11-10T09:59:54Z</time>
      </trkpt>
      <trkpt lat="47.37578" lon="-1.96971">
        <ele>63</ele>
        <time>2013-11-10T10:00:00Z</time>
      </trkpt>
      <trkpt lat="47.37607" lon="-1.9694">
        <ele>65</ele>
        <time>2013-11-10T10:00:08Z</time>
      </trkpt>
      <trkpt lat="47.37638" lon="-1.96907">
        <ele>66</ele>
        <time>2013-11-10T10:00:16Z</time>
      </trkpt>
      <trkpt lat="47.37665" lon="-1.96885">
        <ele>67</ele>
        <time>2013-11-10T10:00:23Z</time>
      </trkpt>
      <trkpt lat="47.3769" lon="-1.96863">
        <ele>66</ele>
        <time>2013-11-10T10:00:30Z</time>
      </trkpt>
      <trkpt lat="47.37684" lon="-1.96818">
        <ele>66</ele>
        <time>2013-11-10T10:00:38Z</time>
      </trkpt>
      <trkpt lat="47.37677" lon="-1.96788">
        <ele>67</ele>
        <time>2013-11-10T10:00:46Z</time>
      </trkpt>
      <trkpt lat="47.37674" lon="-1.96761">
        <ele>67</ele>
        <time>2013-11-10T10:00:53Z</time>
      </trkpt>
      <trkpt lat="47.37669" lon="-1.96734">
        <ele>67</ele>
        <time>2013-11-10T10:00:59Z</time>
      </trkpt>
      <trkpt lat="47.37658" lon="-1.96704">
        <ele>68</ele>
        <time>2013-11-10T10:01:06Z</time>
      </trkpt>
      <trkpt lat="47.37652" lon="-1.96663">
        <ele>67</ele>
        <time>2013-11-10T10:01:13Z</time>
      </trkpt>
      <trkpt lat="47.37642" lon="-1.96613">
        <ele>66</ele>
        <time>2013-11-10T10:01:21Z</time>
      </trkpt>
      <trkpt lat="47.37624" lon="-1.96563">
        <ele>66</ele>
        <time>2013-11-10T10:01:28Z</time>
      </trkpt>
      <trkpt lat="47.376" lon="-1.96512">
        <ele>66</ele>
        <time>2013-11-10T10:01:35Z</time>
      </trkpt>
      <trkpt lat="47.37579" lon="-1.96463">
        <ele>66</ele>
        <time>2013-11-10T10:01:43Z</time>
      </trkpt>
      <trkpt lat="47.37554" lon="-1.96418">
        <ele>67</ele>
        <time>2013-11-10T10:01:49Z</time>
      </trkpt>
      <trkpt lat="47.3753" lon="-1.96369">
        <ele>68</ele>
        <time>2013-11-10T10:01:57Z</time>
      </trkpt>
      <trkpt lat="47.37519" lon="-1.9633">
        <ele>67</ele>
        <time>2013-11-10T10:02:05Z</time>
      </trkpt>
      <trkpt lat="47.37538" lon="-1.963">
        <ele>68</ele>
        <time>2013-11-10T10:02:13Z</time>
      </trkpt>
      <trkpt lat="47.37557" lon="-1.96273">
        <ele>69</ele>
        <time>2013-11-10T10:02:19Z</time>
      </trkpt>
      <trkpt lat="47.37579" lon="-1.96246">
        <ele>70</ele>
        <time>2013-11-10T10:02:26Z</time>
      </trkpt>
      <trkpt lat="47.376" lon="-1.96222">
        <ele>71</ele>
        <time>2013-11-10T10:02:33Z</time>
      </trkpt>
      <trkpt lat="47.37622" lon="-1.962">
        <ele>70</ele>
        <time>2013-11-10T10:02:40Z</time>
      </trkpt>
      <trkpt lat="47.37647" lon="-1.96175">
        <ele>70</ele>
        <time>2013-11-10T10:02:47Z</time>
      </trkpt>
      <trkpt lat="47.37667" lon="-1.96155">
        <ele>71</ele>
        <time>2013-11-10T10:02:54Z</time>
      </trkpt>
      <trkpt lat="47.37688" lon="-1.96134">
        <ele>71</ele>
        <time>2013-11-10T10:03:01Z</time>
      </trkpt>
      <trkpt lat="47.37711" lon="-1.9611">
        <ele>72</ele>
        <time>2013-11-10T10:03:09Z</time>
      </trkpt>
      <trkpt lat="47.37733" lon="-1.96089">
        <ele>73</ele>
        <time>2013-11-10T10:03:17Z</time>
      </trkpt>
      <trkpt lat="47.37749" lon="-1.96072">
        <ele>72</ele>
        <time>2013-11-10T10:03:24Z</time>
      </trkpt>
      <trkpt lat="47.37769" lon="-1.96054">
        <ele>72</ele>
        <time>2013-11-10T10:03:32Z</time>
      </trkpt>
      <trkpt lat="47.37789" lon="-1.96033">
        <ele>72</ele>
        <time>2013-11-10T10:03:38Z</time>
      </trkpt>
      <trkpt lat="47.37811" lon="-1.96006">
        <ele>72</ele>
        <time>2013-11-10T10:03:46Z</time>
      </trkpt>
      <trkpt lat="47.37827" lon="-1.95991">
        <ele>72</ele>
        <time>2013-11-10T10:03:53Z</time>
      </trkpt>
      <trkpt lat="47.37835" lon="-1.95984">
        <ele>73</ele>
        <time>2013-11-10T10:04:01Z</time>
      </trkpt>
      <trkpt lat="47.37838" lon="-1.95991">
        <ele>72</ele>
        <time>2013-11-10T10:04:08Z</time>
      </trkpt>
      <trkpt lat="47.3784" lon="-1.96002">
        <ele>73</ele>
        <time>2013-11-10T10:04:15Z</time>
      </trkpt>
      <trkpt lat="47.37839" lon="-1.95997">
        <ele>72</ele>
        <time>2013-11-10T10:04:22Z</time>
      </trkpt>
      <trkpt lat="47.37834" lon="-1.95961">
        <ele>74</ele>
        <time>2013-11-10T10:04:30Z</time>
      </trkpt>
      <trkpt lat="47.37829" lon="-1.95926">
        <ele>74</ele>
        <time>2013-11-10T10:04:37Z</time>
      </trkpt>
      <trkpt lat="47.37825" lon="-1.95892">
        <ele>73</ele>
        <time>2013-11-10T10:04:44Z</time>
      </trkpt>
      <trkpt lat="47.3782" lon="-1.95861">
        <ele>74</ele>
        <time>2013-11-10T10:04:51Z</time>
      </trkpt>
      <trkpt lat="47.37817" lon="-1.95829">
        <ele>74</ele>
        <time>2013-11-10T10:04:57Z</time>
      </trkpt>
      <trkpt lat="47.37812" lon="-1.95786">
        <ele>75</ele>
        <time>2013-11-10T10:05:05Z</time>
      </trkpt>
      <trkpt lat="47.37804" lon="-1.95749">
        <ele>75</ele>
        <time>2013-11-10T10:05:13Z</time>
      </trkpt>
      <trkpt lat="47.37778" lon="-1.95741">
        <ele>73</ele>
        <time>2013-11-10T10:05:20Z</time>
      </trkpt>
      <trkpt lat="47.37753" lon="-1.95731">
        <ele>75</ele>
        <time>2013-11-10T10:05:27Z</time>
      </trkpt>
      <trkpt lat="47.37733" lon="-1.95723">
        <ele>74</ele>
        <time>2013-11-10T10:05:34Z</time>
      </trkpt>
      <trkpt lat="47.37714" lon="-1.95715">
        <ele>75</ele>
        <time>2013-11-10T10:05:41Z</time>
      </trkpt>
      <trkpt lat="47.37693" lon="-1.95705">
        <ele>75</ele>
        <time>2013-11-10T10:05:48Z</time>
      </trkpt>
      <trkpt lat="47.37669" lon="-1.95694">
        <ele>75</ele>
        <time>2013-11-10T10:05:56Z</time>
      </trkpt>
      <trkpt lat="47.37643" lon="-1.95682">
        <ele>74</ele>
        <time>2013-11-10T10:06:03Z</time>
      </trkpt>
      <trkpt lat="47.37608" lon="-1.95674">
        <ele>74</ele>
        <time>2013-11-10T10:06:10Z</time>
      </trkpt>
      <trkpt lat="47.3758" lon="-1.95655">
        <ele>73</ele>
        <time>2013-11-10T10:06:17Z</time>
      </trkpt>
      <trkpt lat="47.37577" lon="-1.95621">
        <ele>75</ele>
        <time>2013-11-10T10:06:24Z</time>
      </trkpt>
      <trkpt lat="47.3758" lon="-1.95563">
        <ele>75</ele>
        <time>2013-11-10T10:06:32Z</time>
      </trkpt>
      <trkpt lat="47.37585" lon="-1.955">
        <ele>76</ele>
        <time>2013-11-10T10:06:39Z</time>
      </trkpt>
      <trkpt lat="47.37594" lon="-1.95436">
        <ele>76</ele>
        <time>2013-11-10T10:06:47Z</time>
      </trkpt>
      <trkpt lat="47.37599" lon="-1.95387">
        <ele>76</ele>
        <time>2013-11-10T10:06:53Z</time>
      </trkpt>
      <trkpt lat="47.37609" lon="-1.95334">
        <ele>76</ele>
        <time>2013-11-10T10:07:00Z</time>
      </trkpt>
      <trkpt lat="47.37613" lon="-1.9528">
        <ele>77</ele>
        <time>2013-11-10T10:07:07Z</time>
      </trkpt>
      <trkpt lat="47.37608" lon="-1.95233">
        <ele>77</ele>
        <time>2013-11-10T10:07:13Z</time>
      </trkpt>
      <trkpt lat="47.37605" lon="-1.95171">
        <ele>77</ele>
        <time>2013-11-10T10:07:21Z</time>
      </trkpt>
      <trkpt lat="47.37598" lon="-1.951">
        <ele>76</ele>
        <time>2013-11-10T10:07:29Z</time>
      </trkpt>
      <trkpt lat="47.37589" lon="-1.95047">
        <ele>77</ele>
        <time>2013-11-10T10:07:36Z</time>
      </trkpt>
      <trkpt lat="47.37576" lon="-1.94984">
        <ele>76</ele>
        <time>2013-11-10T10:07:43Z</time>
      </trkpt>
      <trkpt lat="47.37565" lon="-1.94932">
        <ele>76</ele>
        <time>2013-11-10T10:07:50Z</time>
      </trkpt>
      <trkpt lat="47.37559" lon="-1.94875">
        <ele>76</ele>
        <time>2013-11-10T10:07:57Z</time>
      </trkpt>
      <trkpt lat="47.37548" lon="-1.94818">
        <ele>76</ele>
        <time>2013-11-10T10:08:06Z</time>
      </trkpt>
      <trkpt lat="47.37534" lon="-1.94765">
        <ele>76</ele>
        <time>2013-11-10T10:08:13Z</time>
      </trkpt>
      <trkpt lat="47.37494" lon="-1.94747">
        <ele>75</ele>
        <time>2013-11-10T10:08:20Z</time>
      </trkpt>
      <trkpt lat="47.3745" lon="-1.94732">
        <ele>75</ele>
        <time>2013-11-10T10:08:27Z</time>
      </trkpt>
      <trkpt lat="47.37412" lon="-1.94718">
        <ele>72</ele>
        <time>2013-11-10T10:08:34Z</time>
      </trkpt>
      <trkpt lat="47.37378" lon="-1.94705">
        <ele>71</ele>
        <time>2013-11-10T10:08:41Z</time>
      </trkpt>
      <trkpt lat="47.37336" lon="-1.94689">
        <ele>71</ele>
        <time>2013-11-10T10:08:49Z</time>
      </trkpt>
      <trkpt lat="47.37288" lon="-1.94671">
        <ele>70</ele>
        <time>2013-11-10T10:08:56Z</time>
      </trkpt>
      <trkpt lat="47.37237" lon="-1.94651">
        <ele>67</ele>
        <time>2013-11-10T10:09:03Z</time>
      </trkpt>
      <trkpt lat="47.37185" lon="-1.94629">
        <ele>64</ele>
        <time>2013-11-10T10:09:10Z</time>
      </trkpt>
      <trkpt lat="47.37135" lon="-1.94608">
        <ele>62</ele>
        <time>2013-11-10T10:09:17Z</time>
      </trkpt>
      <trkpt lat="47.37093" lon="-1.94591">
        <ele>59</ele>
        <time>2013-11-10T10:09:23Z</time>
      </trkpt>
      <trkpt lat="47.37034" lon="-1.94568">
        <ele>59</ele>
        <time>2013-11-10T10:09:31Z</time>
      </trkpt>
      <trkpt lat="47.36989" lon="-1.94554">
        <ele>61</ele>
        <time>2013-11-10T10:09:38Z</time>
      </trkpt>
      <trkpt lat="47.36959" lon="-1.94561">
        <ele>61</ele>
        <time>2013-11-10T10:09:46Z</time>
      </trkpt>
      <trkpt lat="47.36929" lon="-1.9457">
        <ele>63</ele>
        <time>2013-11-10T10:09:54Z</time>
      </trkpt>
      <trkpt lat="47.369" lon="-1.94574">
        <ele>65</ele>
        <time>2013-11-10T10:10:00Z</time>
      </trkpt>
      <trkpt lat="47.36872" lon="-1.9458">
        <ele>65</ele>
        <time>2013-11-10T10:10:08Z</time>
      </trkpt>
      <trkpt lat="47.3685" lon="-1.94582">
        <ele>66</ele>
        <time>2013-11-10T10:10:15Z</time>
      </trkpt>
      <trkpt lat="47.36839" lon="-1.94559">
        <ele>66</ele>
        <time>2013-11-10T10:10:22Z</time>
      </trkpt>
      <trkpt lat="47.36824" lon="-1.94532">
        <ele>66</ele>
        <time>2013-11-10T10:10:28Z</time>
      </trkpt>
      <trkpt lat="47.36807" lon="-1.94506">
        <ele>65</ele>
        <time>2013-11-10T10:10:36Z</time>
      </trkpt>
      <trkpt lat="47.36786" lon="-1.94505">
        <ele>64</ele>
        <time>2013-11-10T10:10:42Z</time>
      </trkpt>
      <trkpt lat="47.36756" lon="-1.94515">
        <ele>63</ele>
        <time>2013-11-10T10:10:49Z</time>
      </trkpt>
      <trkpt lat="47.36728" lon="-1.94523">
        <ele>63</ele>
        <time>2013-11-10T10:10:56Z</time>
      </trkpt>
      <trkpt lat="47.36698" lon="-1.94531">
        <ele>61</ele>
        <time>2013-11-10T10:11:03Z</time>
      </trkpt>
      <trkpt lat="47.3667" lon="-1.9454">
        <ele>60</ele>
        <time>2013-11-10T10:11:11Z</time>
      </trkpt>
      <trkpt lat="47.36633" lon="-1.94543">
        <ele>57</ele>
        <time>2013-11-10T10:11:19Z</time>
      </trkpt>
      <trkpt lat="47.36619" lon="-1.94539">
        <ele>57</ele>
        <time>2013-11-10T10:11:26Z</time>
      </trkpt>
      <trkpt lat="47.36616" lon="-1.9451">
        <ele>56</ele>
        <time>2013-11-10T10:11:33Z</time>
      </trkpt>
      <trkpt lat="47.36591" lon="-1.94472">
        <ele>53</ele>
        <time>2013-11-10T10:11:40Z</time>
      </trkpt>
      <trkpt lat="47.36558" lon="-1.94453">
        <ele>52</ele>
        <time>2013-11-10T10:11:46Z</time>
      </trkpt>
      <trkpt lat="47.36516" lon="-1.94434">
        <ele>52</ele>
        <time>2013-11-10T10:11:53Z</time>
      </trkpt>
      <trkpt lat="47.36505" lon="-1.94464">
        <ele>54</ele>
        <time>2013-11-10T10:12:00Z</time>
      </trkpt>
      <trkpt lat="47.36519" lon="-1.94514">
        <ele>56</ele>
        <time>2013-11-10T10:12:08Z</time>
      </trkpt>
      <trkpt lat="47.36512" lon="-1.9456">
        <ele>58</ele>
        <time>2013-11-10T10:12:15Z</time>
      </trkpt>
      <trkpt lat="47.36502" lon="-1.94604">
        <ele>60</ele>
        <time>2013-11-10T10:12:21Z</time>
      </trkpt>
      <trkpt lat="47.36492" lon="-1.94649">
        <ele>58</ele>
        <time>2013-11-10T10:12:28Z</time>
      </trkpt>
      <trkpt lat="47.36479" lon="-1.94694">
        <ele>60</ele>
        <time>2013-11-10T10:12:35Z</time>
      </trkpt>
      <trkpt lat="47.36464" lon="-1.94729">
        <ele>58</ele>
        <time>2013-11-10T10:12:41Z</time>
      </trkpt>
      <trkpt lat="47.36453" lon="-1.94747">
        <ele>58</ele>
        <time>2013-11-10T10:12:48Z</time>
      </trkpt>
      <trkpt lat="47.3645" lon="-1.9475">
        <ele>58</ele>
        <time>2013-11-10T10:12:55Z</time>
      </trkpt>
      <trkpt lat="47.36455" lon="-1.94764">
        <ele>58</ele>
        <time>2013-11-10T10:13:02Z</time>
      </trkpt>
      <trkpt lat="47.36462" lon="-1.94783">
        <ele>58</ele>
        <time>2013-11-10T10:13:10Z</time>
      </trkpt>
      <trkpt lat="47.36456" lon="-1.94823">
        <ele>57</ele>
        <time>2013-11-10T10:13:17Z</time>
      </trkpt>
      <trkpt lat="47.36445" lon="-1.94864">
        <ele>55</ele>
        <time>2013-11-10T10:13:24Z</time>
      </trkpt>
      <trkpt lat="47.36436" lon="-1.94908">
        <ele>57</ele>
        <time>2013-11-10T10:13:30Z</time>
      </trkpt>
      <trkpt lat="47.36428" lon="-1.94933">
        <ele>54</ele>
        <time>2013-11-10T10:13:38Z</time>
      </trkpt>
      <trkpt lat="47.36412" lon="-1.94936">
        <ele>53</ele>
        <time>2013-11-10T10:13:45Z</time>
      </trkpt>
      <trkpt lat="47.36389" lon="-1.94927">
        <ele>54</ele>
        <time>2013-11-10T10:13:53Z</time>
      </trkpt>
      <trkpt lat="47.36352" lon="-1.94904">
        <ele>54</ele>
        <time>2013-11-10T10:14:01Z</time>
      </trkpt>
      <trkpt lat="47.36324" lon="-1.9487">
        <ele>54</ele>
        <time>2013-11-10T10:14:08Z</time>
      </trkpt>
      <trkpt lat="47.36298" lon="-1.94841">
        <ele>54</ele>
        <time>2013-11-10T10:14:15Z</time>
      </trkpt>
      <trkpt lat="47.36281" lon="-1.94802">
        <ele>53</ele>
        <time>2013-11-10T10:14:23Z</time>
      </trkpt>
      <trkpt lat="47.36253" lon="-1.94745">
        <ele>52</ele>
        <time>2013-11-10T10:14:30Z</time>
      </trkpt>
      <trkpt lat="47.36232" lon="-1.94675">
        <ele>47</ele>
        <time>2013-11-10T10:14:38Z</time>
      </trkpt>
      <trkpt lat="47.36231" lon="-1.94632">
        <ele>46</ele>
        <time>2013-11-10T10:14:44Z</time>
      </trkpt>
      <trkpt lat="47.36217" lon="-1.9468">
        <ele>44</ele>
        <time>2013-11-10T10:14:52Z</time>
      </trkpt>
      <trkpt lat="47.36195" lon="-1.94737">
        <ele>42</ele>
        <time>2013-11-10T10:14:59Z</time>
      </trkpt>
      <trkpt lat="47.36181" lon="-1.94747">
        <ele>41</ele>
        <time>2013-11-10T10:15:05Z</time>
      </trkpt>
      <trkpt lat="47.36156" lon="-1.94721">
        <ele>41</ele>
        <time>2013-11-10T10:15:13Z</time>
      </trkpt>
      <trkpt lat="47.36134" lon="-1.94711">
        <ele>44</ele>
        <time>2013-11-10T10:15:21Z</time>
      </trkpt>
      <trkpt lat="47.3612" lon="-1.94715">
        <ele>46</ele>
        <time>2013-11-10T10:15:28Z</time>
      </trkpt>
      <trkpt lat="47.3611" lon="-1.94705">
        <ele>48</ele>
        <time>2013-11-10T10:15:34Z</time>
      </trkpt>
      <trkpt lat="47.361" lon="-1.94683">
        <ele>49</ele>
        <time>2013-11-10T10:15:42Z</time>
      </trkpt>
      <trkpt lat="47.36091" lon="-1.94661">
        <ele>50</ele>
        <time>2013-11-10T10:15:49Z</time>
      </trkpt>
      <trkpt lat="47.36081" lon="-1.94634">
        <ele>51</ele>
        <time>2013-11-10T10:15:55Z</time>
      </trkpt>
      <trkpt lat="47.36071" lon="-1.94604">
        <ele>50</ele>
        <time>2013-11-10T10:16:02Z</time>
      </trkpt>
      <trkpt lat="47.36063" lon="-1.94578">
        <ele>52</ele>
        <time>2013-11-10T10:16:09Z</time>
      </trkpt>
      <trkpt lat="47.36062" lon="-1.94573">
        <ele>49</ele>
        <time>2013-11-10T10:16:16Z</time>
      </trkpt>
      <trkpt lat="47.36062" lon="-1.94573">
        <ele>50</ele>
        <time>2013-11-10T10:16:23Z</time>
      </trkpt>
      <trkpt lat="47.36062" lon="-1.94573">
        <ele>51</ele>
        <time>2013-11-10T10:16:31Z</time>
      </trkpt>
      <trkpt lat="47.36062" lon="-1.94573">
        <ele>49</ele>
        <time>2013-11-10T10:16:37Z</time>
      </trkpt>
      <trkpt lat="47.36062" lon="-1.94573">
        <ele>50</ele>
        <time>2013-11-10T10:16:44Z</time>
      </trkpt>
      <trkpt lat="47.36062" lon="-1.94573">
        <ele>50</ele>
        <time>2013-11-10T10:16:52Z</time>
      </trkpt>
      <trkpt lat="47.36062" lon="-1.94571">
        <ele>51</ele>
        <time>2013-11-10T10:16:59Z</time>
      </trkpt>
      <trkpt lat="47.36057" lon="-1.94549">
        <ele>51</ele>
        <time>2013-11-10T10:17:05Z</time>
      </trkpt>
      <trkpt lat="47.36053" lon="-1.94522">
        <ele>51</ele>
        <time>2013-11-10T10:17:12Z</time>
      </trkpt>
      <trkpt lat="47.36045" lon="-1.94483">
        <ele>51</ele>
        <time>2013-11-10T10:17:19Z</time>
      </trkpt>
      <trkpt lat="47.36045" lon="-1.94455">
        <ele>51</ele>
        <time>2013-11-10T10:17:27Z</time>
      </trkpt>
      <trkpt lat="47.36032" lon="-1.94415">
        <ele>51</ele>
        <time>2013-11-10T10:17:33Z</time>
      </trkpt>
      <trkpt lat="47.36016" lon="-1.94368">
        <ele>52</ele>
        <time>2013-11-10T10:17:41Z</time>
      </trkpt>
      <trkpt lat="47.36009" lon="-1.94336">
        <ele>52</ele>
        <time>2013-11-10T10:17:47Z</time>
      </trkpt>
      <trkpt lat="47.36011" lon="-1.94304">
        <ele>52</ele>
        <time>2013-11-10T10:17:54Z</time>
      </trkpt>
      <trkpt lat="47.35998" lon="-1.94261">
        <ele>55</ele>
        <time>2013-11-10T10:18:02Z</time>
      </trkpt>
      <trkpt lat="47.35984" lon="-1.94222">
        <ele>56</ele>
        <time>2013-11-10T10:18:09Z</time>
      </trkpt>
      <trkpt lat="47.35965" lon="-1.94179">
        <ele>55</ele>
        <time>2013-11-10T10:18:16Z</time>
      </trkpt>
      <trkpt lat="47.35943" lon="-1.94132">
        <ele>58</ele>
        <time>2013-11-10T10:18:24Z</time>
      </trkpt>
      <trkpt lat="47.35922" lon="-1.94095">
        <ele>57</ele>
        <time>2013-11-10T10:18:31Z</time>
      </trkpt>
      <trkpt lat="47.35903" lon="-1.94053">
        <ele>58</ele>
        <time>2013-11-10T10:18:38Z</time>
      </trkpt>
      <trkpt lat="47.35884" lon="-1.94011">
        <ele>58</ele>
        <time>2013-11-10T10:18:46Z</time>
      </trkpt>
      <trkpt lat="47.3587" lon="-1.93969">
        <ele>59</ele>
        <time>2013-11-10T10:18:53Z</time>
      </trkpt>
      <trkpt lat="47.35854" lon="-1.93922">
        <ele>60</ele>
        <time>2013-11-10T10:19:00Z</time>
      </trkpt>
      <trkpt lat="47.3584" lon="-1.93879">
        <ele>59</ele>
        <time>2013-11-10T10:19:07Z</time>
      </trkpt>
      <trkpt lat="47.35829" lon="-1.9383">
        <ele>60</ele>
        <time>2013-11-10T10:19:14Z</time>
      </trkpt>
      <trkpt lat="47.35819" lon="-1.93783">
        <ele>61</ele>
        <time>2013-11-10T10:19:21Z</time>
      </trkpt>
      <trkpt lat="47.35809" lon="-1.93732">
        <ele>62</ele>
        <time>2013-11-10T10:19:28Z</time>
      </trkpt>
      <trkpt lat="47.35798" lon="-1.93673">
        <ele>60</ele>
        <time>2013-11-10T10:19:35Z</time>
      </trkpt>
      <trkpt lat="47.35788" lon="-1.93608">
        <ele>58</ele>
        <time>2013-11-10T10:19:42Z</time>
      </trkpt>
      <trkpt lat="47.35773" lon="-1.93518">
        <ele>56</ele>
        <time>2013-11-10T10:19:49Z</time>
      </trkpt>
      <trkpt lat="47.35754" lon="-1.93418">
        <ele>51</ele>
        <time>2013-11-10T10:19:56Z</time>
      </trkpt>
      <trkpt lat="47.35749" lon="-1.93276">
        <ele>47</ele>
        <time>2013-11-10T10:20:03Z</time>
      </trkpt>
      <trkpt lat="47.35763" lon="-1.93189">
        <ele>46</ele>
        <time>2013-11-10T10:20:10Z</time>
      </trkpt>
      <trkpt lat="47.3579" lon="-1.93148">
        <ele>48</ele>
        <time>2013-11-10T10:20:17Z</time>
      </trkpt>
      <trkpt lat="47.35807" lon="-1.93115">
        <ele>50</ele>
        <time>2013-11-10T10:20:24Z</time>
      </trkpt>
      <trkpt lat="47.35817" lon="-1.9309">
        <ele>51</ele>
        <time>2013-11-10T10:20:31Z</time>
      </trkpt>
      <trkpt lat="47.35822" lon="-1.93064">
        <ele>53</ele>
        <time>2013-11-10T10:20:38Z</time>
      </trkpt>
      <trkpt lat="47.35821" lon="-1.93035">
        <ele>55</ele>
        <time>2013-11-10T10:20:46Z</time>
      </trkpt>
      <trkpt lat="47.35825" lon="-1.93007">
        <ele>57</ele>
        <time>2013-11-10T10:20:53Z</time>
      </trkpt>
      <trkpt lat="47.3583" lon="-1.92977">
        <ele>58</ele>
        <time>2013-11-10T10:20:59Z</time>
      </trkpt>
      <trkpt lat="47.35829" lon="-1.92952">
        <ele>58</ele>
        <time>2013-11-10T10:21:05Z</time>
      </trkpt>
      <trkpt lat="47.35825" lon="-1.92919">
        <ele>57</ele>
        <time>2013-11-10T10:21:12Z</time>
      </trkpt>
      <trkpt lat="47.35824" lon="-1.92881">
        <ele>56</ele>
        <time>2013-11-10T10:21:19Z</time>
      </trkpt>
      <trkpt lat="47.35823" lon="-1.92842">
        <ele>56</ele>
        <time>2013-11-10T10:21:25Z</time>
      </trkpt>
      <trkpt lat="47.3582" lon="-1.92789">
        <ele>51</ele>
        <time>2013-11-10T10:21:33Z</time>
      </trkpt>
      <trkpt lat="47.35815" lon="-1.92719">
        <ele>49</ele>
        <time>2013-11-10T10:21:40Z</time>
      </trkpt>
      <trkpt lat="47.35803" lon="-1.92657">
        <ele>48</ele>
        <time>2013-11-10T10:21:47Z</time>
      </trkpt>
      <trkpt lat="47.35799" lon="-1.92611">
        <ele>48</ele>
        <time>2013-11-10T10:21:54Z</time>
      </trkpt>
      <trkpt lat="47.3578" lon="-1.92582">
        <ele>50</ele>
        <time>2013-11-10T10:22:01Z</time>
      </trkpt>
      <trkpt lat="47.35768" lon="-1.92549">
        <ele>47</ele>
        <time>2013-11-10T10:22:08Z</time>
      </trkpt>
      <trkpt lat="47.35758" lon="-1.92517">
        <ele>48</ele>
        <time>2013-11-10T10:22:16Z</time>
      </trkpt>
      <trkpt lat="47.35754" lon="-1.92485">
        <ele>47</ele>
        <time>2013-11-10T10:22:23Z</time>
      </trkpt>
      <trkpt lat="47.35763" lon="-1.92445">
        <ele>47</ele>
        <time>2013-11-10T10:22:30Z</time>
      </trkpt>
      <trkpt lat="47.35766" lon="-1.92423">
        <ele>44</ele>
        <time>2013-11-10T10:22:37Z</time>
      </trkpt>
      <trkpt lat="47.35771" lon="-1.92384">
        <ele>41</ele>
        <time>2013-11-10T10:22:45Z</time>
      </trkpt>
      <trkpt lat="47.35771" lon="-1.92344">
        <ele>40</ele>
        <time>2013-11-10T10:22:53Z</time>
      </trkpt>
      <trkpt lat="47.35766" lon="-1.92285">
        <ele>39</ele>
        <time>2013-11-10T10:23:00Z</time>
      </trkpt>
      <trkpt lat="47.35762" lon="-1.9223">
        <ele>39</ele>
        <time>2013-11-10T10:23:07Z</time>
      </trkpt>
      <trkpt lat="47.35753" lon="-1.92174">
        <ele>38</ele>
        <time>2013-11-10T10:23:15Z</time>
      </trkpt>
      <trkpt lat="47.35736" lon="-1.9213">
        <ele>38</ele>
        <time>2013-11-10T10:23:23Z</time>
      </trkpt>
      <trkpt lat="47.35714" lon="-1.92108">
        <ele>39</ele>
        <time>2013-11-10T10:23:30Z</time>
      </trkpt>
      <trkpt lat="47.35684" lon="-1.92115">
        <ele>42</ele>
        <time>2013-11-10T10:23:36Z</time>
      </trkpt>
      <trkpt lat="47.35662" lon="-1.92111">
        <ele>42</ele>
        <time>2013-11-10T10:23:43Z</time>
      </trkpt>
      <trkpt lat="47.35665" lon="-1.92083">
        <ele>42</ele>
        <time>2013-11-10T10:23:51Z</time>
      </trkpt>
      <trkpt lat="47.35668" lon="-1.92041">
        <ele>43</ele>
        <time>2013-11-10T10:23:59Z</time>
      </trkpt>
      <trkpt lat="47.35655" lon="-1.92011">
        <ele>43</ele>
        <time>2013-11-10T10:24:07Z</time>
      </trkpt>
      <trkpt lat="47.35651" lon="-1.92002">
        <ele>44</ele>
        <time>2013-11-10T10:24:15Z</time>
      </trkpt>
      <trkpt lat="47.35649" lon="-1.91998">
        <ele>44</ele>
        <time>2013-11-10T10:24:23Z</time>
      </trkpt>
      <trkpt lat="47.35649" lon="-1.91998">
        <ele>45</ele>
        <time>2013-11-10T10:24:30Z</time>
      </trkpt>
      <trkpt lat="47.35649" lon="-1.91998">
        <ele>43</ele>
        <time>2013-11-10T10:24:37Z</time>
      </trkpt>
      <trkpt lat="47.35649" lon="-1.91998">
        <ele>44</ele>
        <time>2013-11-10T10:24:45Z</time>
      </trkpt>
      <trkpt lat="47.35649" lon="-1.91998">
        <ele>43</ele>
        <time>2013-11-10T10:24:52Z</time>
      </trkpt>
      <trkpt lat="47.35649" lon="-1.91998">
        <ele>45</ele>
        <time>2013-11-10T10:25:00Z</time>
      </trkpt>
      <trkpt lat="47.35647" lon="-1.91993">
        <ele>44</ele>
        <time>2013-11-10T10:25:07Z</time>
      </trkpt>
      <trkpt lat="47.35647" lon="-1.91993">
        <ele>44</ele>
        <time>2013-11-10T10:25:10Z</time>
      </trkpt>
    </trkseg>
  </trk>
</gpx>